<?xml version="1.0" encoding="UTF-8" standalone="no" ?>
<gpx xmlns="http://www.topografix.com/GPX/1/1" xmlns:xsi="http://www.w3.org/2001/XMLSchema-instance" xsi:schemaLocation="http://www.topografix.com/GPX/1/1 http://www.topografix.com/GPX/1/1/gpx.xsd" version="1.1" creator="VisuGPX - https://www.visugpx.com">
  <metadata>
    <name>Petite Cloche de Barles avec un retour par le Col de Baran </name>
    <desc><![CDATA[Les copains randonneurs du 04 :
au départ petit parking avant Ainac]]></desc>
  </metadata>
  <trk>
    <name><![CDATA[Petite Cloche de Barles avec un retour par le Col de Baran _1]]></name>
    <trkseg>
      <trkpt lat="44.21262" lon="6.21288">
        <ele>1096</ele>
        <time>2021-11-12T08:34:57+01:00</time>
      </trkpt>
      <trkpt lat="44.21262" lon="6.21288">
        <ele>1096</ele>
        <time>2021-11-12T08:34:58+01:00</time>
      </trkpt>
      <trkpt lat="44.2126" lon="6.21289">
        <ele>1096</ele>
        <time>2021-11-12T08:35:28+01:00</time>
      </trkpt>
      <trkpt lat="44.21261" lon="6.2129">
        <ele>1096</ele>
        <time>2021-11-12T08:35:32+01:00</time>
      </trkpt>
      <trkpt lat="44.21261" lon="6.2129">
        <ele>1096</ele>
        <time>2021-11-12T08:35:39+01:00</time>
      </trkpt>
      <trkpt lat="44.21262" lon="6.2129">
        <ele>1096</ele>
        <time>2021-11-12T08:35:41+01:00</time>
      </trkpt>
      <trkpt lat="44.21263" lon="6.21289">
        <ele>1096</ele>
        <time>2021-11-12T08:35:54+01:00</time>
      </trkpt>
      <trkpt lat="44.21263" lon="6.21289">
        <ele>1096</ele>
        <time>2021-11-12T08:36:07+01:00</time>
      </trkpt>
      <trkpt lat="44.21262" lon="6.21288">
        <ele>1096</ele>
        <time>2021-11-12T08:36:20+01:00</time>
      </trkpt>
      <trkpt lat="44.21264" lon="6.21291">
        <ele>1096</ele>
        <time>2021-11-12T08:36:37+01:00</time>
      </trkpt>
      <trkpt lat="44.21262" lon="6.21289">
        <ele>1096</ele>
        <time>2021-11-12T08:36:46+01:00</time>
      </trkpt>
      <trkpt lat="44.21263" lon="6.21293">
        <ele>1095</ele>
        <time>2021-11-12T08:36:59+01:00</time>
      </trkpt>
      <trkpt lat="44.21265" lon="6.21295">
        <ele>1095</ele>
        <time>2021-11-12T08:37:18+01:00</time>
      </trkpt>
      <trkpt lat="44.21264" lon="6.21295">
        <ele>1095</ele>
        <time>2021-11-12T08:37:35+01:00</time>
      </trkpt>
      <trkpt lat="44.21263" lon="6.21293">
        <ele>1095</ele>
        <time>2021-11-12T08:38:00+01:00</time>
      </trkpt>
      <trkpt lat="44.21264" lon="6.2129">
        <ele>1096</ele>
        <time>2021-11-12T08:38:18+01:00</time>
      </trkpt>
      <trkpt lat="44.21264" lon="6.2129">
        <ele>1096</ele>
        <time>2021-11-12T08:38:30+01:00</time>
      </trkpt>
      <trkpt lat="44.21262" lon="6.2129">
        <ele>1096</ele>
        <time>2021-11-12T08:38:46+01:00</time>
      </trkpt>
      <trkpt lat="44.21262" lon="6.21289">
        <ele>1096</ele>
        <time>2021-11-12T08:39:00+01:00</time>
      </trkpt>
      <trkpt lat="44.21264" lon="6.21286">
        <ele>1097</ele>
        <time>2021-11-12T08:39:23+01:00</time>
      </trkpt>
      <trkpt lat="44.21265" lon="6.21287">
        <ele>1096</ele>
        <time>2021-11-12T08:39:38+01:00</time>
      </trkpt>
      <trkpt lat="44.21267" lon="6.21293">
        <ele>1096</ele>
        <time>2021-11-12T08:39:53+01:00</time>
      </trkpt>
      <trkpt lat="44.21274" lon="6.21287">
        <ele>1096</ele>
        <time>2021-11-12T08:40:06+01:00</time>
      </trkpt>
      <trkpt lat="44.21274" lon="6.21283">
        <ele>1097</ele>
        <time>2021-11-12T08:40:19+01:00</time>
      </trkpt>
      <trkpt lat="44.21274" lon="6.21287">
        <ele>1096</ele>
        <time>2021-11-12T08:40:29+01:00</time>
      </trkpt>
      <trkpt lat="44.21267" lon="6.21288">
        <ele>1096</ele>
        <time>2021-11-12T08:40:43+01:00</time>
      </trkpt>
      <trkpt lat="44.21264" lon="6.21288">
        <ele>1096</ele>
        <time>2021-11-12T08:40:49+01:00</time>
      </trkpt>
      <trkpt lat="44.21264" lon="6.21288">
        <ele>1096</ele>
        <time>2021-11-12T08:40:56+01:00</time>
      </trkpt>
      <trkpt lat="44.21265" lon="6.21288">
        <ele>1096</ele>
        <time>2021-11-12T08:41:22+01:00</time>
      </trkpt>
      <trkpt lat="44.21273" lon="6.21288">
        <ele>1096</ele>
        <time>2021-11-12T08:41:38+01:00</time>
      </trkpt>
      <trkpt lat="44.21275" lon="6.21284">
        <ele>1096</ele>
        <time>2021-11-12T08:41:52+01:00</time>
      </trkpt>
      <trkpt lat="44.21272" lon="6.2128">
        <ele>1097</ele>
        <time>2021-11-12T08:42:18+01:00</time>
      </trkpt>
      <trkpt lat="44.21275" lon="6.21282">
        <ele>1097</ele>
        <time>2021-11-12T08:42:44+01:00</time>
      </trkpt>
      <trkpt lat="44.21266" lon="6.21284">
        <ele>1097</ele>
        <time>2021-11-12T08:42:59+01:00</time>
      </trkpt>
      <trkpt lat="44.21263" lon="6.21282">
        <ele>1097</ele>
        <time>2021-11-12T08:43:14+01:00</time>
      </trkpt>
      <trkpt lat="44.21263" lon="6.21286">
        <ele>1097</ele>
        <time>2021-11-12T08:43:28+01:00</time>
      </trkpt>
      <trkpt lat="44.21262" lon="6.21288">
        <ele>1096</ele>
        <time>2021-11-12T08:43:48+01:00</time>
      </trkpt>
      <trkpt lat="44.21273" lon="6.21288">
        <ele>1096</ele>
        <time>2021-11-12T08:44:05+01:00</time>
      </trkpt>
      <trkpt lat="44.21275" lon="6.21286">
        <ele>1096</ele>
        <time>2021-11-12T08:44:11+01:00</time>
      </trkpt>
      <trkpt lat="44.21274" lon="6.21276">
        <ele>1097</ele>
        <time>2021-11-12T08:44:28+01:00</time>
      </trkpt>
      <trkpt lat="44.21276" lon="6.2126">
        <ele>1099</ele>
        <time>2021-11-12T08:44:46+01:00</time>
      </trkpt>
      <trkpt lat="44.21282" lon="6.21248">
        <ele>1101</ele>
        <time>2021-11-12T08:45:02+01:00</time>
      </trkpt>
      <trkpt lat="44.21289" lon="6.21228">
        <ele>1106</ele>
        <time>2021-11-12T08:45:23+01:00</time>
      </trkpt>
      <trkpt lat="44.21298" lon="6.21216">
        <ele>1110</ele>
        <time>2021-11-12T08:45:42+01:00</time>
      </trkpt>
      <trkpt lat="44.21306" lon="6.21201">
        <ele>1112</ele>
        <time>2021-11-12T08:46:00+01:00</time>
      </trkpt>
      <trkpt lat="44.21309" lon="6.21187">
        <ele>1115</ele>
        <time>2021-11-12T08:46:16+01:00</time>
      </trkpt>
      <trkpt lat="44.2131" lon="6.21172">
        <ele>1117</ele>
        <time>2021-11-12T08:46:33+01:00</time>
      </trkpt>
      <trkpt lat="44.21311" lon="6.21159">
        <ele>1119</ele>
        <time>2021-11-12T08:46:48+01:00</time>
      </trkpt>
      <trkpt lat="44.2131" lon="6.21155">
        <ele>1120</ele>
        <time>2021-11-12T08:46:55+01:00</time>
      </trkpt>
      <trkpt lat="44.2131" lon="6.21144">
        <ele>1122</ele>
        <time>2021-11-12T08:47:10+01:00</time>
      </trkpt>
      <trkpt lat="44.21311" lon="6.21136">
        <ele>1123</ele>
        <time>2021-11-12T08:47:25+01:00</time>
      </trkpt>
      <trkpt lat="44.21314" lon="6.21127">
        <ele>1125</ele>
        <time>2021-11-12T08:47:39+01:00</time>
      </trkpt>
      <trkpt lat="44.21316" lon="6.21118">
        <ele>1127</ele>
        <time>2021-11-12T08:47:53+01:00</time>
      </trkpt>
      <trkpt lat="44.21323" lon="6.21113">
        <ele>1128</ele>
        <time>2021-11-12T08:48:11+01:00</time>
      </trkpt>
      <trkpt lat="44.21326" lon="6.2111">
        <ele>1128</ele>
        <time>2021-11-12T08:48:26+01:00</time>
      </trkpt>
      <trkpt lat="44.21327" lon="6.21102">
        <ele>1130</ele>
        <time>2021-11-12T08:48:43+01:00</time>
      </trkpt>
      <trkpt lat="44.21327" lon="6.21096">
        <ele>1131</ele>
        <time>2021-11-12T08:49:00+01:00</time>
      </trkpt>
      <trkpt lat="44.21335" lon="6.21095">
        <ele>1131</ele>
        <time>2021-11-12T08:49:17+01:00</time>
      </trkpt>
      <trkpt lat="44.2134" lon="6.21101">
        <ele>1131</ele>
        <time>2021-11-12T08:49:32+01:00</time>
      </trkpt>
      <trkpt lat="44.21343" lon="6.21104">
        <ele>1131</ele>
        <time>2021-11-12T08:49:39+01:00</time>
      </trkpt>
      <trkpt lat="44.21348" lon="6.2111">
        <ele>1131</ele>
        <time>2021-11-12T08:49:53+01:00</time>
      </trkpt>
      <trkpt lat="44.21353" lon="6.21109">
        <ele>1133</ele>
        <time>2021-11-12T08:50:05+01:00</time>
      </trkpt>
      <trkpt lat="44.21358" lon="6.21114">
        <ele>1133</ele>
        <time>2021-11-12T08:50:18+01:00</time>
      </trkpt>
      <trkpt lat="44.21364" lon="6.21119">
        <ele>1134</ele>
        <time>2021-11-12T08:50:33+01:00</time>
      </trkpt>
      <trkpt lat="44.21364" lon="6.21119">
        <ele>1134</ele>
        <time>2021-11-12T08:50:34+01:00</time>
      </trkpt>
      <trkpt lat="44.21364" lon="6.21119">
        <ele>1134</ele>
        <time>2021-11-12T08:50:36+01:00</time>
      </trkpt>
      <trkpt lat="44.21362" lon="6.21109">
        <ele>1134</ele>
        <time>2021-11-12T08:50:50+01:00</time>
      </trkpt>
      <trkpt lat="44.21362" lon="6.21105">
        <ele>1135</ele>
        <time>2021-11-12T08:50:54+01:00</time>
      </trkpt>
      <trkpt lat="44.21366" lon="6.2109">
        <ele>1138</ele>
        <time>2021-11-12T08:51:09+01:00</time>
      </trkpt>
      <trkpt lat="44.21374" lon="6.21076">
        <ele>1142</ele>
        <time>2021-11-12T08:51:25+01:00</time>
      </trkpt>
      <trkpt lat="44.21376" lon="6.21061">
        <ele>1145</ele>
        <time>2021-11-12T08:51:41+01:00</time>
      </trkpt>
      <trkpt lat="44.21377" lon="6.21046">
        <ele>1147</ele>
        <time>2021-11-12T08:51:57+01:00</time>
      </trkpt>
      <trkpt lat="44.21379" lon="6.21042">
        <ele>1148</ele>
        <time>2021-11-12T08:52:13+01:00</time>
      </trkpt>
      <trkpt lat="44.21379" lon="6.21035">
        <ele>1150</ele>
        <time>2021-11-12T08:52:26+01:00</time>
      </trkpt>
      <trkpt lat="44.21378" lon="6.21026">
        <ele>1151</ele>
        <time>2021-11-12T08:52:40+01:00</time>
      </trkpt>
      <trkpt lat="44.21384" lon="6.21029">
        <ele>1152</ele>
        <time>2021-11-12T08:52:54+01:00</time>
      </trkpt>
      <trkpt lat="44.21384" lon="6.2103">
        <ele>1151</ele>
        <time>2021-11-12T08:53:18+01:00</time>
      </trkpt>
      <trkpt lat="44.21384" lon="6.21029">
        <ele>1152</ele>
        <time>2021-11-12T08:53:37+01:00</time>
      </trkpt>
      <trkpt lat="44.21381" lon="6.21027">
        <ele>1151</ele>
        <time>2021-11-12T08:54:10+01:00</time>
      </trkpt>
      <trkpt lat="44.21381" lon="6.21027">
        <ele>1151</ele>
        <time>2021-11-12T08:54:11+01:00</time>
      </trkpt>
      <trkpt lat="44.21384" lon="6.21028">
        <ele>1152</ele>
        <time>2021-11-12T08:54:36+01:00</time>
      </trkpt>
      <trkpt lat="44.21384" lon="6.21029">
        <ele>1152</ele>
        <time>2021-11-12T08:54:49+01:00</time>
      </trkpt>
      <trkpt lat="44.21383" lon="6.21029">
        <ele>1152</ele>
        <time>2021-11-12T08:54:50+01:00</time>
      </trkpt>
      <trkpt lat="44.21381" lon="6.21027">
        <ele>1151</ele>
        <time>2021-11-12T08:55:17+01:00</time>
      </trkpt>
      <trkpt lat="44.21389" lon="6.21023">
        <ele>1154</ele>
        <time>2021-11-12T08:55:34+01:00</time>
      </trkpt>
      <trkpt lat="44.21393" lon="6.21018">
        <ele>1155</ele>
        <time>2021-11-12T08:55:40+01:00</time>
      </trkpt>
      <trkpt lat="44.21396" lon="6.21008">
        <ele>1157</ele>
        <time>2021-11-12T08:55:54+01:00</time>
      </trkpt>
      <trkpt lat="44.21405" lon="6.20999">
        <ele>1160</ele>
        <time>2021-11-12T08:56:10+01:00</time>
      </trkpt>
      <trkpt lat="44.21417" lon="6.20988">
        <ele>1164</ele>
        <time>2021-11-12T08:56:27+01:00</time>
      </trkpt>
      <trkpt lat="44.21428" lon="6.20984">
        <ele>1168</ele>
        <time>2021-11-12T08:56:45+01:00</time>
      </trkpt>
      <trkpt lat="44.21439" lon="6.20992">
        <ele>1171</ele>
        <time>2021-11-12T08:57:01+01:00</time>
      </trkpt>
      <trkpt lat="44.21446" lon="6.20996">
        <ele>1174</ele>
        <time>2021-11-12T08:57:16+01:00</time>
      </trkpt>
      <trkpt lat="44.21457" lon="6.21003">
        <ele>1175</ele>
        <time>2021-11-12T08:57:33+01:00</time>
      </trkpt>
      <trkpt lat="44.21457" lon="6.21003">
        <ele>1175</ele>
        <time>2021-11-12T08:57:44+01:00</time>
      </trkpt>
      <trkpt lat="44.21458" lon="6.21003">
        <ele>1175</ele>
        <time>2021-11-12T08:57:46+01:00</time>
      </trkpt>
      <trkpt lat="44.21465" lon="6.21021">
        <ele>1175</ele>
        <time>2021-11-12T08:58:01+01:00</time>
      </trkpt>
      <trkpt lat="44.21476" lon="6.21053">
        <ele>1175</ele>
        <time>2021-11-12T08:58:20+01:00</time>
      </trkpt>
      <trkpt lat="44.21479" lon="6.21061">
        <ele>1175</ele>
        <time>2021-11-13T08:42:00+01:00</time>
      </trkpt>
      <trkpt lat="44.2148" lon="6.21065">
        <ele>1174</ele>
        <time>2021-11-13T08:42:05+01:00</time>
      </trkpt>
      <trkpt lat="44.21486" lon="6.21074">
        <ele>1174</ele>
        <time>2021-11-13T08:42:10+01:00</time>
      </trkpt>
      <trkpt lat="44.21492" lon="6.2108">
        <ele>1174</ele>
        <time>2021-11-12T08:58:40+01:00</time>
      </trkpt>
      <trkpt lat="44.215" lon="6.21084">
        <ele>1174</ele>
        <time>2021-11-12T08:58:54+01:00</time>
      </trkpt>
      <trkpt lat="44.21507" lon="6.21087">
        <ele>1173</ele>
        <time>2021-11-12T08:59:12+01:00</time>
      </trkpt>
      <trkpt lat="44.21518" lon="6.2109">
        <ele>1173</ele>
        <time>2021-11-13T08:42:30+01:00</time>
      </trkpt>
      <trkpt lat="44.21523" lon="6.21092">
        <ele>1173</ele>
        <time>2021-11-13T08:42:35+01:00</time>
      </trkpt>
      <trkpt lat="44.21528" lon="6.21093">
        <ele>1173</ele>
        <time>2021-11-12T08:59:32+01:00</time>
      </trkpt>
      <trkpt lat="44.21533" lon="6.21096">
        <ele>1173</ele>
        <time>2021-11-12T08:59:38+01:00</time>
      </trkpt>
      <trkpt lat="44.21542" lon="6.21099">
        <ele>1172</ele>
        <time>2021-11-12T08:59:57+01:00</time>
      </trkpt>
      <trkpt lat="44.21552" lon="6.21107">
        <ele>1171</ele>
        <time>2021-11-12T09:00:13+01:00</time>
      </trkpt>
      <trkpt lat="44.21556" lon="6.2111">
        <ele>1170</ele>
        <time>2021-11-12T09:00:33+01:00</time>
      </trkpt>
      <trkpt lat="44.21563" lon="6.21116">
        <ele>1170</ele>
        <time>2021-11-12T09:00:51+01:00</time>
      </trkpt>
      <trkpt lat="44.2157" lon="6.21126">
        <ele>1169</ele>
        <time>2021-11-13T08:43:10+01:00</time>
      </trkpt>
      <trkpt lat="44.21574" lon="6.21139">
        <ele>1168</ele>
        <time>2021-11-12T09:01:04+01:00</time>
      </trkpt>
      <trkpt lat="44.21571" lon="6.21149">
        <ele>1166</ele>
        <time>2021-11-12T09:01:21+01:00</time>
      </trkpt>
      <trkpt lat="44.21567" lon="6.21155">
        <ele>1164</ele>
        <time>2021-11-12T09:01:38+01:00</time>
      </trkpt>
      <trkpt lat="44.21567" lon="6.21158">
        <ele>1164</ele>
        <time>2021-11-12T09:02:03+01:00</time>
      </trkpt>
      <trkpt lat="44.21564" lon="6.21156">
        <ele>1164</ele>
        <time>2021-11-12T09:02:26+01:00</time>
      </trkpt>
      <trkpt lat="44.21578" lon="6.21171">
        <ele>1163</ele>
        <time>2021-11-12T09:02:45+01:00</time>
      </trkpt>
      <trkpt lat="44.21598" lon="6.21178">
        <ele>1164</ele>
        <time>2021-11-12T09:03:04+01:00</time>
      </trkpt>
      <trkpt lat="44.21607" lon="6.21175">
        <ele>1166</ele>
        <time>2021-11-12T09:03:15+01:00</time>
      </trkpt>
      <trkpt lat="44.21611" lon="6.21173">
        <ele>1167</ele>
        <time>2021-11-12T09:03:19+01:00</time>
      </trkpt>
      <trkpt lat="44.21626" lon="6.21169">
        <ele>1169</ele>
        <time>2021-11-12T09:03:35+01:00</time>
      </trkpt>
      <trkpt lat="44.21644" lon="6.21168">
        <ele>1171</ele>
        <time>2021-11-12T09:03:53+01:00</time>
      </trkpt>
      <trkpt lat="44.21662" lon="6.21168">
        <ele>1174</ele>
        <time>2021-11-12T09:04:11+01:00</time>
      </trkpt>
      <trkpt lat="44.21677" lon="6.21168">
        <ele>1174</ele>
        <time>2021-11-12T09:04:28+01:00</time>
      </trkpt>
      <trkpt lat="44.21687" lon="6.21161">
        <ele>1177</ele>
        <time>2021-11-12T09:04:42+01:00</time>
      </trkpt>
      <trkpt lat="44.217" lon="6.21155">
        <ele>1179</ele>
        <time>2021-11-12T09:04:58+01:00</time>
      </trkpt>
      <trkpt lat="44.21714" lon="6.21144">
        <ele>1182</ele>
        <time>2021-11-12T09:05:17+01:00</time>
      </trkpt>
      <trkpt lat="44.21728" lon="6.21141">
        <ele>1181</ele>
        <time>2021-11-12T09:05:32+01:00</time>
      </trkpt>
      <trkpt lat="44.21733" lon="6.21139">
        <ele>1181</ele>
        <time>2021-11-12T09:06:02+01:00</time>
      </trkpt>
      <trkpt lat="44.21744" lon="6.21129">
        <ele>1185</ele>
        <time>2021-11-12T09:06:20+01:00</time>
      </trkpt>
      <trkpt lat="44.21758" lon="6.21121">
        <ele>1187</ele>
        <time>2021-11-12T09:06:36+01:00</time>
      </trkpt>
      <trkpt lat="44.21769" lon="6.21114">
        <ele>1189</ele>
        <time>2021-11-12T09:06:55+01:00</time>
      </trkpt>
      <trkpt lat="44.21781" lon="6.21107">
        <ele>1190</ele>
        <time>2021-11-12T09:07:11+01:00</time>
      </trkpt>
      <trkpt lat="44.21801" lon="6.21091">
        <ele>1192</ele>
        <time>2021-11-12T09:07:33+01:00</time>
      </trkpt>
      <trkpt lat="44.21815" lon="6.21076">
        <ele>1193</ele>
        <time>2021-11-12T09:07:49+01:00</time>
      </trkpt>
      <trkpt lat="44.21828" lon="6.21071">
        <ele>1193</ele>
        <time>2021-11-12T09:08:05+01:00</time>
      </trkpt>
      <trkpt lat="44.21838" lon="6.21065">
        <ele>1193</ele>
        <time>2021-11-12T09:08:19+01:00</time>
      </trkpt>
      <trkpt lat="44.2185" lon="6.21055">
        <ele>1194</ele>
        <time>2021-11-12T09:08:36+01:00</time>
      </trkpt>
      <trkpt lat="44.21861" lon="6.21048">
        <ele>1196</ele>
        <time>2021-11-12T09:08:51+01:00</time>
      </trkpt>
      <trkpt lat="44.21862" lon="6.21047">
        <ele>1196</ele>
        <time>2021-11-12T09:08:52+01:00</time>
      </trkpt>
      <trkpt lat="44.21878" lon="6.21039">
        <ele>1197</ele>
        <time>2021-11-12T09:09:10+01:00</time>
      </trkpt>
      <trkpt lat="44.21894" lon="6.21042">
        <ele>1197</ele>
        <time>2021-11-12T09:09:28+01:00</time>
      </trkpt>
      <trkpt lat="44.21903" lon="6.21045">
        <ele>1198</ele>
        <time>2021-11-12T09:09:48+01:00</time>
      </trkpt>
      <trkpt lat="44.21908" lon="6.21046">
        <ele>1198</ele>
        <time>2021-11-12T09:10:14+01:00</time>
      </trkpt>
      <trkpt lat="44.21919" lon="6.21047">
        <ele>1200</ele>
        <time>2021-11-12T09:10:28+01:00</time>
      </trkpt>
      <trkpt lat="44.21932" lon="6.21051">
        <ele>1204</ele>
        <time>2021-11-12T09:10:43+01:00</time>
      </trkpt>
      <trkpt lat="44.21945" lon="6.21057">
        <ele>1207</ele>
        <time>2021-11-12T09:11:01+01:00</time>
      </trkpt>
      <trkpt lat="44.21955" lon="6.21062">
        <ele>1208</ele>
        <time>2021-11-12T09:11:15+01:00</time>
      </trkpt>
      <trkpt lat="44.21967" lon="6.21064">
        <ele>1210</ele>
        <time>2021-11-12T09:11:32+01:00</time>
      </trkpt>
      <trkpt lat="44.21975" lon="6.21057">
        <ele>1214</ele>
        <time>2021-11-12T09:11:48+01:00</time>
      </trkpt>
      <trkpt lat="44.21977" lon="6.21058">
        <ele>1213</ele>
        <time>2021-11-12T09:12:14+01:00</time>
      </trkpt>
      <trkpt lat="44.21978" lon="6.21057">
        <ele>1214</ele>
        <time>2021-11-12T09:12:36+01:00</time>
      </trkpt>
      <trkpt lat="44.21976" lon="6.21054">
        <ele>1215</ele>
        <time>2021-11-12T09:12:59+01:00</time>
      </trkpt>
      <trkpt lat="44.21976" lon="6.21049">
        <ele>1216</ele>
        <time>2021-11-12T09:13:17+01:00</time>
      </trkpt>
      <trkpt lat="44.21975" lon="6.21049">
        <ele>1216</ele>
        <time>2021-11-12T09:13:36+01:00</time>
      </trkpt>
      <trkpt lat="44.21976" lon="6.21049">
        <ele>1216</ele>
        <time>2021-11-12T09:13:55+01:00</time>
      </trkpt>
      <trkpt lat="44.21975" lon="6.21049">
        <ele>1216</ele>
        <time>2021-11-12T09:14:20+01:00</time>
      </trkpt>
      <trkpt lat="44.21977" lon="6.21052">
        <ele>1215</ele>
        <time>2021-11-12T09:14:42+01:00</time>
      </trkpt>
      <trkpt lat="44.21983" lon="6.21048">
        <ele>1216</ele>
        <time>2021-11-12T09:14:58+01:00</time>
      </trkpt>
      <trkpt lat="44.2199" lon="6.21043">
        <ele>1218</ele>
        <time>2021-11-12T09:15:10+01:00</time>
      </trkpt>
      <trkpt lat="44.22003" lon="6.21043">
        <ele>1219</ele>
        <time>2021-11-12T09:15:25+01:00</time>
      </trkpt>
      <trkpt lat="44.22013" lon="6.21034">
        <ele>1222</ele>
        <time>2021-11-12T09:15:40+01:00</time>
      </trkpt>
      <trkpt lat="44.22026" lon="6.21022">
        <ele>1226</ele>
        <time>2021-11-12T09:15:57+01:00</time>
      </trkpt>
      <trkpt lat="44.22035" lon="6.21017">
        <ele>1229</ele>
        <time>2021-11-12T09:16:10+01:00</time>
      </trkpt>
      <trkpt lat="44.22044" lon="6.21015">
        <ele>1231</ele>
        <time>2021-11-12T09:16:26+01:00</time>
      </trkpt>
      <trkpt lat="44.22054" lon="6.21011">
        <ele>1235</ele>
        <time>2021-11-12T09:16:43+01:00</time>
      </trkpt>
      <trkpt lat="44.2206" lon="6.20999">
        <ele>1239</ele>
        <time>2021-11-12T09:16:58+01:00</time>
      </trkpt>
      <trkpt lat="44.22061" lon="6.20988">
        <ele>1242</ele>
        <time>2021-11-12T09:17:13+01:00</time>
      </trkpt>
      <trkpt lat="44.22072" lon="6.20977">
        <ele>1246</ele>
        <time>2021-11-12T09:17:32+01:00</time>
      </trkpt>
      <trkpt lat="44.2208" lon="6.20965">
        <ele>1249</ele>
        <time>2021-11-12T09:17:48+01:00</time>
      </trkpt>
      <trkpt lat="44.22088" lon="6.2096">
        <ele>1250</ele>
        <time>2021-11-12T09:18:05+01:00</time>
      </trkpt>
      <trkpt lat="44.22102" lon="6.20957">
        <ele>1252</ele>
        <time>2021-11-12T09:18:26+01:00</time>
      </trkpt>
      <trkpt lat="44.22118" lon="6.20958">
        <ele>1253</ele>
        <time>2021-11-12T09:18:43+01:00</time>
      </trkpt>
      <trkpt lat="44.22128" lon="6.20954">
        <ele>1255</ele>
        <time>2021-11-12T09:19:00+01:00</time>
      </trkpt>
      <trkpt lat="44.2214" lon="6.20962">
        <ele>1256</ele>
        <time>2021-11-12T09:19:15+01:00</time>
      </trkpt>
      <trkpt lat="44.22152" lon="6.20957">
        <ele>1258</ele>
        <time>2021-11-12T09:19:31+01:00</time>
      </trkpt>
      <trkpt lat="44.22166" lon="6.20961">
        <ele>1260</ele>
        <time>2021-11-12T09:19:50+01:00</time>
      </trkpt>
      <trkpt lat="44.22175" lon="6.20964">
        <ele>1263</ele>
        <time>2021-11-12T09:20:05+01:00</time>
      </trkpt>
      <trkpt lat="44.22184" lon="6.20958">
        <ele>1266</ele>
        <time>2021-11-12T09:20:20+01:00</time>
      </trkpt>
      <trkpt lat="44.22193" lon="6.20951">
        <ele>1269</ele>
        <time>2021-11-12T09:20:35+01:00</time>
      </trkpt>
      <trkpt lat="44.22205" lon="6.20954">
        <ele>1272</ele>
        <time>2021-11-12T09:20:53+01:00</time>
      </trkpt>
      <trkpt lat="44.22218" lon="6.20964">
        <ele>1274</ele>
        <time>2021-11-12T09:21:12+01:00</time>
      </trkpt>
      <trkpt lat="44.22229" lon="6.20976">
        <ele>1277</ele>
        <time>2021-11-12T09:21:31+01:00</time>
      </trkpt>
      <trkpt lat="44.22233" lon="6.20978">
        <ele>1278</ele>
        <time>2021-11-12T09:21:48+01:00</time>
      </trkpt>
      <trkpt lat="44.22231" lon="6.20979">
        <ele>1277</ele>
        <time>2021-11-12T09:22:12+01:00</time>
      </trkpt>
      <trkpt lat="44.22235" lon="6.20977">
        <ele>1278</ele>
        <time>2021-11-12T09:22:41+01:00</time>
      </trkpt>
      <trkpt lat="44.22232" lon="6.20978">
        <ele>1277</ele>
        <time>2021-11-12T09:23:03+01:00</time>
      </trkpt>
      <trkpt lat="44.22231" lon="6.20976">
        <ele>1277</ele>
        <time>2021-11-12T09:23:23+01:00</time>
      </trkpt>
      <trkpt lat="44.22233" lon="6.20977">
        <ele>1277</ele>
        <time>2021-11-12T09:23:38+01:00</time>
      </trkpt>
      <trkpt lat="44.22228" lon="6.20977">
        <ele>1277</ele>
        <time>2021-11-12T09:24:00+01:00</time>
      </trkpt>
      <trkpt lat="44.2223" lon="6.20975">
        <ele>1277</ele>
        <time>2021-11-12T09:24:31+01:00</time>
      </trkpt>
      <trkpt lat="44.2223" lon="6.20976">
        <ele>1277</ele>
        <time>2021-11-12T09:24:59+01:00</time>
      </trkpt>
      <trkpt lat="44.22234" lon="6.20982">
        <ele>1278</ele>
        <time>2021-11-12T09:25:28+01:00</time>
      </trkpt>
      <trkpt lat="44.22233" lon="6.20981">
        <ele>1278</ele>
        <time>2021-11-12T09:25:49+01:00</time>
      </trkpt>
      <trkpt lat="44.22239" lon="6.20988">
        <ele>1279</ele>
        <time>2021-11-12T09:26:06+01:00</time>
      </trkpt>
      <trkpt lat="44.22255" lon="6.20997">
        <ele>1283</ele>
        <time>2021-11-12T09:26:24+01:00</time>
      </trkpt>
      <trkpt lat="44.22266" lon="6.21002">
        <ele>1285</ele>
        <time>2021-11-12T09:26:40+01:00</time>
      </trkpt>
      <trkpt lat="44.22279" lon="6.21006">
        <ele>1287</ele>
        <time>2021-11-12T09:26:55+01:00</time>
      </trkpt>
      <trkpt lat="44.22291" lon="6.21006">
        <ele>1290</ele>
        <time>2021-11-12T09:27:10+01:00</time>
      </trkpt>
      <trkpt lat="44.223" lon="6.21002">
        <ele>1292</ele>
        <time>2021-11-12T09:27:24+01:00</time>
      </trkpt>
      <trkpt lat="44.22308" lon="6.21002">
        <ele>1294</ele>
        <time>2021-11-12T09:27:37+01:00</time>
      </trkpt>
      <trkpt lat="44.2232" lon="6.21006">
        <ele>1297</ele>
        <time>2021-11-12T09:27:53+01:00</time>
      </trkpt>
      <trkpt lat="44.22334" lon="6.21011">
        <ele>1300</ele>
        <time>2021-11-12T09:28:10+01:00</time>
      </trkpt>
      <trkpt lat="44.2235" lon="6.21015">
        <ele>1302</ele>
        <time>2021-11-12T09:28:27+01:00</time>
      </trkpt>
      <trkpt lat="44.22367" lon="6.21017">
        <ele>1304</ele>
        <time>2021-11-12T09:28:46+01:00</time>
      </trkpt>
      <trkpt lat="44.22383" lon="6.21026">
        <ele>1305</ele>
        <time>2021-11-12T09:29:05+01:00</time>
      </trkpt>
      <trkpt lat="44.22386" lon="6.21029">
        <ele>1305</ele>
        <time>2021-11-12T09:29:08+01:00</time>
      </trkpt>
      <trkpt lat="44.22394" lon="6.21033">
        <ele>1306</ele>
        <time>2021-11-12T09:29:15+01:00</time>
      </trkpt>
      <trkpt lat="44.22411" lon="6.21039">
        <ele>1309</ele>
        <time>2021-11-12T09:29:33+01:00</time>
      </trkpt>
      <trkpt lat="44.22423" lon="6.21047">
        <ele>1312</ele>
        <time>2021-11-12T09:29:50+01:00</time>
      </trkpt>
      <trkpt lat="44.22437" lon="6.21039">
        <ele>1316</ele>
        <time>2021-11-12T09:30:07+01:00</time>
      </trkpt>
      <trkpt lat="44.22445" lon="6.21042">
        <ele>1318</ele>
        <time>2021-11-12T09:30:26+01:00</time>
      </trkpt>
      <trkpt lat="44.22445" lon="6.21042">
        <ele>1318</ele>
        <time>2021-11-12T09:30:50+01:00</time>
      </trkpt>
      <trkpt lat="44.22453" lon="6.21052">
        <ele>1320</ele>
        <time>2021-11-12T09:31:07+01:00</time>
      </trkpt>
      <trkpt lat="44.22463" lon="6.21063">
        <ele>1321</ele>
        <time>2021-11-12T09:31:22+01:00</time>
      </trkpt>
      <trkpt lat="44.22477" lon="6.21067">
        <ele>1325</ele>
        <time>2021-11-12T09:31:40+01:00</time>
      </trkpt>
      <trkpt lat="44.2249" lon="6.21078">
        <ele>1327</ele>
        <time>2021-11-12T09:31:58+01:00</time>
      </trkpt>
      <trkpt lat="44.22505" lon="6.21079">
        <ele>1331</ele>
        <time>2021-11-12T09:32:15+01:00</time>
      </trkpt>
      <trkpt lat="44.22508" lon="6.21074">
        <ele>1332</ele>
        <time>2021-11-12T09:32:28+01:00</time>
      </trkpt>
      <trkpt lat="44.22512" lon="6.21053">
        <ele>1336</ele>
        <time>2021-11-12T09:32:46+01:00</time>
      </trkpt>
      <trkpt lat="44.22514" lon="6.2105">
        <ele>1336</ele>
        <time>2021-11-12T09:33:03+01:00</time>
      </trkpt>
      <trkpt lat="44.22514" lon="6.2105">
        <ele>1336</ele>
        <time>2021-11-12T09:33:05+01:00</time>
      </trkpt>
      <trkpt lat="44.22522" lon="6.21035">
        <ele>1339</ele>
        <time>2021-11-12T09:33:21+01:00</time>
      </trkpt>
      <trkpt lat="44.22534" lon="6.21031">
        <ele>1341</ele>
        <time>2021-11-12T09:33:38+01:00</time>
      </trkpt>
      <trkpt lat="44.22537" lon="6.21025">
        <ele>1343</ele>
        <time>2021-11-12T09:33:53+01:00</time>
      </trkpt>
      <trkpt lat="44.22535" lon="6.21017">
        <ele>1345</ele>
        <time>2021-11-13T08:52:45+01:00</time>
      </trkpt>
      <trkpt lat="44.2253" lon="6.21015">
        <ele>1344</ele>
        <time>2021-11-13T08:52:50+01:00</time>
      </trkpt>
      <trkpt lat="44.22528" lon="6.21014">
        <ele>1344</ele>
        <time>2021-11-13T08:52:55+01:00</time>
      </trkpt>
      <trkpt lat="44.22525" lon="6.21012">
        <ele>1344</ele>
        <time>2021-11-13T08:53:00+01:00</time>
      </trkpt>
      <trkpt lat="44.22515" lon="6.21007">
        <ele>1343</ele>
        <time>2021-11-13T08:53:05+01:00</time>
      </trkpt>
      <trkpt lat="44.22513" lon="6.21001">
        <ele>1344</ele>
        <time>2021-11-12T09:34:07+01:00</time>
      </trkpt>
      <trkpt lat="44.22512" lon="6.20994">
        <ele>1344</ele>
        <time>2021-11-12T09:34:22+01:00</time>
      </trkpt>
      <trkpt lat="44.22516" lon="6.20989">
        <ele>1345</ele>
        <time>2021-11-12T09:34:37+01:00</time>
      </trkpt>
      <trkpt lat="44.22524" lon="6.20989">
        <ele>1347</ele>
        <time>2021-11-12T09:34:52+01:00</time>
      </trkpt>
      <trkpt lat="44.22532" lon="6.20987">
        <ele>1349</ele>
        <time>2021-11-12T09:35:11+01:00</time>
      </trkpt>
      <trkpt lat="44.22545" lon="6.20985">
        <ele>1352</ele>
        <time>2021-11-12T09:35:28+01:00</time>
      </trkpt>
      <trkpt lat="44.22552" lon="6.20983">
        <ele>1354</ele>
        <time>2021-11-12T09:35:42+01:00</time>
      </trkpt>
      <trkpt lat="44.22563" lon="6.20973">
        <ele>1356</ele>
        <time>2021-11-12T09:35:59+01:00</time>
      </trkpt>
      <trkpt lat="44.22574" lon="6.20964">
        <ele>1357</ele>
        <time>2021-11-12T09:36:16+01:00</time>
      </trkpt>
      <trkpt lat="44.22583" lon="6.20958">
        <ele>1358</ele>
        <time>2021-11-12T09:36:32+01:00</time>
      </trkpt>
      <trkpt lat="44.22596" lon="6.20959">
        <ele>1359</ele>
        <time>2021-11-12T09:36:52+01:00</time>
      </trkpt>
      <trkpt lat="44.22606" lon="6.2096">
        <ele>1359</ele>
        <time>2021-11-12T09:37:11+01:00</time>
      </trkpt>
      <trkpt lat="44.22616" lon="6.20962">
        <ele>1360</ele>
        <time>2021-11-12T09:37:26+01:00</time>
      </trkpt>
      <trkpt lat="44.2263" lon="6.20961">
        <ele>1361</ele>
        <time>2021-11-12T09:37:43+01:00</time>
      </trkpt>
      <trkpt lat="44.22639" lon="6.20957">
        <ele>1363</ele>
        <time>2021-11-12T09:37:58+01:00</time>
      </trkpt>
      <trkpt lat="44.22655" lon="6.20963">
        <ele>1362</ele>
        <time>2021-11-12T09:38:16+01:00</time>
      </trkpt>
      <trkpt lat="44.22672" lon="6.20969">
        <ele>1361</ele>
        <time>2021-11-12T09:38:34+01:00</time>
      </trkpt>
      <trkpt lat="44.22682" lon="6.20969">
        <ele>1360</ele>
        <time>2021-11-12T09:38:51+01:00</time>
      </trkpt>
      <trkpt lat="44.22687" lon="6.20978">
        <ele>1358</ele>
        <time>2021-11-12T09:39:08+01:00</time>
      </trkpt>
      <trkpt lat="44.22695" lon="6.2098">
        <ele>1357</ele>
        <time>2021-11-12T09:39:25+01:00</time>
      </trkpt>
      <trkpt lat="44.2271" lon="6.20976">
        <ele>1357</ele>
        <time>2021-11-12T09:39:40+01:00</time>
      </trkpt>
      <trkpt lat="44.22726" lon="6.2097">
        <ele>1358</ele>
        <time>2021-11-12T09:39:58+01:00</time>
      </trkpt>
      <trkpt lat="44.22733" lon="6.20969">
        <ele>1358</ele>
        <time>2021-11-12T09:40:07+01:00</time>
      </trkpt>
      <trkpt lat="44.22751" lon="6.20966">
        <ele>1357</ele>
        <time>2021-11-12T09:40:24+01:00</time>
      </trkpt>
      <trkpt lat="44.22769" lon="6.20963">
        <ele>1356</ele>
        <time>2021-11-12T09:40:43+01:00</time>
      </trkpt>
      <trkpt lat="44.22779" lon="6.20956">
        <ele>1356</ele>
        <time>2021-11-12T09:40:57+01:00</time>
      </trkpt>
      <trkpt lat="44.22799" lon="6.20952">
        <ele>1355</ele>
        <time>2021-11-12T09:41:14+01:00</time>
      </trkpt>
      <trkpt lat="44.22802" lon="6.20948">
        <ele>1355</ele>
        <time>2021-11-12T09:41:28+01:00</time>
      </trkpt>
      <trkpt lat="44.22803" lon="6.20948">
        <ele>1355</ele>
        <time>2021-11-12T09:41:31+01:00</time>
      </trkpt>
      <trkpt lat="44.22814" lon="6.20945">
        <ele>1356</ele>
        <time>2021-11-12T09:41:48+01:00</time>
      </trkpt>
      <trkpt lat="44.22818" lon="6.20946">
        <ele>1356</ele>
        <time>2021-11-12T09:41:52+01:00</time>
      </trkpt>
      <trkpt lat="44.22836" lon="6.20959">
        <ele>1356</ele>
        <time>2021-11-12T09:42:10+01:00</time>
      </trkpt>
      <trkpt lat="44.22856" lon="6.20959">
        <ele>1359</ele>
        <time>2021-11-12T09:42:29+01:00</time>
      </trkpt>
      <trkpt lat="44.22876" lon="6.20963">
        <ele>1362</ele>
        <time>2021-11-12T09:42:48+01:00</time>
      </trkpt>
      <trkpt lat="44.22891" lon="6.20955">
        <ele>1366</ele>
        <time>2021-11-12T09:43:06+01:00</time>
      </trkpt>
      <trkpt lat="44.22905" lon="6.20953">
        <ele>1367</ele>
        <time>2021-11-12T09:43:23+01:00</time>
      </trkpt>
      <trkpt lat="44.2292" lon="6.20952">
        <ele>1368</ele>
        <time>2021-11-12T09:43:39+01:00</time>
      </trkpt>
      <trkpt lat="44.2294" lon="6.20942">
        <ele>1369</ele>
        <time>2021-11-12T09:43:58+01:00</time>
      </trkpt>
      <trkpt lat="44.22951" lon="6.20931">
        <ele>1372</ele>
        <time>2021-11-12T09:44:17+01:00</time>
      </trkpt>
      <trkpt lat="44.22957" lon="6.20922">
        <ele>1374</ele>
        <time>2021-11-12T09:44:31+01:00</time>
      </trkpt>
      <trkpt lat="44.2297" lon="6.20917">
        <ele>1375</ele>
        <time>2021-11-12T09:44:47+01:00</time>
      </trkpt>
      <trkpt lat="44.22983" lon="6.20904">
        <ele>1378</ele>
        <time>2021-11-12T09:45:06+01:00</time>
      </trkpt>
      <trkpt lat="44.22992" lon="6.2089">
        <ele>1382</ele>
        <time>2021-11-12T09:45:24+01:00</time>
      </trkpt>
      <trkpt lat="44.23002" lon="6.20885">
        <ele>1383</ele>
        <time>2021-11-12T09:45:39+01:00</time>
      </trkpt>
      <trkpt lat="44.23024" lon="6.20879">
        <ele>1384</ele>
        <time>2021-11-12T09:45:57+01:00</time>
      </trkpt>
      <trkpt lat="44.23035" lon="6.2087">
        <ele>1387</ele>
        <time>2021-11-12T09:46:14+01:00</time>
      </trkpt>
      <trkpt lat="44.23049" lon="6.20857">
        <ele>1391</ele>
        <time>2021-11-12T09:46:32+01:00</time>
      </trkpt>
      <trkpt lat="44.23058" lon="6.20844">
        <ele>1395</ele>
        <time>2021-11-12T09:46:48+01:00</time>
      </trkpt>
      <trkpt lat="44.23058" lon="6.20843">
        <ele>1396</ele>
        <time>2021-11-12T09:46:49+01:00</time>
      </trkpt>
      <trkpt lat="44.23061" lon="6.20835">
        <ele>1399</ele>
        <time>2021-11-12T09:47:02+01:00</time>
      </trkpt>
      <trkpt lat="44.23068" lon="6.20831">
        <ele>1402</ele>
        <time>2021-11-12T09:47:17+01:00</time>
      </trkpt>
      <trkpt lat="44.23074" lon="6.20834">
        <ele>1402</ele>
        <time>2021-11-12T09:47:30+01:00</time>
      </trkpt>
      <trkpt lat="44.23078" lon="6.20848">
        <ele>1400</ele>
        <time>2021-11-12T09:47:43+01:00</time>
      </trkpt>
      <trkpt lat="44.23089" lon="6.20856">
        <ele>1402</ele>
        <time>2021-11-12T09:48:00+01:00</time>
      </trkpt>
      <trkpt lat="44.23097" lon="6.20853">
        <ele>1405</ele>
        <time>2021-11-12T09:48:17+01:00</time>
      </trkpt>
      <trkpt lat="44.23099" lon="6.20843">
        <ele>1407</ele>
        <time>2021-11-12T09:48:30+01:00</time>
      </trkpt>
      <trkpt lat="44.23108" lon="6.20841">
        <ele>1411</ele>
        <time>2021-11-12T09:48:45+01:00</time>
      </trkpt>
      <trkpt lat="44.23114" lon="6.20835">
        <ele>1413</ele>
        <time>2021-11-12T09:49:02+01:00</time>
      </trkpt>
      <trkpt lat="44.23119" lon="6.20822">
        <ele>1416</ele>
        <time>2021-11-12T09:49:19+01:00</time>
      </trkpt>
      <trkpt lat="44.23118" lon="6.2081">
        <ele>1419</ele>
        <time>2021-11-12T09:49:37+01:00</time>
      </trkpt>
      <trkpt lat="44.23118" lon="6.20808">
        <ele>1419</ele>
        <time>2021-11-12T09:49:56+01:00</time>
      </trkpt>
      <trkpt lat="44.23115" lon="6.20807">
        <ele>1419</ele>
        <time>2021-11-12T09:50:13+01:00</time>
      </trkpt>
      <trkpt lat="44.23115" lon="6.20808">
        <ele>1419</ele>
        <time>2021-11-12T09:50:34+01:00</time>
      </trkpt>
      <trkpt lat="44.23114" lon="6.20808">
        <ele>1419</ele>
        <time>2021-11-12T09:51:03+01:00</time>
      </trkpt>
      <trkpt lat="44.23114" lon="6.20794">
        <ele>1421</ele>
        <time>2021-11-12T09:51:22+01:00</time>
      </trkpt>
      <trkpt lat="44.23117" lon="6.20775">
        <ele>1424</ele>
        <time>2021-11-12T09:51:40+01:00</time>
      </trkpt>
      <trkpt lat="44.23119" lon="6.20757">
        <ele>1428</ele>
        <time>2021-11-12T09:51:55+01:00</time>
      </trkpt>
      <trkpt lat="44.23126" lon="6.20746">
        <ele>1430</ele>
        <time>2021-11-12T09:52:10+01:00</time>
      </trkpt>
      <trkpt lat="44.23132" lon="6.20738">
        <ele>1431</ele>
        <time>2021-11-12T09:52:25+01:00</time>
      </trkpt>
      <trkpt lat="44.23139" lon="6.20728">
        <ele>1432</ele>
        <time>2021-11-12T09:52:40+01:00</time>
      </trkpt>
      <trkpt lat="44.23146" lon="6.20713">
        <ele>1434</ele>
        <time>2021-11-12T09:52:55+01:00</time>
      </trkpt>
      <trkpt lat="44.23156" lon="6.20696">
        <ele>1436</ele>
        <time>2021-11-12T09:53:10+01:00</time>
      </trkpt>
      <trkpt lat="44.23156" lon="6.20671">
        <ele>1438</ele>
        <time>2021-11-12T09:53:29+01:00</time>
      </trkpt>
      <trkpt lat="44.23156" lon="6.20663">
        <ele>1438</ele>
        <time>2021-11-12T09:53:35+01:00</time>
      </trkpt>
      <trkpt lat="44.23162" lon="6.20637">
        <ele>1441</ele>
        <time>2021-11-12T09:53:53+01:00</time>
      </trkpt>
      <trkpt lat="44.23171" lon="6.20618">
        <ele>1444</ele>
        <time>2021-11-12T09:54:09+01:00</time>
      </trkpt>
      <trkpt lat="44.23174" lon="6.20611">
        <ele>1445</ele>
        <time>2021-11-12T09:54:15+01:00</time>
      </trkpt>
      <trkpt lat="44.23182" lon="6.20592">
        <ele>1447</ele>
        <time>2021-11-12T09:54:30+01:00</time>
      </trkpt>
      <trkpt lat="44.2319" lon="6.20577">
        <ele>1448</ele>
        <time>2021-11-12T09:54:44+01:00</time>
      </trkpt>
      <trkpt lat="44.232" lon="6.20563">
        <ele>1449</ele>
        <time>2021-11-12T09:54:59+01:00</time>
      </trkpt>
      <trkpt lat="44.23209" lon="6.20547">
        <ele>1450</ele>
        <time>2021-11-12T09:55:15+01:00</time>
      </trkpt>
      <trkpt lat="44.23215" lon="6.20538">
        <ele>1449</ele>
        <time>2021-11-12T09:55:29+01:00</time>
      </trkpt>
      <trkpt lat="44.23215" lon="6.20536">
        <ele>1449</ele>
        <time>2021-11-12T09:55:44+01:00</time>
      </trkpt>
      <trkpt lat="44.23216" lon="6.20536">
        <ele>1449</ele>
        <time>2021-11-12T09:56:03+01:00</time>
      </trkpt>
      <trkpt lat="44.23216" lon="6.20536">
        <ele>1449</ele>
        <time>2021-11-12T09:56:26+01:00</time>
      </trkpt>
      <trkpt lat="44.23226" lon="6.20552">
        <ele>1450</ele>
        <time>2021-11-12T09:56:47+01:00</time>
      </trkpt>
      <trkpt lat="44.23239" lon="6.20564">
        <ele>1453</ele>
        <time>2021-11-12T09:57:03+01:00</time>
      </trkpt>
      <trkpt lat="44.23258" lon="6.20571">
        <ele>1455</ele>
        <time>2021-11-12T09:57:23+01:00</time>
      </trkpt>
      <trkpt lat="44.23274" lon="6.20584">
        <ele>1459</ele>
        <time>2021-11-12T09:57:43+01:00</time>
      </trkpt>
      <trkpt lat="44.23291" lon="6.20593">
        <ele>1459</ele>
        <time>2021-11-12T09:58:02+01:00</time>
      </trkpt>
      <trkpt lat="44.23307" lon="6.20597">
        <ele>1460</ele>
        <time>2021-11-12T09:58:19+01:00</time>
      </trkpt>
      <trkpt lat="44.23323" lon="6.20608">
        <ele>1461</ele>
        <time>2021-11-12T09:58:39+01:00</time>
      </trkpt>
      <trkpt lat="44.23337" lon="6.20619">
        <ele>1463</ele>
        <time>2021-11-12T09:58:58+01:00</time>
      </trkpt>
      <trkpt lat="44.23349" lon="6.20634">
        <ele>1465</ele>
        <time>2021-11-12T09:59:17+01:00</time>
      </trkpt>
      <trkpt lat="44.23352" lon="6.2064">
        <ele>1466</ele>
        <time>2021-11-12T09:59:39+01:00</time>
      </trkpt>
      <trkpt lat="44.23356" lon="6.20645">
        <ele>1466</ele>
        <time>2021-11-12T09:59:45+01:00</time>
      </trkpt>
      <trkpt lat="44.23372" lon="6.20661">
        <ele>1468</ele>
        <time>2021-11-12T10:00:06+01:00</time>
      </trkpt>
      <trkpt lat="44.23387" lon="6.20677">
        <ele>1470</ele>
        <time>2021-11-12T10:00:26+01:00</time>
      </trkpt>
      <trkpt lat="44.23399" lon="6.20694">
        <ele>1472</ele>
        <time>2021-11-12T10:00:45+01:00</time>
      </trkpt>
      <trkpt lat="44.23415" lon="6.20708">
        <ele>1476</ele>
        <time>2021-11-12T10:01:04+01:00</time>
      </trkpt>
      <trkpt lat="44.23424" lon="6.20715">
        <ele>1478</ele>
        <time>2021-11-12T10:01:21+01:00</time>
      </trkpt>
      <trkpt lat="44.23428" lon="6.20718">
        <ele>1479</ele>
        <time>2021-11-12T10:01:41+01:00</time>
      </trkpt>
      <trkpt lat="44.23437" lon="6.20729">
        <ele>1482</ele>
        <time>2021-11-12T10:01:55+01:00</time>
      </trkpt>
      <trkpt lat="44.23447" lon="6.20735">
        <ele>1485</ele>
        <time>2021-11-12T10:02:10+01:00</time>
      </trkpt>
      <trkpt lat="44.23458" lon="6.20742">
        <ele>1488</ele>
        <time>2021-11-12T10:02:26+01:00</time>
      </trkpt>
      <trkpt lat="44.23469" lon="6.20747">
        <ele>1492</ele>
        <time>2021-11-12T10:02:41+01:00</time>
      </trkpt>
      <trkpt lat="44.23477" lon="6.20753">
        <ele>1495</ele>
        <time>2021-11-12T10:02:55+01:00</time>
      </trkpt>
      <trkpt lat="44.23489" lon="6.20754">
        <ele>1499</ele>
        <time>2021-11-12T10:03:09+01:00</time>
      </trkpt>
      <trkpt lat="44.23505" lon="6.20753">
        <ele>1504</ele>
        <time>2021-11-12T10:03:28+01:00</time>
      </trkpt>
      <trkpt lat="44.23515" lon="6.20755">
        <ele>1506</ele>
        <time>2021-11-12T10:03:43+01:00</time>
      </trkpt>
      <trkpt lat="44.23526" lon="6.2076">
        <ele>1510</ele>
        <time>2021-11-12T10:03:58+01:00</time>
      </trkpt>
      <trkpt lat="44.23538" lon="6.20762">
        <ele>1512</ele>
        <time>2021-11-12T10:04:17+01:00</time>
      </trkpt>
      <trkpt lat="44.23549" lon="6.20763">
        <ele>1513</ele>
        <time>2021-11-12T10:04:32+01:00</time>
      </trkpt>
      <trkpt lat="44.23557" lon="6.20773">
        <ele>1516</ele>
        <time>2021-11-12T10:04:52+01:00</time>
      </trkpt>
      <trkpt lat="44.23569" lon="6.2079">
        <ele>1520</ele>
        <time>2021-11-12T10:05:09+01:00</time>
      </trkpt>
      <trkpt lat="44.23581" lon="6.20803">
        <ele>1523</ele>
        <time>2021-11-12T10:05:28+01:00</time>
      </trkpt>
      <trkpt lat="44.23595" lon="6.20817">
        <ele>1524</ele>
        <time>2021-11-12T10:05:44+01:00</time>
      </trkpt>
      <trkpt lat="44.23602" lon="6.20839">
        <ele>1526</ele>
        <time>2021-11-12T10:06:01+01:00</time>
      </trkpt>
      <trkpt lat="44.23612" lon="6.20863">
        <ele>1526</ele>
        <time>2021-11-12T10:06:20+01:00</time>
      </trkpt>
      <trkpt lat="44.23609" lon="6.20884">
        <ele>1528</ele>
        <time>2021-11-12T10:06:36+01:00</time>
      </trkpt>
      <trkpt lat="44.23607" lon="6.20897">
        <ele>1531</ele>
        <time>2021-11-12T10:06:49+01:00</time>
      </trkpt>
      <trkpt lat="44.23596" lon="6.20901">
        <ele>1535</ele>
        <time>2021-11-12T10:07:08+01:00</time>
      </trkpt>
      <trkpt lat="44.23586" lon="6.20901">
        <ele>1539</ele>
        <time>2021-11-12T10:07:20+01:00</time>
      </trkpt>
      <trkpt lat="44.23573" lon="6.20895">
        <ele>1539</ele>
        <time>2021-11-12T10:07:38+01:00</time>
      </trkpt>
      <trkpt lat="44.23563" lon="6.20898">
        <ele>1541</ele>
        <time>2021-11-12T10:07:54+01:00</time>
      </trkpt>
      <trkpt lat="44.23556" lon="6.20904">
        <ele>1542</ele>
        <time>2021-11-12T10:08:12+01:00</time>
      </trkpt>
      <trkpt lat="44.23558" lon="6.20903">
        <ele>1542</ele>
        <time>2021-11-12T10:08:32+01:00</time>
      </trkpt>
      <trkpt lat="44.23556" lon="6.20901">
        <ele>1542</ele>
        <time>2021-11-12T10:08:56+01:00</time>
      </trkpt>
      <trkpt lat="44.23562" lon="6.20915">
        <ele>1543</ele>
        <time>2021-11-12T10:09:13+01:00</time>
      </trkpt>
      <trkpt lat="44.2356" lon="6.20938">
        <ele>1545</ele>
        <time>2021-11-12T10:09:33+01:00</time>
      </trkpt>
      <trkpt lat="44.23558" lon="6.20955">
        <ele>1547</ele>
        <time>2021-11-12T10:09:44+01:00</time>
      </trkpt>
      <trkpt lat="44.23551" lon="6.20979">
        <ele>1547</ele>
        <time>2021-11-12T10:10:04+01:00</time>
      </trkpt>
      <trkpt lat="44.2355" lon="6.20985">
        <ele>1548</ele>
        <time>2021-11-12T10:10:26+01:00</time>
      </trkpt>
      <trkpt lat="44.2355" lon="6.20984">
        <ele>1548</ele>
        <time>2021-11-12T10:11:06+01:00</time>
      </trkpt>
      <trkpt lat="44.23551" lon="6.20983">
        <ele>1548</ele>
        <time>2021-11-12T10:11:36+01:00</time>
      </trkpt>
      <trkpt lat="44.2355" lon="6.20983">
        <ele>1548</ele>
        <time>2021-11-12T10:12:11+01:00</time>
      </trkpt>
      <trkpt lat="44.23549" lon="6.20983">
        <ele>1548</ele>
        <time>2021-11-12T10:12:21+01:00</time>
      </trkpt>
      <trkpt lat="44.23551" lon="6.20981">
        <ele>1548</ele>
        <time>2021-11-12T10:12:37+01:00</time>
      </trkpt>
      <trkpt lat="44.23549" lon="6.20984">
        <ele>1547</ele>
        <time>2021-11-12T10:13:05+01:00</time>
      </trkpt>
      <trkpt lat="44.2355" lon="6.20983">
        <ele>1548</ele>
        <time>2021-11-12T10:13:27+01:00</time>
      </trkpt>
      <trkpt lat="44.2355" lon="6.20984">
        <ele>1548</ele>
        <time>2021-11-12T10:13:37+01:00</time>
      </trkpt>
      <trkpt lat="44.23551" lon="6.20984">
        <ele>1549</ele>
        <time>2021-11-12T10:13:59+01:00</time>
      </trkpt>
      <trkpt lat="44.23548" lon="6.20988">
        <ele>1548</ele>
        <time>2021-11-12T10:14:26+01:00</time>
      </trkpt>
      <trkpt lat="44.23544" lon="6.20992">
        <ele>1548</ele>
        <time>2021-11-12T10:14:32+01:00</time>
      </trkpt>
      <trkpt lat="44.23536" lon="6.21005">
        <ele>1549</ele>
        <time>2021-11-12T10:14:49+01:00</time>
      </trkpt>
      <trkpt lat="44.23527" lon="6.21018">
        <ele>1551</ele>
        <time>2021-11-12T10:15:04+01:00</time>
      </trkpt>
      <trkpt lat="44.23524" lon="6.21024">
        <ele>1551</ele>
        <time>2021-11-12T10:15:20+01:00</time>
      </trkpt>
      <trkpt lat="44.23524" lon="6.21026">
        <ele>1551</ele>
        <time>2021-11-12T10:15:50+01:00</time>
      </trkpt>
      <trkpt lat="44.23519" lon="6.21032">
        <ele>1551</ele>
        <time>2021-11-12T10:15:56+01:00</time>
      </trkpt>
      <trkpt lat="44.23506" lon="6.21055">
        <ele>1552</ele>
        <time>2021-11-12T10:16:15+01:00</time>
      </trkpt>
      <trkpt lat="44.23504" lon="6.21073">
        <ele>1551</ele>
        <time>2021-11-12T10:16:30+01:00</time>
      </trkpt>
      <trkpt lat="44.23505" lon="6.21077">
        <ele>1551</ele>
        <time>2021-11-12T10:16:45+01:00</time>
      </trkpt>
      <trkpt lat="44.23511" lon="6.21084">
        <ele>1555</ele>
        <time>2021-11-12T10:16:53+01:00</time>
      </trkpt>
      <trkpt lat="44.23521" lon="6.21105">
        <ele>1562</ele>
        <time>2021-11-12T10:17:11+01:00</time>
      </trkpt>
      <trkpt lat="44.23524" lon="6.21114">
        <ele>1564</ele>
        <time>2021-11-12T10:17:17+01:00</time>
      </trkpt>
      <trkpt lat="44.23527" lon="6.21127">
        <ele>1566</ele>
        <time>2021-11-12T10:17:28+01:00</time>
      </trkpt>
      <trkpt lat="44.23522" lon="6.21138">
        <ele>1562</ele>
        <time>2021-11-12T10:17:44+01:00</time>
      </trkpt>
      <trkpt lat="44.23525" lon="6.21154">
        <ele>1564</ele>
        <time>2021-11-12T10:18:01+01:00</time>
      </trkpt>
      <trkpt lat="44.23525" lon="6.21156">
        <ele>1564</ele>
        <time>2021-11-12T10:18:03+01:00</time>
      </trkpt>
      <trkpt lat="44.23527" lon="6.21176">
        <ele>1566</ele>
        <time>2021-11-12T10:18:19+01:00</time>
      </trkpt>
      <trkpt lat="44.23528" lon="6.21179">
        <ele>1567</ele>
        <time>2021-11-12T10:18:32+01:00</time>
      </trkpt>
      <trkpt lat="44.23529" lon="6.2118">
        <ele>1567</ele>
        <time>2021-11-12T10:18:49+01:00</time>
      </trkpt>
      <trkpt lat="44.23532" lon="6.21198">
        <ele>1570</ele>
        <time>2021-11-12T10:19:06+01:00</time>
      </trkpt>
      <trkpt lat="44.23531" lon="6.21216">
        <ele>1569</ele>
        <time>2021-11-12T10:19:21+01:00</time>
      </trkpt>
      <trkpt lat="44.23531" lon="6.2123">
        <ele>1570</ele>
        <time>2021-11-12T10:19:36+01:00</time>
      </trkpt>
      <trkpt lat="44.23534" lon="6.21238">
        <ele>1572</ele>
        <time>2021-11-12T10:19:48+01:00</time>
      </trkpt>
      <trkpt lat="44.23534" lon="6.21243">
        <ele>1572</ele>
        <time>2021-11-12T10:19:51+01:00</time>
      </trkpt>
      <trkpt lat="44.23533" lon="6.2125">
        <ele>1572</ele>
        <time>2021-11-12T10:19:56+01:00</time>
      </trkpt>
      <trkpt lat="44.23522" lon="6.21264">
        <ele>1566</ele>
        <time>2021-11-12T10:20:09+01:00</time>
      </trkpt>
      <trkpt lat="44.23517" lon="6.2128">
        <ele>1566</ele>
        <time>2021-11-12T10:20:21+01:00</time>
      </trkpt>
      <trkpt lat="44.23511" lon="6.21296">
        <ele>1566</ele>
        <time>2021-11-12T10:20:35+01:00</time>
      </trkpt>
      <trkpt lat="44.23509" lon="6.21311">
        <ele>1568</ele>
        <time>2021-11-12T10:20:44+01:00</time>
      </trkpt>
      <trkpt lat="44.23503" lon="6.21335">
        <ele>1571</ele>
        <time>2021-11-12T10:21:01+01:00</time>
      </trkpt>
      <trkpt lat="44.235" lon="6.21337">
        <ele>1570</ele>
        <time>2021-11-12T10:21:27+01:00</time>
      </trkpt>
      <trkpt lat="44.23502" lon="6.21335">
        <ele>1570</ele>
        <time>2021-11-12T10:21:51+01:00</time>
      </trkpt>
      <trkpt lat="44.23503" lon="6.21336">
        <ele>1571</ele>
        <time>2021-11-12T10:22:21+01:00</time>
      </trkpt>
      <trkpt lat="44.23502" lon="6.21335">
        <ele>1570</ele>
        <time>2021-11-12T10:22:45+01:00</time>
      </trkpt>
      <trkpt lat="44.23501" lon="6.21335">
        <ele>1570</ele>
        <time>2021-11-12T10:23:07+01:00</time>
      </trkpt>
      <trkpt lat="44.23499" lon="6.21339">
        <ele>1570</ele>
        <time>2021-11-12T10:23:24+01:00</time>
      </trkpt>
      <trkpt lat="44.23492" lon="6.21357">
        <ele>1569</ele>
        <time>2021-11-12T10:23:41+01:00</time>
      </trkpt>
      <trkpt lat="44.23489" lon="6.2136">
        <ele>1569</ele>
        <time>2021-11-12T10:23:46+01:00</time>
      </trkpt>
      <trkpt lat="44.23486" lon="6.21377">
        <ele>1570</ele>
        <time>2021-11-12T10:24:05+01:00</time>
      </trkpt>
      <trkpt lat="44.23488" lon="6.2139">
        <ele>1572</ele>
        <time>2021-11-12T10:24:22+01:00</time>
      </trkpt>
      <trkpt lat="44.23492" lon="6.21402">
        <ele>1574</ele>
        <time>2021-11-12T10:24:38+01:00</time>
      </trkpt>
      <trkpt lat="44.235" lon="6.21417">
        <ele>1579</ele>
        <time>2021-11-12T10:24:57+01:00</time>
      </trkpt>
      <trkpt lat="44.23505" lon="6.21431">
        <ele>1581</ele>
        <time>2021-11-12T10:25:13+01:00</time>
      </trkpt>
      <trkpt lat="44.23506" lon="6.21452">
        <ele>1582</ele>
        <time>2021-11-12T10:25:31+01:00</time>
      </trkpt>
      <trkpt lat="44.23511" lon="6.21469">
        <ele>1584</ele>
        <time>2021-11-12T10:25:47+01:00</time>
      </trkpt>
      <trkpt lat="44.23512" lon="6.21478">
        <ele>1584</ele>
        <time>2021-11-12T10:25:55+01:00</time>
      </trkpt>
      <trkpt lat="44.23515" lon="6.21489">
        <ele>1584</ele>
        <time>2021-11-12T10:26:03+01:00</time>
      </trkpt>
      <trkpt lat="44.23525" lon="6.21503">
        <ele>1587</ele>
        <time>2021-11-12T10:26:21+01:00</time>
      </trkpt>
      <trkpt lat="44.23526" lon="6.21504">
        <ele>1587</ele>
        <time>2021-11-12T10:26:22+01:00</time>
      </trkpt>
      <trkpt lat="44.23528" lon="6.21514">
        <ele>1588</ele>
        <time>2021-11-12T10:26:30+01:00</time>
      </trkpt>
      <trkpt lat="44.23518" lon="6.21532">
        <ele>1585</ele>
        <time>2021-11-12T10:26:48+01:00</time>
      </trkpt>
      <trkpt lat="44.23522" lon="6.2154">
        <ele>1587</ele>
        <time>2021-11-12T10:27:04+01:00</time>
      </trkpt>
      <trkpt lat="44.23528" lon="6.21551">
        <ele>1592</ele>
        <time>2021-11-12T10:27:20+01:00</time>
      </trkpt>
      <trkpt lat="44.23533" lon="6.21562">
        <ele>1594</ele>
        <time>2021-11-12T10:27:34+01:00</time>
      </trkpt>
      <trkpt lat="44.2354" lon="6.21577">
        <ele>1598</ele>
        <time>2021-11-12T10:27:52+01:00</time>
      </trkpt>
      <trkpt lat="44.23541" lon="6.21595">
        <ele>1599</ele>
        <time>2021-11-12T10:28:09+01:00</time>
      </trkpt>
      <trkpt lat="44.23542" lon="6.21618">
        <ele>1600</ele>
        <time>2021-11-12T10:28:25+01:00</time>
      </trkpt>
      <trkpt lat="44.23547" lon="6.21638">
        <ele>1603</ele>
        <time>2021-11-12T10:28:42+01:00</time>
      </trkpt>
      <trkpt lat="44.23549" lon="6.21659">
        <ele>1605</ele>
        <time>2021-11-12T10:29:00+01:00</time>
      </trkpt>
      <trkpt lat="44.23553" lon="6.21684">
        <ele>1609</ele>
        <time>2021-11-12T10:29:21+01:00</time>
      </trkpt>
      <trkpt lat="44.23559" lon="6.21705">
        <ele>1612</ele>
        <time>2021-11-12T10:29:40+01:00</time>
      </trkpt>
      <trkpt lat="44.23562" lon="6.21723">
        <ele>1614</ele>
        <time>2021-11-12T10:29:55+01:00</time>
      </trkpt>
      <trkpt lat="44.23567" lon="6.21742">
        <ele>1618</ele>
        <time>2021-11-12T10:30:13+01:00</time>
      </trkpt>
      <trkpt lat="44.23571" lon="6.21758">
        <ele>1621</ele>
        <time>2021-11-12T10:30:29+01:00</time>
      </trkpt>
      <trkpt lat="44.23576" lon="6.21772">
        <ele>1625</ele>
        <time>2021-11-12T10:30:45+01:00</time>
      </trkpt>
      <trkpt lat="44.23578" lon="6.21788">
        <ele>1628</ele>
        <time>2021-11-12T10:31:04+01:00</time>
      </trkpt>
      <trkpt lat="44.23576" lon="6.21795">
        <ele>1628</ele>
        <time>2021-11-12T10:31:13+01:00</time>
      </trkpt>
      <trkpt lat="44.23579" lon="6.21817">
        <ele>1631</ele>
        <time>2021-11-12T10:31:33+01:00</time>
      </trkpt>
      <trkpt lat="44.23577" lon="6.21828">
        <ele>1632</ele>
        <time>2021-11-12T10:31:50+01:00</time>
      </trkpt>
      <trkpt lat="44.23578" lon="6.21838">
        <ele>1632</ele>
        <time>2021-11-12T10:32:11+01:00</time>
      </trkpt>
      <trkpt lat="44.23576" lon="6.21851">
        <ele>1631</ele>
        <time>2021-11-12T10:32:30+01:00</time>
      </trkpt>
      <trkpt lat="44.23576" lon="6.21854">
        <ele>1631</ele>
        <time>2021-11-12T10:32:50+01:00</time>
      </trkpt>
      <trkpt lat="44.23582" lon="6.21866">
        <ele>1634</ele>
        <time>2021-11-12T10:33:07+01:00</time>
      </trkpt>
      <trkpt lat="44.23585" lon="6.21886">
        <ele>1633</ele>
        <time>2021-11-12T10:33:26+01:00</time>
      </trkpt>
      <trkpt lat="44.23589" lon="6.21892">
        <ele>1635</ele>
        <time>2021-11-12T10:33:39+01:00</time>
      </trkpt>
      <trkpt lat="44.236" lon="6.2191">
        <ele>1640</ele>
        <time>2021-11-12T10:33:58+01:00</time>
      </trkpt>
      <trkpt lat="44.23607" lon="6.21928">
        <ele>1644</ele>
        <time>2021-11-12T10:34:17+01:00</time>
      </trkpt>
      <trkpt lat="44.23596" lon="6.21941">
        <ele>1640</ele>
        <time>2021-11-12T10:34:31+01:00</time>
      </trkpt>
      <trkpt lat="44.2359" lon="6.21969">
        <ele>1643</ele>
        <time>2021-11-12T10:34:53+01:00</time>
      </trkpt>
      <trkpt lat="44.23588" lon="6.21994">
        <ele>1645</ele>
        <time>2021-11-12T10:35:11+01:00</time>
      </trkpt>
      <trkpt lat="44.2359" lon="6.22004">
        <ele>1646</ele>
        <time>2021-11-12T10:35:26+01:00</time>
      </trkpt>
      <trkpt lat="44.23597" lon="6.22033">
        <ele>1647</ele>
        <time>2021-11-12T10:35:48+01:00</time>
      </trkpt>
      <trkpt lat="44.23601" lon="6.22042">
        <ele>1648</ele>
        <time>2021-11-12T10:36:04+01:00</time>
      </trkpt>
      <trkpt lat="44.2361" lon="6.22063">
        <ele>1648</ele>
        <time>2021-11-12T10:36:23+01:00</time>
      </trkpt>
      <trkpt lat="44.23609" lon="6.22063">
        <ele>1648</ele>
        <time>2021-11-12T10:36:44+01:00</time>
      </trkpt>
      <trkpt lat="44.23608" lon="6.22064">
        <ele>1647</ele>
        <time>2021-11-12T10:37:04+01:00</time>
      </trkpt>
      <trkpt lat="44.23606" lon="6.22066">
        <ele>1646</ele>
        <time>2021-11-12T10:37:35+01:00</time>
      </trkpt>
      <trkpt lat="44.2361" lon="6.22072">
        <ele>1647</ele>
        <time>2021-11-12T10:37:51+01:00</time>
      </trkpt>
      <trkpt lat="44.23615" lon="6.2208">
        <ele>1649</ele>
        <time>2021-11-12T10:38:11+01:00</time>
      </trkpt>
      <trkpt lat="44.23629" lon="6.221">
        <ele>1654</ele>
        <time>2021-11-12T10:38:34+01:00</time>
      </trkpt>
      <trkpt lat="44.2364" lon="6.22121">
        <ele>1657</ele>
        <time>2021-11-12T10:38:55+01:00</time>
      </trkpt>
      <trkpt lat="44.23647" lon="6.22141">
        <ele>1660</ele>
        <time>2021-11-12T10:39:13+01:00</time>
      </trkpt>
      <trkpt lat="44.23655" lon="6.22167">
        <ele>1662</ele>
        <time>2021-11-12T10:39:34+01:00</time>
      </trkpt>
      <trkpt lat="44.23662" lon="6.2219">
        <ele>1663</ele>
        <time>2021-11-12T10:39:53+01:00</time>
      </trkpt>
      <trkpt lat="44.2367" lon="6.22213">
        <ele>1665</ele>
        <time>2021-11-12T10:40:13+01:00</time>
      </trkpt>
      <trkpt lat="44.23676" lon="6.22229">
        <ele>1667</ele>
        <time>2021-11-12T10:40:30+01:00</time>
      </trkpt>
      <trkpt lat="44.23682" lon="6.22246">
        <ele>1668</ele>
        <time>2021-11-12T10:40:46+01:00</time>
      </trkpt>
      <trkpt lat="44.2369" lon="6.22267">
        <ele>1669</ele>
        <time>2021-11-12T10:41:05+01:00</time>
      </trkpt>
      <trkpt lat="44.23698" lon="6.22289">
        <ele>1671</ele>
        <time>2021-11-12T10:41:24+01:00</time>
      </trkpt>
      <trkpt lat="44.23706" lon="6.22307">
        <ele>1673</ele>
        <time>2021-11-12T10:41:43+01:00</time>
      </trkpt>
      <trkpt lat="44.23714" lon="6.2232">
        <ele>1676</ele>
        <time>2021-11-12T10:42:02+01:00</time>
      </trkpt>
      <trkpt lat="44.23719" lon="6.22333">
        <ele>1678</ele>
        <time>2021-11-12T10:42:19+01:00</time>
      </trkpt>
      <trkpt lat="44.23729" lon="6.22344">
        <ele>1683</ele>
        <time>2021-11-12T10:42:39+01:00</time>
      </trkpt>
      <trkpt lat="44.23733" lon="6.22355">
        <ele>1684</ele>
        <time>2021-11-12T10:42:54+01:00</time>
      </trkpt>
      <trkpt lat="44.23739" lon="6.2237">
        <ele>1688</ele>
        <time>2021-11-12T10:43:11+01:00</time>
      </trkpt>
      <trkpt lat="44.23745" lon="6.2238">
        <ele>1691</ele>
        <time>2021-11-12T10:43:28+01:00</time>
      </trkpt>
      <trkpt lat="44.23751" lon="6.22391">
        <ele>1695</ele>
        <time>2021-11-12T10:43:45+01:00</time>
      </trkpt>
      <trkpt lat="44.23758" lon="6.22402">
        <ele>1698</ele>
        <time>2021-11-12T10:44:01+01:00</time>
      </trkpt>
      <trkpt lat="44.23762" lon="6.22413">
        <ele>1700</ele>
        <time>2021-11-12T10:44:17+01:00</time>
      </trkpt>
      <trkpt lat="44.23765" lon="6.22424">
        <ele>1702</ele>
        <time>2021-11-12T10:44:34+01:00</time>
      </trkpt>
      <trkpt lat="44.23772" lon="6.22441">
        <ele>1706</ele>
        <time>2021-11-12T10:44:55+01:00</time>
      </trkpt>
      <trkpt lat="44.23778" lon="6.22454">
        <ele>1710</ele>
        <time>2021-11-12T10:45:13+01:00</time>
      </trkpt>
      <trkpt lat="44.23783" lon="6.22466">
        <ele>1714</ele>
        <time>2021-11-12T10:45:30+01:00</time>
      </trkpt>
      <trkpt lat="44.23786" lon="6.22479">
        <ele>1716</ele>
        <time>2021-11-12T10:45:49+01:00</time>
      </trkpt>
      <trkpt lat="44.23786" lon="6.22487">
        <ele>1717</ele>
        <time>2021-11-12T10:46:06+01:00</time>
      </trkpt>
      <trkpt lat="44.2379" lon="6.22498">
        <ele>1719</ele>
        <time>2021-11-12T10:46:25+01:00</time>
      </trkpt>
      <trkpt lat="44.23792" lon="6.22518">
        <ele>1721</ele>
        <time>2021-11-12T10:46:43+01:00</time>
      </trkpt>
      <trkpt lat="44.23797" lon="6.22513">
        <ele>1723</ele>
        <time>2021-11-12T10:46:58+01:00</time>
      </trkpt>
      <trkpt lat="44.23803" lon="6.22503">
        <ele>1726</ele>
        <time>2021-11-12T10:47:12+01:00</time>
      </trkpt>
      <trkpt lat="44.2381" lon="6.22495">
        <ele>1728</ele>
        <time>2021-11-12T10:47:26+01:00</time>
      </trkpt>
      <trkpt lat="44.23822" lon="6.22489">
        <ele>1729</ele>
        <time>2021-11-12T10:47:47+01:00</time>
      </trkpt>
      <trkpt lat="44.23824" lon="6.22485">
        <ele>1730</ele>
        <time>2021-11-12T10:48:03+01:00</time>
      </trkpt>
      <trkpt lat="44.23827" lon="6.22491">
        <ele>1730</ele>
        <time>2021-11-12T10:48:21+01:00</time>
      </trkpt>
      <trkpt lat="44.23827" lon="6.22491">
        <ele>1730</ele>
        <time>2021-11-12T10:48:40+01:00</time>
      </trkpt>
      <trkpt lat="44.23829" lon="6.2249">
        <ele>1730</ele>
        <time>2021-11-12T10:48:55+01:00</time>
      </trkpt>
      <trkpt lat="44.23828" lon="6.22497">
        <ele>1730</ele>
        <time>2021-11-12T10:49:08+01:00</time>
      </trkpt>
      <trkpt lat="44.23828" lon="6.22494">
        <ele>1730</ele>
        <time>2021-11-12T10:49:25+01:00</time>
      </trkpt>
      <trkpt lat="44.23829" lon="6.22494">
        <ele>1730</ele>
        <time>2021-11-12T10:49:46+01:00</time>
      </trkpt>
      <trkpt lat="44.23827" lon="6.22491">
        <ele>1730</ele>
        <time>2021-11-12T10:50:05+01:00</time>
      </trkpt>
      <trkpt lat="44.23827" lon="6.2249">
        <ele>1730</ele>
        <time>2021-11-12T10:50:33+01:00</time>
      </trkpt>
      <trkpt lat="44.23826" lon="6.2249">
        <ele>1730</ele>
        <time>2021-11-12T10:50:51+01:00</time>
      </trkpt>
      <trkpt lat="44.23826" lon="6.22491">
        <ele>1730</ele>
        <time>2021-11-12T10:51:08+01:00</time>
      </trkpt>
      <trkpt lat="44.23828" lon="6.22493">
        <ele>1730</ele>
        <time>2021-11-12T10:51:29+01:00</time>
      </trkpt>
      <trkpt lat="44.2383" lon="6.22494">
        <ele>1730</ele>
        <time>2021-11-12T10:51:45+01:00</time>
      </trkpt>
      <trkpt lat="44.23831" lon="6.22494">
        <ele>1730</ele>
        <time>2021-11-12T10:52:12+01:00</time>
      </trkpt>
      <trkpt lat="44.23832" lon="6.22495">
        <ele>1730</ele>
        <time>2021-11-12T10:52:25+01:00</time>
      </trkpt>
      <trkpt lat="44.23832" lon="6.22493">
        <ele>1731</ele>
        <time>2021-11-12T10:52:47+01:00</time>
      </trkpt>
      <trkpt lat="44.2383" lon="6.22494">
        <ele>1730</ele>
        <time>2021-11-12T10:53:13+01:00</time>
      </trkpt>
      <trkpt lat="44.23827" lon="6.22496">
        <ele>1730</ele>
        <time>2021-11-12T10:53:38+01:00</time>
      </trkpt>
      <trkpt lat="44.23821" lon="6.22504">
        <ele>1729</ele>
        <time>2021-11-12T10:53:52+01:00</time>
      </trkpt>
      <trkpt lat="44.2382" lon="6.22508">
        <ele>1728</ele>
        <time>2021-11-12T10:54:10+01:00</time>
      </trkpt>
      <trkpt lat="44.23822" lon="6.22504">
        <ele>1729</ele>
        <time>2021-11-12T10:54:26+01:00</time>
      </trkpt>
      <trkpt lat="44.23823" lon="6.22503">
        <ele>1729</ele>
        <time>2021-11-12T10:54:48+01:00</time>
      </trkpt>
      <trkpt lat="44.23825" lon="6.22498">
        <ele>1729</ele>
        <time>2021-11-12T10:55:03+01:00</time>
      </trkpt>
      <trkpt lat="44.23823" lon="6.22497">
        <ele>1729</ele>
        <time>2021-11-12T10:55:23+01:00</time>
      </trkpt>
      <trkpt lat="44.23822" lon="6.22497">
        <ele>1729</ele>
        <time>2021-11-12T10:55:48+01:00</time>
      </trkpt>
      <trkpt lat="44.23825" lon="6.22496">
        <ele>1729</ele>
        <time>2021-11-12T10:56:20+01:00</time>
      </trkpt>
      <trkpt lat="44.23827" lon="6.22488">
        <ele>1730</ele>
        <time>2021-11-12T10:56:34+01:00</time>
      </trkpt>
      <trkpt lat="44.23829" lon="6.22474">
        <ele>1732</ele>
        <time>2021-11-12T10:56:50+01:00</time>
      </trkpt>
      <trkpt lat="44.23835" lon="6.22457">
        <ele>1734</ele>
        <time>2021-11-12T10:57:06+01:00</time>
      </trkpt>
      <trkpt lat="44.23837" lon="6.22441">
        <ele>1736</ele>
        <time>2021-11-12T10:57:22+01:00</time>
      </trkpt>
      <trkpt lat="44.23835" lon="6.22423">
        <ele>1738</ele>
        <time>2021-11-12T10:57:37+01:00</time>
      </trkpt>
      <trkpt lat="44.23829" lon="6.22406">
        <ele>1738</ele>
        <time>2021-11-12T10:57:54+01:00</time>
      </trkpt>
      <trkpt lat="44.23829" lon="6.22387">
        <ele>1739</ele>
        <time>2021-11-12T10:58:11+01:00</time>
      </trkpt>
      <trkpt lat="44.2383" lon="6.22382">
        <ele>1740</ele>
        <time>2021-11-12T10:58:23+01:00</time>
      </trkpt>
      <trkpt lat="44.23834" lon="6.22355">
        <ele>1744</ele>
        <time>2021-11-12T10:58:43+01:00</time>
      </trkpt>
      <trkpt lat="44.23836" lon="6.22335">
        <ele>1746</ele>
        <time>2021-11-12T10:59:00+01:00</time>
      </trkpt>
      <trkpt lat="44.23838" lon="6.2232">
        <ele>1748</ele>
        <time>2021-11-12T10:59:15+01:00</time>
      </trkpt>
      <trkpt lat="44.23843" lon="6.22304">
        <ele>1750</ele>
        <time>2021-11-12T10:59:33+01:00</time>
      </trkpt>
      <trkpt lat="44.23849" lon="6.22287">
        <ele>1753</ele>
        <time>2021-11-12T10:59:51+01:00</time>
      </trkpt>
      <trkpt lat="44.23856" lon="6.22275">
        <ele>1756</ele>
        <time>2021-11-12T11:00:07+01:00</time>
      </trkpt>
      <trkpt lat="44.23863" lon="6.22261">
        <ele>1760</ele>
        <time>2021-11-12T11:00:22+01:00</time>
      </trkpt>
      <trkpt lat="44.23871" lon="6.22245">
        <ele>1762</ele>
        <time>2021-11-12T11:00:41+01:00</time>
      </trkpt>
      <trkpt lat="44.23877" lon="6.22234">
        <ele>1764</ele>
        <time>2021-11-12T11:00:56+01:00</time>
      </trkpt>
      <trkpt lat="44.23883" lon="6.22221">
        <ele>1766</ele>
        <time>2021-11-12T11:01:12+01:00</time>
      </trkpt>
      <trkpt lat="44.23886" lon="6.22208">
        <ele>1769</ele>
        <time>2021-11-12T11:01:25+01:00</time>
      </trkpt>
      <trkpt lat="44.2389" lon="6.22194">
        <ele>1772</ele>
        <time>2021-11-12T11:01:40+01:00</time>
      </trkpt>
      <trkpt lat="44.23892" lon="6.22179">
        <ele>1775</ele>
        <time>2021-11-12T11:01:56+01:00</time>
      </trkpt>
      <trkpt lat="44.23894" lon="6.22164">
        <ele>1777</ele>
        <time>2021-11-12T11:02:11+01:00</time>
      </trkpt>
      <trkpt lat="44.23896" lon="6.22146">
        <ele>1780</ele>
        <time>2021-11-12T11:02:28+01:00</time>
      </trkpt>
      <trkpt lat="44.23896" lon="6.22136">
        <ele>1782</ele>
        <time>2021-11-12T11:02:48+01:00</time>
      </trkpt>
      <trkpt lat="44.23897" lon="6.22129">
        <ele>1783</ele>
        <time>2021-11-12T11:02:54+01:00</time>
      </trkpt>
      <trkpt lat="44.23898" lon="6.22123">
        <ele>1784</ele>
        <time>2021-11-12T11:03:12+01:00</time>
      </trkpt>
      <trkpt lat="44.23896" lon="6.22103">
        <ele>1788</ele>
        <time>2021-11-12T11:03:30+01:00</time>
      </trkpt>
      <trkpt lat="44.23894" lon="6.22092">
        <ele>1791</ele>
        <time>2021-11-12T11:03:45+01:00</time>
      </trkpt>
      <trkpt lat="44.23892" lon="6.2208">
        <ele>1794</ele>
        <time>2021-11-12T11:03:58+01:00</time>
      </trkpt>
      <trkpt lat="44.23892" lon="6.22067">
        <ele>1798</ele>
        <time>2021-11-12T11:04:14+01:00</time>
      </trkpt>
      <trkpt lat="44.23893" lon="6.22056">
        <ele>1801</ele>
        <time>2021-11-12T11:04:31+01:00</time>
      </trkpt>
      <trkpt lat="44.23892" lon="6.22051">
        <ele>1802</ele>
        <time>2021-11-12T11:04:47+01:00</time>
      </trkpt>
      <trkpt lat="44.23901" lon="6.22045">
        <ele>1807</ele>
        <time>2021-11-12T11:05:02+01:00</time>
      </trkpt>
      <trkpt lat="44.23901" lon="6.22037">
        <ele>1809</ele>
        <time>2021-11-12T11:05:15+01:00</time>
      </trkpt>
      <trkpt lat="44.23904" lon="6.2203">
        <ele>1813</ele>
        <time>2021-11-12T11:05:31+01:00</time>
      </trkpt>
      <trkpt lat="44.23907" lon="6.22021">
        <ele>1817</ele>
        <time>2021-11-12T11:05:45+01:00</time>
      </trkpt>
      <trkpt lat="44.23907" lon="6.22018">
        <ele>1818</ele>
        <time>2021-11-12T11:06:02+01:00</time>
      </trkpt>
      <trkpt lat="44.23907" lon="6.22012">
        <ele>1819</ele>
        <time>2021-11-12T11:06:16+01:00</time>
      </trkpt>
      <trkpt lat="44.23905" lon="6.22007">
        <ele>1820</ele>
        <time>2021-11-12T11:06:29+01:00</time>
      </trkpt>
      <trkpt lat="44.23907" lon="6.22004">
        <ele>1822</ele>
        <time>2021-11-12T11:06:45+01:00</time>
      </trkpt>
      <trkpt lat="44.2391" lon="6.22001">
        <ele>1824</ele>
        <time>2021-11-12T11:07:01+01:00</time>
      </trkpt>
      <trkpt lat="44.2391" lon="6.21995">
        <ele>1825</ele>
        <time>2021-11-12T11:07:14+01:00</time>
      </trkpt>
      <trkpt lat="44.23913" lon="6.21991">
        <ele>1828</ele>
        <time>2021-11-12T11:07:31+01:00</time>
      </trkpt>
      <trkpt lat="44.23916" lon="6.2199">
        <ele>1829</ele>
        <time>2021-11-12T11:07:48+01:00</time>
      </trkpt>
      <trkpt lat="44.23916" lon="6.21988">
        <ele>1830</ele>
        <time>2021-11-12T11:08:02+01:00</time>
      </trkpt>
      <trkpt lat="44.23918" lon="6.21985">
        <ele>1832</ele>
        <time>2021-11-12T11:08:17+01:00</time>
      </trkpt>
      <trkpt lat="44.23921" lon="6.21982">
        <ele>1834</ele>
        <time>2021-11-12T11:08:31+01:00</time>
      </trkpt>
      <trkpt lat="44.23923" lon="6.21977">
        <ele>1836</ele>
        <time>2021-11-12T11:08:47+01:00</time>
      </trkpt>
      <trkpt lat="44.23926" lon="6.21971">
        <ele>1839</ele>
        <time>2021-11-12T11:09:04+01:00</time>
      </trkpt>
      <trkpt lat="44.23928" lon="6.21969">
        <ele>1841</ele>
        <time>2021-11-12T11:09:30+01:00</time>
      </trkpt>
      <trkpt lat="44.23931" lon="6.21964">
        <ele>1843</ele>
        <time>2021-11-12T11:09:44+01:00</time>
      </trkpt>
      <trkpt lat="44.23935" lon="6.21962">
        <ele>1845</ele>
        <time>2021-11-12T11:10:01+01:00</time>
      </trkpt>
      <trkpt lat="44.23938" lon="6.2196">
        <ele>1847</ele>
        <time>2021-11-12T11:10:15+01:00</time>
      </trkpt>
      <trkpt lat="44.2394" lon="6.21952">
        <ele>1850</ele>
        <time>2021-11-12T11:10:30+01:00</time>
      </trkpt>
      <trkpt lat="44.23943" lon="6.21948">
        <ele>1852</ele>
        <time>2021-11-12T11:10:46+01:00</time>
      </trkpt>
      <trkpt lat="44.23946" lon="6.21956">
        <ele>1854</ele>
        <time>2021-11-12T11:11:02+01:00</time>
      </trkpt>
      <trkpt lat="44.23951" lon="6.21953">
        <ele>1857</ele>
        <time>2021-11-12T11:11:16+01:00</time>
      </trkpt>
      <trkpt lat="44.23953" lon="6.21949">
        <ele>1860</ele>
        <time>2021-11-12T11:11:34+01:00</time>
      </trkpt>
      <trkpt lat="44.23956" lon="6.21955">
        <ele>1862</ele>
        <time>2021-11-12T11:11:52+01:00</time>
      </trkpt>
      <trkpt lat="44.2396" lon="6.21951">
        <ele>1865</ele>
        <time>2021-11-12T11:12:08+01:00</time>
      </trkpt>
      <trkpt lat="44.23963" lon="6.21947">
        <ele>1869</ele>
        <time>2021-11-12T11:12:24+01:00</time>
      </trkpt>
      <trkpt lat="44.23964" lon="6.21944">
        <ele>1870</ele>
        <time>2021-11-12T11:12:40+01:00</time>
      </trkpt>
      <trkpt lat="44.23968" lon="6.21939">
        <ele>1873</ele>
        <time>2021-11-12T11:12:58+01:00</time>
      </trkpt>
      <trkpt lat="44.2397" lon="6.21937">
        <ele>1873</ele>
        <time>2021-11-12T11:13:14+01:00</time>
      </trkpt>
      <trkpt lat="44.23972" lon="6.21934">
        <ele>1875</ele>
        <time>2021-11-12T11:13:31+01:00</time>
      </trkpt>
      <trkpt lat="44.23975" lon="6.21935">
        <ele>1877</ele>
        <time>2021-11-12T11:13:50+01:00</time>
      </trkpt>
      <trkpt lat="44.23979" lon="6.21939">
        <ele>1879</ele>
        <time>2021-11-12T11:14:04+01:00</time>
      </trkpt>
      <trkpt lat="44.23982" lon="6.21944">
        <ele>1881</ele>
        <time>2021-11-12T11:14:23+01:00</time>
      </trkpt>
      <trkpt lat="44.23983" lon="6.21946">
        <ele>1881</ele>
        <time>2021-11-12T11:14:40+01:00</time>
      </trkpt>
      <trkpt lat="44.23984" lon="6.21952">
        <ele>1880</ele>
        <time>2021-11-12T11:14:56+01:00</time>
      </trkpt>
      <trkpt lat="44.23983" lon="6.21958">
        <ele>1878</ele>
        <time>2021-11-12T11:15:12+01:00</time>
      </trkpt>
      <trkpt lat="44.23985" lon="6.21956">
        <ele>1879</ele>
        <time>2021-11-12T11:15:34+01:00</time>
      </trkpt>
      <trkpt lat="44.23984" lon="6.21958">
        <ele>1878</ele>
        <time>2021-11-12T11:15:57+01:00</time>
      </trkpt>
      <trkpt lat="44.23986" lon="6.21965">
        <ele>1876</ele>
        <time>2021-11-12T11:16:21+01:00</time>
      </trkpt>
      <trkpt lat="44.23989" lon="6.21965">
        <ele>1877</ele>
        <time>2021-11-12T11:16:35+01:00</time>
      </trkpt>
      <trkpt lat="44.23991" lon="6.21959">
        <ele>1880</ele>
        <time>2021-11-12T11:16:51+01:00</time>
      </trkpt>
      <trkpt lat="44.23992" lon="6.21951">
        <ele>1883</ele>
        <time>2021-11-12T11:17:08+01:00</time>
      </trkpt>
      <trkpt lat="44.23991" lon="6.21953">
        <ele>1882</ele>
        <time>2021-11-12T11:17:27+01:00</time>
      </trkpt>
      <trkpt lat="44.2399" lon="6.21953">
        <ele>1882</ele>
        <time>2021-11-12T11:17:47+01:00</time>
      </trkpt>
      <trkpt lat="44.23994" lon="6.21953">
        <ele>1883</ele>
        <time>2021-11-12T11:18:20+01:00</time>
      </trkpt>
      <trkpt lat="44.23995" lon="6.21942">
        <ele>1887</ele>
        <time>2021-11-12T11:18:35+01:00</time>
      </trkpt>
      <trkpt lat="44.23997" lon="6.21938">
        <ele>1888</ele>
        <time>2021-11-12T11:18:51+01:00</time>
      </trkpt>
      <trkpt lat="44.23999" lon="6.21935">
        <ele>1889</ele>
        <time>2021-11-12T11:19:08+01:00</time>
      </trkpt>
      <trkpt lat="44.24001" lon="6.21933">
        <ele>1890</ele>
        <time>2021-11-12T11:19:24+01:00</time>
      </trkpt>
      <trkpt lat="44.24" lon="6.2193">
        <ele>1890</ele>
        <time>2021-11-12T11:19:38+01:00</time>
      </trkpt>
      <trkpt lat="44.24006" lon="6.21926">
        <ele>1891</ele>
        <time>2021-11-12T11:19:53+01:00</time>
      </trkpt>
      <trkpt lat="44.24014" lon="6.2192">
        <ele>1894</ele>
        <time>2021-11-12T11:20:07+01:00</time>
      </trkpt>
      <trkpt lat="44.24023" lon="6.21915">
        <ele>1897</ele>
        <time>2021-11-12T11:20:21+01:00</time>
      </trkpt>
      <trkpt lat="44.24037" lon="6.21903">
        <ele>1894</ele>
        <time>2021-11-12T11:20:38+01:00</time>
      </trkpt>
      <trkpt lat="44.24045" lon="6.219">
        <ele>1894</ele>
        <time>2021-11-12T11:20:53+01:00</time>
      </trkpt>
      <trkpt lat="44.24045" lon="6.219">
        <ele>1894</ele>
        <time>2021-11-12T11:21:08+01:00</time>
      </trkpt>
      <trkpt lat="44.24045" lon="6.21901">
        <ele>1894</ele>
        <time>2021-11-12T11:21:28+01:00</time>
      </trkpt>
      <trkpt lat="44.24043" lon="6.219">
        <ele>1894</ele>
        <time>2021-11-12T11:21:43+01:00</time>
      </trkpt>
      <trkpt lat="44.24044" lon="6.21898">
        <ele>1894</ele>
        <time>2021-11-12T11:22:04+01:00</time>
      </trkpt>
      <trkpt lat="44.24043" lon="6.21899">
        <ele>1894</ele>
        <time>2021-11-12T11:22:28+01:00</time>
      </trkpt>
      <trkpt lat="44.24043" lon="6.21899">
        <ele>1894</ele>
        <time>2021-11-12T11:22:55+01:00</time>
      </trkpt>
      <trkpt lat="44.24045" lon="6.21899">
        <ele>1894</ele>
        <time>2021-11-12T11:23:16+01:00</time>
      </trkpt>
      <trkpt lat="44.24045" lon="6.219">
        <ele>1894</ele>
        <time>2021-11-12T11:23:35+01:00</time>
      </trkpt>
      <trkpt lat="44.24045" lon="6.21901">
        <ele>1894</ele>
        <time>2021-11-12T11:24:02+01:00</time>
      </trkpt>
      <trkpt lat="44.24049" lon="6.21899">
        <ele>1894</ele>
        <time>2021-11-12T11:24:14+01:00</time>
      </trkpt>
      <trkpt lat="44.24065" lon="6.21894">
        <ele>1895</ele>
        <time>2021-11-12T11:24:31+01:00</time>
      </trkpt>
      <trkpt lat="44.24066" lon="6.21894">
        <ele>1895</ele>
        <time>2021-11-12T11:24:32+01:00</time>
      </trkpt>
      <trkpt lat="44.24072" lon="6.2189">
        <ele>1896</ele>
        <time>2021-11-12T11:24:49+01:00</time>
      </trkpt>
      <trkpt lat="44.24073" lon="6.21891">
        <ele>1896</ele>
        <time>2021-11-12T11:25:09+01:00</time>
      </trkpt>
      <trkpt lat="44.24068" lon="6.21893">
        <ele>1895</ele>
        <time>2021-11-12T11:25:25+01:00</time>
      </trkpt>
      <trkpt lat="44.24064" lon="6.21894">
        <ele>1895</ele>
        <time>2021-11-12T11:25:31+01:00</time>
      </trkpt>
      <trkpt lat="44.24055" lon="6.21898">
        <ele>1895</ele>
        <time>2021-11-12T11:25:43+01:00</time>
      </trkpt>
      <trkpt lat="44.24048" lon="6.219">
        <ele>1894</ele>
        <time>2021-11-12T11:26:00+01:00</time>
      </trkpt>
      <trkpt lat="44.24046" lon="6.21898">
        <ele>1894</ele>
        <time>2021-11-12T11:26:25+01:00</time>
      </trkpt>
      <trkpt lat="44.24045" lon="6.21902">
        <ele>1894</ele>
        <time>2021-11-12T11:26:37+01:00</time>
      </trkpt>
      <trkpt lat="44.24044" lon="6.21901">
        <ele>1894</ele>
        <time>2021-11-12T11:27:03+01:00</time>
      </trkpt>
      <trkpt lat="44.24044" lon="6.21899">
        <ele>1894</ele>
        <time>2021-11-12T11:27:26+01:00</time>
      </trkpt>
      <trkpt lat="44.24046" lon="6.219">
        <ele>1894</ele>
        <time>2021-11-12T11:27:51+01:00</time>
      </trkpt>
      <trkpt lat="44.24045" lon="6.21899">
        <ele>1894</ele>
        <time>2021-11-12T11:28:28+01:00</time>
      </trkpt>
      <trkpt lat="44.24045" lon="6.21899">
        <ele>1894</ele>
        <time>2021-11-12T11:29:04+01:00</time>
      </trkpt>
      <trkpt lat="44.24045" lon="6.21899">
        <ele>1894</ele>
        <time>2021-11-12T11:29:43+01:00</time>
      </trkpt>
      <trkpt lat="44.24045" lon="6.21899">
        <ele>1894</ele>
        <time>2021-11-12T11:30:17+01:00</time>
      </trkpt>
      <trkpt lat="44.24045" lon="6.21902">
        <ele>1894</ele>
        <time>2021-11-12T11:30:52+01:00</time>
      </trkpt>
      <trkpt lat="44.24045" lon="6.21899">
        <ele>1894</ele>
        <time>2021-11-12T11:31:19+01:00</time>
      </trkpt>
      <trkpt lat="44.24044" lon="6.21899">
        <ele>1894</ele>
        <time>2021-11-12T11:31:53+01:00</time>
      </trkpt>
      <trkpt lat="44.24044" lon="6.21898">
        <ele>1894</ele>
        <time>2021-11-12T11:32:32+01:00</time>
      </trkpt>
      <trkpt lat="44.24044" lon="6.21899">
        <ele>1894</ele>
        <time>2021-11-12T11:33:09+01:00</time>
      </trkpt>
      <trkpt lat="44.24043" lon="6.21899">
        <ele>1894</ele>
        <time>2021-11-12T11:33:44+01:00</time>
      </trkpt>
      <trkpt lat="44.24044" lon="6.21899">
        <ele>1894</ele>
        <time>2021-11-12T11:34:21+01:00</time>
      </trkpt>
      <trkpt lat="44.24043" lon="6.21897">
        <ele>1894</ele>
        <time>2021-11-12T11:34:51+01:00</time>
      </trkpt>
      <trkpt lat="44.24043" lon="6.21898">
        <ele>1894</ele>
        <time>2021-11-12T11:35:27+01:00</time>
      </trkpt>
      <trkpt lat="44.24043" lon="6.21898">
        <ele>1894</ele>
        <time>2021-11-12T11:35:55+01:00</time>
      </trkpt>
      <trkpt lat="44.24043" lon="6.21898">
        <ele>1894</ele>
        <time>2021-11-12T11:36:27+01:00</time>
      </trkpt>
      <trkpt lat="44.24043" lon="6.21897">
        <ele>1893</ele>
        <time>2021-11-12T11:36:59+01:00</time>
      </trkpt>
      <trkpt lat="44.24043" lon="6.21897">
        <ele>1893</ele>
        <time>2021-11-12T11:37:36+01:00</time>
      </trkpt>
      <trkpt lat="44.24043" lon="6.21897">
        <ele>1893</ele>
        <time>2021-11-12T11:38:04+01:00</time>
      </trkpt>
      <trkpt lat="44.24043" lon="6.21897">
        <ele>1893</ele>
        <time>2021-11-12T11:38:39+01:00</time>
      </trkpt>
      <trkpt lat="44.24044" lon="6.219">
        <ele>1894</ele>
        <time>2021-11-12T11:39:11+01:00</time>
      </trkpt>
      <trkpt lat="44.24045" lon="6.219">
        <ele>1894</ele>
        <time>2021-11-12T11:39:45+01:00</time>
      </trkpt>
      <trkpt lat="44.24044" lon="6.219">
        <ele>1894</ele>
        <time>2021-11-12T11:40:23+01:00</time>
      </trkpt>
      <trkpt lat="44.24045" lon="6.219">
        <ele>1894</ele>
        <time>2021-11-12T11:40:57+01:00</time>
      </trkpt>
      <trkpt lat="44.24044" lon="6.21901">
        <ele>1894</ele>
        <time>2021-11-12T11:41:30+01:00</time>
      </trkpt>
      <trkpt lat="44.24044" lon="6.21901">
        <ele>1894</ele>
        <time>2021-11-12T11:42:02+01:00</time>
      </trkpt>
      <trkpt lat="44.24043" lon="6.219">
        <ele>1894</ele>
        <time>2021-11-12T11:42:34+01:00</time>
      </trkpt>
      <trkpt lat="44.24043" lon="6.219">
        <ele>1894</ele>
        <time>2021-11-12T11:42:53+01:00</time>
      </trkpt>
      <trkpt lat="44.24043" lon="6.21898">
        <ele>1894</ele>
        <time>2021-11-12T11:43:24+01:00</time>
      </trkpt>
      <trkpt lat="44.24044" lon="6.219">
        <ele>1894</ele>
        <time>2021-11-12T11:43:46+01:00</time>
      </trkpt>
      <trkpt lat="44.24044" lon="6.219">
        <ele>1894</ele>
        <time>2021-11-12T11:44:16+01:00</time>
      </trkpt>
      <trkpt lat="44.24044" lon="6.21899">
        <ele>1894</ele>
        <time>2021-11-12T11:44:46+01:00</time>
      </trkpt>
      <trkpt lat="44.24044" lon="6.219">
        <ele>1894</ele>
        <time>2021-11-12T11:45:22+01:00</time>
      </trkpt>
      <trkpt lat="44.24043" lon="6.21901">
        <ele>1894</ele>
        <time>2021-11-12T11:46:00+01:00</time>
      </trkpt>
      <trkpt lat="44.24044" lon="6.219">
        <ele>1894</ele>
        <time>2021-11-12T11:46:25+01:00</time>
      </trkpt>
      <trkpt lat="44.24044" lon="6.21899">
        <ele>1894</ele>
        <time>2021-11-12T11:46:59+01:00</time>
      </trkpt>
      <trkpt lat="44.24043" lon="6.21899">
        <ele>1894</ele>
        <time>2021-11-12T11:47:29+01:00</time>
      </trkpt>
      <trkpt lat="44.24043" lon="6.21899">
        <ele>1894</ele>
        <time>2021-11-12T11:47:57+01:00</time>
      </trkpt>
      <trkpt lat="44.24042" lon="6.21898">
        <ele>1894</ele>
        <time>2021-11-12T11:48:31+01:00</time>
      </trkpt>
      <trkpt lat="44.24041" lon="6.219">
        <ele>1894</ele>
        <time>2021-11-12T11:48:59+01:00</time>
      </trkpt>
      <trkpt lat="44.24041" lon="6.219">
        <ele>1894</ele>
        <time>2021-11-12T11:49:41+01:00</time>
      </trkpt>
      <trkpt lat="44.24042" lon="6.21898">
        <ele>1894</ele>
        <time>2021-11-12T11:50:11+01:00</time>
      </trkpt>
      <trkpt lat="44.24041" lon="6.21898">
        <ele>1893</ele>
        <time>2021-11-12T11:50:38+01:00</time>
      </trkpt>
      <trkpt lat="44.24041" lon="6.219">
        <ele>1894</ele>
        <time>2021-11-12T11:51:10+01:00</time>
      </trkpt>
      <trkpt lat="44.24041" lon="6.219">
        <ele>1894</ele>
        <time>2021-11-12T11:51:24+01:00</time>
      </trkpt>
      <trkpt lat="44.24042" lon="6.21901">
        <ele>1894</ele>
        <time>2021-11-12T11:51:41+01:00</time>
      </trkpt>
      <trkpt lat="44.24043" lon="6.219">
        <ele>1894</ele>
        <time>2021-11-12T11:52:07+01:00</time>
      </trkpt>
      <trkpt lat="44.24043" lon="6.21898">
        <ele>1894</ele>
        <time>2021-11-12T11:52:29+01:00</time>
      </trkpt>
      <trkpt lat="44.24042" lon="6.21899">
        <ele>1894</ele>
        <time>2021-11-12T11:52:58+01:00</time>
      </trkpt>
      <trkpt lat="44.24047" lon="6.21898">
        <ele>1894</ele>
        <time>2021-11-12T11:53:08+01:00</time>
      </trkpt>
      <trkpt lat="44.24057" lon="6.21896">
        <ele>1895</ele>
        <time>2021-11-12T11:53:26+01:00</time>
      </trkpt>
      <trkpt lat="44.24064" lon="6.21892">
        <ele>1895</ele>
        <time>2021-11-12T11:53:50+01:00</time>
      </trkpt>
      <trkpt lat="44.24077" lon="6.21884">
        <ele>1895</ele>
        <time>2021-11-12T11:54:05+01:00</time>
      </trkpt>
      <trkpt lat="44.24078" lon="6.21883">
        <ele>1895</ele>
        <time>2021-11-12T11:54:07+01:00</time>
      </trkpt>
      <trkpt lat="44.24088" lon="6.21875">
        <ele>1892</ele>
        <time>2021-11-12T11:54:22+01:00</time>
      </trkpt>
      <trkpt lat="44.241" lon="6.21871">
        <ele>1890</ele>
        <time>2021-11-12T11:54:37+01:00</time>
      </trkpt>
      <trkpt lat="44.24112" lon="6.21861">
        <ele>1890</ele>
        <time>2021-11-12T11:54:53+01:00</time>
      </trkpt>
      <trkpt lat="44.24124" lon="6.2185">
        <ele>1884</ele>
        <time>2021-11-12T11:55:10+01:00</time>
      </trkpt>
      <trkpt lat="44.24134" lon="6.21843">
        <ele>1881</ele>
        <time>2021-11-12T11:55:28+01:00</time>
      </trkpt>
      <trkpt lat="44.24142" lon="6.21835">
        <ele>1879</ele>
        <time>2021-11-12T11:55:44+01:00</time>
      </trkpt>
      <trkpt lat="44.24149" lon="6.21829">
        <ele>1876</ele>
        <time>2021-11-12T11:56:01+01:00</time>
      </trkpt>
      <trkpt lat="44.24155" lon="6.21827">
        <ele>1875</ele>
        <time>2021-11-12T11:56:17+01:00</time>
      </trkpt>
      <trkpt lat="44.24161" lon="6.21823">
        <ele>1873</ele>
        <time>2021-11-12T11:56:32+01:00</time>
      </trkpt>
      <trkpt lat="44.24166" lon="6.21823">
        <ele>1872</ele>
        <time>2021-11-12T11:56:52+01:00</time>
      </trkpt>
      <trkpt lat="44.24167" lon="6.21823">
        <ele>1872</ele>
        <time>2021-11-12T11:57:00+01:00</time>
      </trkpt>
      <trkpt lat="44.24167" lon="6.21824">
        <ele>1873</ele>
        <time>2021-11-12T11:57:03+01:00</time>
      </trkpt>
      <trkpt lat="44.24176" lon="6.21819">
        <ele>1869</ele>
        <time>2021-11-12T11:57:19+01:00</time>
      </trkpt>
      <trkpt lat="44.24181" lon="6.21815">
        <ele>1867</ele>
        <time>2021-11-12T11:57:34+01:00</time>
      </trkpt>
      <trkpt lat="44.24188" lon="6.21808">
        <ele>1865</ele>
        <time>2021-11-12T11:57:48+01:00</time>
      </trkpt>
      <trkpt lat="44.24192" lon="6.21808">
        <ele>1865</ele>
        <time>2021-11-12T11:58:02+01:00</time>
      </trkpt>
      <trkpt lat="44.24194" lon="6.21805">
        <ele>1865</ele>
        <time>2021-11-12T11:58:21+01:00</time>
      </trkpt>
      <trkpt lat="44.24199" lon="6.21803">
        <ele>1863</ele>
        <time>2021-11-12T11:58:37+01:00</time>
      </trkpt>
      <trkpt lat="44.242" lon="6.218">
        <ele>1862</ele>
        <time>2021-11-12T11:58:53+01:00</time>
      </trkpt>
      <trkpt lat="44.24203" lon="6.218">
        <ele>1862</ele>
        <time>2021-11-12T11:59:13+01:00</time>
      </trkpt>
      <trkpt lat="44.24207" lon="6.21798">
        <ele>1861</ele>
        <time>2021-11-12T11:59:28+01:00</time>
      </trkpt>
      <trkpt lat="44.24209" lon="6.21803">
        <ele>1863</ele>
        <time>2021-11-12T11:59:42+01:00</time>
      </trkpt>
      <trkpt lat="44.24214" lon="6.218">
        <ele>1862</ele>
        <time>2021-11-12T11:59:56+01:00</time>
      </trkpt>
      <trkpt lat="44.24217" lon="6.21798">
        <ele>1861</ele>
        <time>2021-11-12T12:00:11+01:00</time>
      </trkpt>
      <trkpt lat="44.24221" lon="6.2179">
        <ele>1859</ele>
        <time>2021-11-12T12:00:29+01:00</time>
      </trkpt>
      <trkpt lat="44.24225" lon="6.21785">
        <ele>1857</ele>
        <time>2021-11-12T12:00:45+01:00</time>
      </trkpt>
      <trkpt lat="44.24225" lon="6.21783">
        <ele>1856</ele>
        <time>2021-11-12T12:01:04+01:00</time>
      </trkpt>
      <trkpt lat="44.2423" lon="6.21778">
        <ele>1854</ele>
        <time>2021-11-12T12:01:19+01:00</time>
      </trkpt>
      <trkpt lat="44.24235" lon="6.21774">
        <ele>1851</ele>
        <time>2021-11-12T12:01:31+01:00</time>
      </trkpt>
      <trkpt lat="44.24242" lon="6.21768">
        <ele>1847</ele>
        <time>2021-11-12T12:01:45+01:00</time>
      </trkpt>
      <trkpt lat="44.24249" lon="6.21763">
        <ele>1844</ele>
        <time>2021-11-12T12:01:59+01:00</time>
      </trkpt>
      <trkpt lat="44.24255" lon="6.21759">
        <ele>1841</ele>
        <time>2021-11-12T12:02:14+01:00</time>
      </trkpt>
      <trkpt lat="44.24262" lon="6.21758">
        <ele>1839</ele>
        <time>2021-11-12T12:02:31+01:00</time>
      </trkpt>
      <trkpt lat="44.24267" lon="6.21753">
        <ele>1837</ele>
        <time>2021-11-12T12:02:47+01:00</time>
      </trkpt>
      <trkpt lat="44.24272" lon="6.21747">
        <ele>1835</ele>
        <time>2021-11-12T12:03:04+01:00</time>
      </trkpt>
      <trkpt lat="44.24275" lon="6.21743">
        <ele>1832</ele>
        <time>2021-11-12T12:03:19+01:00</time>
      </trkpt>
      <trkpt lat="44.24281" lon="6.21737">
        <ele>1828</ele>
        <time>2021-11-12T12:03:35+01:00</time>
      </trkpt>
      <trkpt lat="44.24286" lon="6.21735">
        <ele>1825</ele>
        <time>2021-11-12T12:03:51+01:00</time>
      </trkpt>
      <trkpt lat="44.24288" lon="6.21732">
        <ele>1824</ele>
        <time>2021-11-12T12:04:06+01:00</time>
      </trkpt>
      <trkpt lat="44.24293" lon="6.21728">
        <ele>1821</ele>
        <time>2021-11-12T12:04:20+01:00</time>
      </trkpt>
      <trkpt lat="44.243" lon="6.21723">
        <ele>1819</ele>
        <time>2021-11-12T12:04:36+01:00</time>
      </trkpt>
      <trkpt lat="44.24304" lon="6.21718">
        <ele>1817</ele>
        <time>2021-11-12T12:04:50+01:00</time>
      </trkpt>
      <trkpt lat="44.24309" lon="6.21714">
        <ele>1813</ele>
        <time>2021-11-12T12:05:04+01:00</time>
      </trkpt>
      <trkpt lat="44.24317" lon="6.21712">
        <ele>1810</ele>
        <time>2021-11-12T12:05:20+01:00</time>
      </trkpt>
      <trkpt lat="44.24317" lon="6.21712">
        <ele>1810</ele>
        <time>2021-11-12T12:05:34+01:00</time>
      </trkpt>
      <trkpt lat="44.24318" lon="6.21714">
        <ele>1811</ele>
        <time>2021-11-12T12:05:56+01:00</time>
      </trkpt>
      <trkpt lat="44.24317" lon="6.21712">
        <ele>1810</ele>
        <time>2021-11-12T12:06:22+01:00</time>
      </trkpt>
      <trkpt lat="44.24322" lon="6.21707">
        <ele>1808</ele>
        <time>2021-11-12T12:06:45+01:00</time>
      </trkpt>
      <trkpt lat="44.24326" lon="6.21706">
        <ele>1807</ele>
        <time>2021-11-12T12:07:01+01:00</time>
      </trkpt>
      <trkpt lat="44.24331" lon="6.21702">
        <ele>1806</ele>
        <time>2021-11-12T12:07:14+01:00</time>
      </trkpt>
      <trkpt lat="44.24335" lon="6.21696">
        <ele>1805</ele>
        <time>2021-11-12T12:07:28+01:00</time>
      </trkpt>
      <trkpt lat="44.24339" lon="6.21691">
        <ele>1802</ele>
        <time>2021-11-12T12:07:45+01:00</time>
      </trkpt>
      <trkpt lat="44.24343" lon="6.21687">
        <ele>1799</ele>
        <time>2021-11-12T12:07:58+01:00</time>
      </trkpt>
      <trkpt lat="44.24348" lon="6.21683">
        <ele>1796</ele>
        <time>2021-11-12T12:08:14+01:00</time>
      </trkpt>
      <trkpt lat="44.24353" lon="6.21675">
        <ele>1793</ele>
        <time>2021-11-12T12:08:31+01:00</time>
      </trkpt>
      <trkpt lat="44.24357" lon="6.21668">
        <ele>1792</ele>
        <time>2021-11-12T12:08:48+01:00</time>
      </trkpt>
      <trkpt lat="44.24362" lon="6.2166">
        <ele>1789</ele>
        <time>2021-11-12T12:09:02+01:00</time>
      </trkpt>
      <trkpt lat="44.24369" lon="6.21653">
        <ele>1785</ele>
        <time>2021-11-12T12:09:21+01:00</time>
      </trkpt>
      <trkpt lat="44.24371" lon="6.21651">
        <ele>1784</ele>
        <time>2021-11-12T12:09:27+01:00</time>
      </trkpt>
      <trkpt lat="44.24377" lon="6.21644">
        <ele>1781</ele>
        <time>2021-11-12T12:09:40+01:00</time>
      </trkpt>
      <trkpt lat="44.24381" lon="6.2164">
        <ele>1780</ele>
        <time>2021-11-12T12:09:46+01:00</time>
      </trkpt>
      <trkpt lat="44.2439" lon="6.21629">
        <ele>1778</ele>
        <time>2021-11-12T12:10:01+01:00</time>
      </trkpt>
      <trkpt lat="44.24396" lon="6.2162">
        <ele>1775</ele>
        <time>2021-11-12T12:10:16+01:00</time>
      </trkpt>
      <trkpt lat="44.24401" lon="6.21609">
        <ele>1773</ele>
        <time>2021-11-12T12:10:30+01:00</time>
      </trkpt>
      <trkpt lat="44.24406" lon="6.21604">
        <ele>1771</ele>
        <time>2021-11-12T12:10:45+01:00</time>
      </trkpt>
      <trkpt lat="44.2441" lon="6.21596">
        <ele>1769</ele>
        <time>2021-11-12T12:10:58+01:00</time>
      </trkpt>
      <trkpt lat="44.24415" lon="6.21587">
        <ele>1768</ele>
        <time>2021-11-12T12:11:15+01:00</time>
      </trkpt>
      <trkpt lat="44.24419" lon="6.21582">
        <ele>1767</ele>
        <time>2021-11-12T12:11:28+01:00</time>
      </trkpt>
      <trkpt lat="44.24424" lon="6.21577">
        <ele>1764</ele>
        <time>2021-11-12T12:11:43+01:00</time>
      </trkpt>
      <trkpt lat="44.24427" lon="6.21575">
        <ele>1762</ele>
        <time>2021-11-12T12:12:05+01:00</time>
      </trkpt>
      <trkpt lat="44.24429" lon="6.21572">
        <ele>1761</ele>
        <time>2021-11-12T12:12:26+01:00</time>
      </trkpt>
      <trkpt lat="44.24435" lon="6.21565">
        <ele>1759</ele>
        <time>2021-11-12T12:12:41+01:00</time>
      </trkpt>
      <trkpt lat="44.24442" lon="6.21556">
        <ele>1757</ele>
        <time>2021-11-12T12:12:57+01:00</time>
      </trkpt>
      <trkpt lat="44.24447" lon="6.21552">
        <ele>1755</ele>
        <time>2021-11-12T12:13:16+01:00</time>
      </trkpt>
      <trkpt lat="44.24448" lon="6.21552">
        <ele>1755</ele>
        <time>2021-11-12T12:13:40+01:00</time>
      </trkpt>
      <trkpt lat="44.24452" lon="6.21546">
        <ele>1752</ele>
        <time>2021-11-12T12:14:11+01:00</time>
      </trkpt>
      <trkpt lat="44.24459" lon="6.21533">
        <ele>1749</ele>
        <time>2021-11-12T12:14:24+01:00</time>
      </trkpt>
      <trkpt lat="44.24463" lon="6.21521">
        <ele>1746</ele>
        <time>2021-11-12T12:14:41+01:00</time>
      </trkpt>
      <trkpt lat="44.24465" lon="6.21514">
        <ele>1744</ele>
        <time>2021-11-12T12:14:55+01:00</time>
      </trkpt>
      <trkpt lat="44.24466" lon="6.21514">
        <ele>1744</ele>
        <time>2021-11-12T12:15:19+01:00</time>
      </trkpt>
      <trkpt lat="44.24474" lon="6.2151">
        <ele>1744</ele>
        <time>2021-11-12T12:15:35+01:00</time>
      </trkpt>
      <trkpt lat="44.24478" lon="6.21509">
        <ele>1743</ele>
        <time>2021-11-12T12:15:48+01:00</time>
      </trkpt>
      <trkpt lat="44.24481" lon="6.21499">
        <ele>1742</ele>
        <time>2021-11-12T12:16:01+01:00</time>
      </trkpt>
      <trkpt lat="44.24488" lon="6.21496">
        <ele>1740</ele>
        <time>2021-11-12T12:16:15+01:00</time>
      </trkpt>
      <trkpt lat="44.24492" lon="6.21497">
        <ele>1740</ele>
        <time>2021-11-12T12:16:31+01:00</time>
      </trkpt>
      <trkpt lat="44.24494" lon="6.21498">
        <ele>1740</ele>
        <time>2021-11-12T12:16:47+01:00</time>
      </trkpt>
      <trkpt lat="44.24497" lon="6.21495">
        <ele>1739</ele>
        <time>2021-11-12T12:16:59+01:00</time>
      </trkpt>
      <trkpt lat="44.24501" lon="6.21488">
        <ele>1739</ele>
        <time>2021-11-12T12:17:13+01:00</time>
      </trkpt>
      <trkpt lat="44.24504" lon="6.21483">
        <ele>1738</ele>
        <time>2021-11-12T12:17:27+01:00</time>
      </trkpt>
      <trkpt lat="44.24509" lon="6.21478">
        <ele>1736</ele>
        <time>2021-11-12T12:17:41+01:00</time>
      </trkpt>
      <trkpt lat="44.24513" lon="6.21476">
        <ele>1734</ele>
        <time>2021-11-12T12:17:57+01:00</time>
      </trkpt>
      <trkpt lat="44.24518" lon="6.21474">
        <ele>1732</ele>
        <time>2021-11-12T12:18:10+01:00</time>
      </trkpt>
      <trkpt lat="44.24525" lon="6.21475">
        <ele>1730</ele>
        <time>2021-11-12T12:18:22+01:00</time>
      </trkpt>
      <trkpt lat="44.24533" lon="6.21476">
        <ele>1726</ele>
        <time>2021-11-12T12:18:34+01:00</time>
      </trkpt>
      <trkpt lat="44.2454" lon="6.21475">
        <ele>1724</ele>
        <time>2021-11-12T12:18:43+01:00</time>
      </trkpt>
      <trkpt lat="44.24546" lon="6.21486">
        <ele>1720</ele>
        <time>2021-11-12T12:18:51+01:00</time>
      </trkpt>
      <trkpt lat="44.2455" lon="6.21496">
        <ele>1717</ele>
        <time>2021-11-12T12:19:01+01:00</time>
      </trkpt>
      <trkpt lat="44.24555" lon="6.21502">
        <ele>1713</ele>
        <time>2021-11-12T12:19:12+01:00</time>
      </trkpt>
      <trkpt lat="44.2456" lon="6.21507">
        <ele>1710</ele>
        <time>2021-11-12T12:19:22+01:00</time>
      </trkpt>
      <trkpt lat="44.24568" lon="6.21513">
        <ele>1706</ele>
        <time>2021-11-12T12:19:34+01:00</time>
      </trkpt>
      <trkpt lat="44.24577" lon="6.21517">
        <ele>1701</ele>
        <time>2021-11-12T12:19:47+01:00</time>
      </trkpt>
      <trkpt lat="44.24589" lon="6.21524">
        <ele>1695</ele>
        <time>2021-11-12T12:20:02+01:00</time>
      </trkpt>
      <trkpt lat="44.24597" lon="6.21526">
        <ele>1692</ele>
        <time>2021-11-12T12:20:14+01:00</time>
      </trkpt>
      <trkpt lat="44.24602" lon="6.21531">
        <ele>1690</ele>
        <time>2021-11-12T12:20:31+01:00</time>
      </trkpt>
      <trkpt lat="44.24607" lon="6.21539">
        <ele>1687</ele>
        <time>2021-11-12T12:20:46+01:00</time>
      </trkpt>
      <trkpt lat="44.24611" lon="6.21547">
        <ele>1686</ele>
        <time>2021-11-12T12:20:58+01:00</time>
      </trkpt>
      <trkpt lat="44.24617" lon="6.21555">
        <ele>1682</ele>
        <time>2021-11-12T12:21:11+01:00</time>
      </trkpt>
      <trkpt lat="44.24619" lon="6.21558">
        <ele>1681</ele>
        <time>2021-11-12T12:21:28+01:00</time>
      </trkpt>
      <trkpt lat="44.24622" lon="6.21564">
        <ele>1679</ele>
        <time>2021-11-12T12:21:46+01:00</time>
      </trkpt>
      <trkpt lat="44.24628" lon="6.21577">
        <ele>1676</ele>
        <time>2021-11-12T12:22:00+01:00</time>
      </trkpt>
      <trkpt lat="44.24631" lon="6.21583">
        <ele>1676</ele>
        <time>2021-11-12T12:22:18+01:00</time>
      </trkpt>
      <trkpt lat="44.24631" lon="6.21578">
        <ele>1675</ele>
        <time>2021-11-12T12:22:46+01:00</time>
      </trkpt>
      <trkpt lat="44.24631" lon="6.2158">
        <ele>1675</ele>
        <time>2021-11-12T12:22:48+01:00</time>
      </trkpt>
      <trkpt lat="44.24633" lon="6.21585">
        <ele>1675</ele>
        <time>2021-11-12T12:23:09+01:00</time>
      </trkpt>
      <trkpt lat="44.24635" lon="6.21594">
        <ele>1675</ele>
        <time>2021-11-12T12:23:32+01:00</time>
      </trkpt>
      <trkpt lat="44.24635" lon="6.21598">
        <ele>1675</ele>
        <time>2021-11-12T12:23:34+01:00</time>
      </trkpt>
      <trkpt lat="44.2464" lon="6.21623">
        <ele>1674</ele>
        <time>2021-11-12T12:23:50+01:00</time>
      </trkpt>
      <trkpt lat="44.24641" lon="6.21627">
        <ele>1674</ele>
        <time>2021-11-12T12:23:53+01:00</time>
      </trkpt>
      <trkpt lat="44.24645" lon="6.21653">
        <ele>1671</ele>
        <time>2021-11-12T12:24:09+01:00</time>
      </trkpt>
      <trkpt lat="44.24647" lon="6.21668">
        <ele>1670</ele>
        <time>2021-11-12T12:24:23+01:00</time>
      </trkpt>
      <trkpt lat="44.24645" lon="6.2167">
        <ele>1671</ele>
        <time>2021-11-12T12:24:33+01:00</time>
      </trkpt>
      <trkpt lat="44.24647" lon="6.21676">
        <ele>1670</ele>
        <time>2021-11-12T12:24:37+01:00</time>
      </trkpt>
      <trkpt lat="44.24648" lon="6.21683">
        <ele>1670</ele>
        <time>2021-11-12T12:24:42+01:00</time>
      </trkpt>
      <trkpt lat="44.24656" lon="6.21706">
        <ele>1666</ele>
        <time>2021-11-12T12:24:57+01:00</time>
      </trkpt>
      <trkpt lat="44.24665" lon="6.21723">
        <ele>1663</ele>
        <time>2021-11-12T12:25:13+01:00</time>
      </trkpt>
      <trkpt lat="44.24672" lon="6.21734">
        <ele>1662</ele>
        <time>2021-11-12T12:25:29+01:00</time>
      </trkpt>
      <trkpt lat="44.24671" lon="6.21735">
        <ele>1662</ele>
        <time>2021-11-12T12:25:41+01:00</time>
      </trkpt>
      <trkpt lat="44.24673" lon="6.21738">
        <ele>1662</ele>
        <time>2021-11-12T12:25:54+01:00</time>
      </trkpt>
      <trkpt lat="44.24682" lon="6.21748">
        <ele>1663</ele>
        <time>2021-11-12T12:26:09+01:00</time>
      </trkpt>
      <trkpt lat="44.2469" lon="6.21752">
        <ele>1663</ele>
        <time>2021-11-12T12:26:19+01:00</time>
      </trkpt>
      <trkpt lat="44.24692" lon="6.21752">
        <ele>1664</ele>
        <time>2021-11-12T12:26:32+01:00</time>
      </trkpt>
      <trkpt lat="44.24691" lon="6.21753">
        <ele>1663</ele>
        <time>2021-11-12T12:26:41+01:00</time>
      </trkpt>
      <trkpt lat="44.24684" lon="6.21756">
        <ele>1662</ele>
        <time>2021-11-12T12:26:55+01:00</time>
      </trkpt>
      <trkpt lat="44.24682" lon="6.21755">
        <ele>1662</ele>
        <time>2021-11-12T12:27:13+01:00</time>
      </trkpt>
      <trkpt lat="44.24685" lon="6.21754">
        <ele>1663</ele>
        <time>2021-11-12T12:27:37+01:00</time>
      </trkpt>
      <trkpt lat="44.24684" lon="6.21756">
        <ele>1662</ele>
        <time>2021-11-12T12:27:57+01:00</time>
      </trkpt>
      <trkpt lat="44.24681" lon="6.21754">
        <ele>1662</ele>
        <time>2021-11-12T12:28:16+01:00</time>
      </trkpt>
      <trkpt lat="44.2468" lon="6.2175">
        <ele>1662</ele>
        <time>2021-11-12T12:28:30+01:00</time>
      </trkpt>
      <trkpt lat="44.24675" lon="6.21743">
        <ele>1662</ele>
        <time>2021-11-12T12:28:40+01:00</time>
      </trkpt>
      <trkpt lat="44.24673" lon="6.21739">
        <ele>1662</ele>
        <time>2021-11-12T12:28:55+01:00</time>
      </trkpt>
      <trkpt lat="44.24672" lon="6.2174">
        <ele>1662</ele>
        <time>2021-11-12T12:29:12+01:00</time>
      </trkpt>
      <trkpt lat="44.2467" lon="6.21749">
        <ele>1661</ele>
        <time>2021-11-12T12:29:28+01:00</time>
      </trkpt>
      <trkpt lat="44.24665" lon="6.21756">
        <ele>1660</ele>
        <time>2021-11-12T12:29:43+01:00</time>
      </trkpt>
      <trkpt lat="44.24662" lon="6.21763">
        <ele>1661</ele>
        <time>2021-11-12T12:29:58+01:00</time>
      </trkpt>
      <trkpt lat="44.2466" lon="6.2177">
        <ele>1660</ele>
        <time>2021-11-12T12:30:08+01:00</time>
      </trkpt>
      <trkpt lat="44.24659" lon="6.21775">
        <ele>1660</ele>
        <time>2021-11-12T12:30:13+01:00</time>
      </trkpt>
      <trkpt lat="44.24656" lon="6.21788">
        <ele>1659</ele>
        <time>2021-11-12T12:30:26+01:00</time>
      </trkpt>
      <trkpt lat="44.24657" lon="6.21792">
        <ele>1658</ele>
        <time>2021-11-12T12:30:29+01:00</time>
      </trkpt>
      <trkpt lat="44.24661" lon="6.21806">
        <ele>1654</ele>
        <time>2021-11-12T12:30:43+01:00</time>
      </trkpt>
      <trkpt lat="44.24664" lon="6.21815">
        <ele>1652</ele>
        <time>2021-11-12T12:30:58+01:00</time>
      </trkpt>
      <trkpt lat="44.24663" lon="6.21817">
        <ele>1652</ele>
        <time>2021-11-12T12:31:07+01:00</time>
      </trkpt>
      <trkpt lat="44.24657" lon="6.21829">
        <ele>1653</ele>
        <time>2021-11-12T12:31:21+01:00</time>
      </trkpt>
      <trkpt lat="44.24655" lon="6.21844">
        <ele>1652</ele>
        <time>2021-11-12T12:31:37+01:00</time>
      </trkpt>
      <trkpt lat="44.24652" lon="6.21857">
        <ele>1652</ele>
        <time>2021-11-12T12:31:52+01:00</time>
      </trkpt>
      <trkpt lat="44.24647" lon="6.21863">
        <ele>1652</ele>
        <time>2021-11-12T12:32:06+01:00</time>
      </trkpt>
      <trkpt lat="44.24648" lon="6.21869">
        <ele>1652</ele>
        <time>2021-11-12T12:32:11+01:00</time>
      </trkpt>
      <trkpt lat="44.24651" lon="6.21886">
        <ele>1651</ele>
        <time>2021-11-12T12:32:27+01:00</time>
      </trkpt>
      <trkpt lat="44.24645" lon="6.219">
        <ele>1650</ele>
        <time>2021-11-12T12:32:43+01:00</time>
      </trkpt>
      <trkpt lat="44.24642" lon="6.21902">
        <ele>1649</ele>
        <time>2021-11-12T12:32:48+01:00</time>
      </trkpt>
      <trkpt lat="44.2464" lon="6.21921">
        <ele>1648</ele>
        <time>2021-11-12T12:33:04+01:00</time>
      </trkpt>
      <trkpt lat="44.24635" lon="6.21933">
        <ele>1648</ele>
        <time>2021-11-12T12:33:18+01:00</time>
      </trkpt>
      <trkpt lat="44.24632" lon="6.21949">
        <ele>1647</ele>
        <time>2021-11-12T12:33:34+01:00</time>
      </trkpt>
      <trkpt lat="44.24625" lon="6.2196">
        <ele>1648</ele>
        <time>2021-11-12T12:33:47+01:00</time>
      </trkpt>
      <trkpt lat="44.24625" lon="6.21974">
        <ele>1646</ele>
        <time>2021-11-12T12:34:03+01:00</time>
      </trkpt>
      <trkpt lat="44.24625" lon="6.21989">
        <ele>1644</ele>
        <time>2021-11-12T12:34:17+01:00</time>
      </trkpt>
      <trkpt lat="44.24625" lon="6.22">
        <ele>1643</ele>
        <time>2021-11-12T12:34:30+01:00</time>
      </trkpt>
      <trkpt lat="44.24623" lon="6.22017">
        <ele>1641</ele>
        <time>2021-11-12T12:34:45+01:00</time>
      </trkpt>
      <trkpt lat="44.24622" lon="6.22018">
        <ele>1641</ele>
        <time>2021-11-12T12:34:46+01:00</time>
      </trkpt>
      <trkpt lat="44.2462" lon="6.22022">
        <ele>1641</ele>
        <time>2021-11-12T12:34:49+01:00</time>
      </trkpt>
      <trkpt lat="44.24616" lon="6.22035">
        <ele>1639</ele>
        <time>2021-11-12T12:35:05+01:00</time>
      </trkpt>
      <trkpt lat="44.2462" lon="6.22053">
        <ele>1637</ele>
        <time>2021-11-12T12:35:21+01:00</time>
      </trkpt>
      <trkpt lat="44.24624" lon="6.22072">
        <ele>1636</ele>
        <time>2021-11-12T12:35:37+01:00</time>
      </trkpt>
      <trkpt lat="44.24621" lon="6.22081">
        <ele>1634</ele>
        <time>2021-11-12T12:35:50+01:00</time>
      </trkpt>
      <trkpt lat="44.24618" lon="6.22091">
        <ele>1633</ele>
        <time>2021-11-12T12:36:06+01:00</time>
      </trkpt>
      <trkpt lat="44.24609" lon="6.22105">
        <ele>1631</ele>
        <time>2021-11-12T12:36:22+01:00</time>
      </trkpt>
      <trkpt lat="44.24603" lon="6.22122">
        <ele>1630</ele>
        <time>2021-11-12T12:36:38+01:00</time>
      </trkpt>
      <trkpt lat="44.24602" lon="6.22127">
        <ele>1630</ele>
        <time>2021-11-12T12:36:53+01:00</time>
      </trkpt>
      <trkpt lat="44.24604" lon="6.22128">
        <ele>1630</ele>
        <time>2021-11-12T12:37:07+01:00</time>
      </trkpt>
      <trkpt lat="44.246" lon="6.22128">
        <ele>1629</ele>
        <time>2021-11-12T12:37:24+01:00</time>
      </trkpt>
      <trkpt lat="44.24597" lon="6.22139">
        <ele>1628</ele>
        <time>2021-11-12T12:37:38+01:00</time>
      </trkpt>
      <trkpt lat="44.24597" lon="6.22145">
        <ele>1627</ele>
        <time>2021-11-12T12:37:52+01:00</time>
      </trkpt>
      <trkpt lat="44.2459" lon="6.2214">
        <ele>1627</ele>
        <time>2021-11-12T12:38:06+01:00</time>
      </trkpt>
      <trkpt lat="44.24582" lon="6.22144">
        <ele>1625</ele>
        <time>2021-11-12T12:38:20+01:00</time>
      </trkpt>
      <trkpt lat="44.24575" lon="6.22145">
        <ele>1628</ele>
        <time>2021-11-12T12:38:33+01:00</time>
      </trkpt>
      <trkpt lat="44.24566" lon="6.22149">
        <ele>1630</ele>
        <time>2021-11-12T12:38:49+01:00</time>
      </trkpt>
      <trkpt lat="44.2456" lon="6.22156">
        <ele>1631</ele>
        <time>2021-11-12T12:39:04+01:00</time>
      </trkpt>
      <trkpt lat="44.24556" lon="6.22167">
        <ele>1632</ele>
        <time>2021-11-12T12:39:20+01:00</time>
      </trkpt>
      <trkpt lat="44.24552" lon="6.22181">
        <ele>1635</ele>
        <time>2021-11-12T12:39:37+01:00</time>
      </trkpt>
      <trkpt lat="44.2455" lon="6.2219">
        <ele>1637</ele>
        <time>2021-11-12T12:39:54+01:00</time>
      </trkpt>
      <trkpt lat="44.24548" lon="6.222">
        <ele>1638</ele>
        <time>2021-11-12T12:40:13+01:00</time>
      </trkpt>
      <trkpt lat="44.24546" lon="6.22212">
        <ele>1639</ele>
        <time>2021-11-12T12:40:31+01:00</time>
      </trkpt>
      <trkpt lat="44.24544" lon="6.22216">
        <ele>1639</ele>
        <time>2021-11-12T12:40:51+01:00</time>
      </trkpt>
      <trkpt lat="44.2454" lon="6.22226">
        <ele>1640</ele>
        <time>2021-11-12T12:40:59+01:00</time>
      </trkpt>
      <trkpt lat="44.24527" lon="6.22244">
        <ele>1643</ele>
        <time>2021-11-12T12:41:18+01:00</time>
      </trkpt>
      <trkpt lat="44.24521" lon="6.22247">
        <ele>1644</ele>
        <time>2021-11-12T12:41:31+01:00</time>
      </trkpt>
      <trkpt lat="44.24507" lon="6.22255">
        <ele>1646</ele>
        <time>2021-11-12T12:41:48+01:00</time>
      </trkpt>
      <trkpt lat="44.24498" lon="6.22262">
        <ele>1646</ele>
        <time>2021-11-12T12:42:06+01:00</time>
      </trkpt>
      <trkpt lat="44.24499" lon="6.22264">
        <ele>1645</ele>
        <time>2021-11-12T12:42:21+01:00</time>
      </trkpt>
      <trkpt lat="44.24499" lon="6.22263">
        <ele>1645</ele>
        <time>2021-11-12T12:42:35+01:00</time>
      </trkpt>
      <trkpt lat="44.24499" lon="6.22264">
        <ele>1645</ele>
        <time>2021-11-12T12:42:57+01:00</time>
      </trkpt>
      <trkpt lat="44.24499" lon="6.22265">
        <ele>1645</ele>
        <time>2021-11-12T12:43:25+01:00</time>
      </trkpt>
      <trkpt lat="44.24499" lon="6.22264">
        <ele>1645</ele>
        <time>2021-11-12T12:43:54+01:00</time>
      </trkpt>
      <trkpt lat="44.24492" lon="6.2226">
        <ele>1647</ele>
        <time>2021-11-12T12:44:13+01:00</time>
      </trkpt>
      <trkpt lat="44.24483" lon="6.2225">
        <ele>1651</ele>
        <time>2021-11-12T12:44:28+01:00</time>
      </trkpt>
      <trkpt lat="44.24475" lon="6.22238">
        <ele>1655</ele>
        <time>2021-11-12T12:44:42+01:00</time>
      </trkpt>
      <trkpt lat="44.24464" lon="6.22226">
        <ele>1659</ele>
        <time>2021-11-12T12:44:58+01:00</time>
      </trkpt>
      <trkpt lat="44.24458" lon="6.2222">
        <ele>1661</ele>
        <time>2021-11-12T12:45:12+01:00</time>
      </trkpt>
      <trkpt lat="44.24452" lon="6.22212">
        <ele>1663</ele>
        <time>2021-11-12T12:45:28+01:00</time>
      </trkpt>
      <trkpt lat="44.24447" lon="6.22203">
        <ele>1665</ele>
        <time>2021-11-12T12:45:42+01:00</time>
      </trkpt>
      <trkpt lat="44.24444" lon="6.22187">
        <ele>1667</ele>
        <time>2021-11-12T12:46:01+01:00</time>
      </trkpt>
      <trkpt lat="44.24443" lon="6.22175">
        <ele>1668</ele>
        <time>2021-11-12T12:46:12+01:00</time>
      </trkpt>
      <trkpt lat="44.24441" lon="6.22156">
        <ele>1670</ele>
        <time>2021-11-12T12:46:27+01:00</time>
      </trkpt>
      <trkpt lat="44.24436" lon="6.22151">
        <ele>1672</ele>
        <time>2021-11-12T12:46:41+01:00</time>
      </trkpt>
      <trkpt lat="44.24433" lon="6.22152">
        <ele>1672</ele>
        <time>2021-11-12T12:46:45+01:00</time>
      </trkpt>
      <trkpt lat="44.2442" lon="6.22155">
        <ele>1674</ele>
        <time>2021-11-12T12:47:00+01:00</time>
      </trkpt>
      <trkpt lat="44.24404" lon="6.22163">
        <ele>1677</ele>
        <time>2021-11-12T12:47:17+01:00</time>
      </trkpt>
      <trkpt lat="44.24395" lon="6.22167">
        <ele>1679</ele>
        <time>2021-11-12T12:47:31+01:00</time>
      </trkpt>
      <trkpt lat="44.24381" lon="6.22173">
        <ele>1682</ele>
        <time>2021-11-12T12:47:47+01:00</time>
      </trkpt>
      <trkpt lat="44.2438" lon="6.22171">
        <ele>1682</ele>
        <time>2021-11-12T12:48:05+01:00</time>
      </trkpt>
      <trkpt lat="44.24366" lon="6.22179">
        <ele>1686</ele>
        <time>2021-11-12T12:48:23+01:00</time>
      </trkpt>
      <trkpt lat="44.24366" lon="6.22181">
        <ele>1686</ele>
        <time>2021-11-12T12:48:40+01:00</time>
      </trkpt>
      <trkpt lat="44.24357" lon="6.22188">
        <ele>1688</ele>
        <time>2021-11-12T12:48:55+01:00</time>
      </trkpt>
      <trkpt lat="44.24339" lon="6.2219">
        <ele>1690</ele>
        <time>2021-11-12T12:49:13+01:00</time>
      </trkpt>
      <trkpt lat="44.24327" lon="6.22192">
        <ele>1691</ele>
        <time>2021-11-12T12:49:31+01:00</time>
      </trkpt>
      <trkpt lat="44.24321" lon="6.22194">
        <ele>1692</ele>
        <time>2021-11-12T12:49:49+01:00</time>
      </trkpt>
      <trkpt lat="44.24313" lon="6.22194">
        <ele>1694</ele>
        <time>2021-11-12T12:50:01+01:00</time>
      </trkpt>
      <trkpt lat="44.243" lon="6.22205">
        <ele>1693</ele>
        <time>2021-11-12T12:50:17+01:00</time>
      </trkpt>
      <trkpt lat="44.24293" lon="6.2221">
        <ele>1693</ele>
        <time>2021-11-12T12:50:27+01:00</time>
      </trkpt>
      <trkpt lat="44.24289" lon="6.22213">
        <ele>1693</ele>
        <time>2021-11-12T12:50:32+01:00</time>
      </trkpt>
      <trkpt lat="44.24288" lon="6.22213">
        <ele>1693</ele>
        <time>2021-11-12T12:50:34+01:00</time>
      </trkpt>
      <trkpt lat="44.24283" lon="6.22216">
        <ele>1693</ele>
        <time>2021-11-12T12:50:40+01:00</time>
      </trkpt>
      <trkpt lat="44.24271" lon="6.22223">
        <ele>1693</ele>
        <time>2021-11-12T12:50:55+01:00</time>
      </trkpt>
      <trkpt lat="44.2427" lon="6.22223">
        <ele>1693</ele>
        <time>2021-11-12T12:50:56+01:00</time>
      </trkpt>
      <trkpt lat="44.24269" lon="6.22223">
        <ele>1693</ele>
        <time>2021-11-12T12:50:58+01:00</time>
      </trkpt>
      <trkpt lat="44.24255" lon="6.22225">
        <ele>1693</ele>
        <time>2021-11-12T12:51:15+01:00</time>
      </trkpt>
      <trkpt lat="44.24248" lon="6.22226">
        <ele>1693</ele>
        <time>2021-11-12T12:51:23+01:00</time>
      </trkpt>
      <trkpt lat="44.24235" lon="6.22223">
        <ele>1695</ele>
        <time>2021-11-12T12:51:38+01:00</time>
      </trkpt>
      <trkpt lat="44.24226" lon="6.22221">
        <ele>1697</ele>
        <time>2021-11-12T12:51:47+01:00</time>
      </trkpt>
      <trkpt lat="44.2421" lon="6.22223">
        <ele>1698</ele>
        <time>2021-11-12T12:52:05+01:00</time>
      </trkpt>
      <trkpt lat="44.24193" lon="6.2223">
        <ele>1698</ele>
        <time>2021-11-12T12:52:23+01:00</time>
      </trkpt>
      <trkpt lat="44.2418" lon="6.22237">
        <ele>1700</ele>
        <time>2021-11-12T12:52:40+01:00</time>
      </trkpt>
      <trkpt lat="44.24169" lon="6.2224">
        <ele>1702</ele>
        <time>2021-11-12T12:52:53+01:00</time>
      </trkpt>
      <trkpt lat="44.24164" lon="6.22246">
        <ele>1702</ele>
        <time>2021-11-12T12:53:06+01:00</time>
      </trkpt>
      <trkpt lat="44.24163" lon="6.22247">
        <ele>1703</ele>
        <time>2021-11-12T12:53:07+01:00</time>
      </trkpt>
      <trkpt lat="44.24147" lon="6.22259">
        <ele>1706</ele>
        <time>2021-11-12T12:53:25+01:00</time>
      </trkpt>
      <trkpt lat="44.24129" lon="6.22273">
        <ele>1707</ele>
        <time>2021-11-12T12:53:45+01:00</time>
      </trkpt>
      <trkpt lat="44.24108" lon="6.22282">
        <ele>1708</ele>
        <time>2021-11-12T12:54:06+01:00</time>
      </trkpt>
      <trkpt lat="44.24097" lon="6.22282">
        <ele>1708</ele>
        <time>2021-11-12T12:54:18+01:00</time>
      </trkpt>
      <trkpt lat="44.24077" lon="6.22285">
        <ele>1708</ele>
        <time>2021-11-12T12:54:36+01:00</time>
      </trkpt>
      <trkpt lat="44.24056" lon="6.22289">
        <ele>1710</ele>
        <time>2021-11-12T12:54:56+01:00</time>
      </trkpt>
      <trkpt lat="44.24032" lon="6.22292">
        <ele>1712</ele>
        <time>2021-11-12T12:55:18+01:00</time>
      </trkpt>
      <trkpt lat="44.24027" lon="6.22295">
        <ele>1711</ele>
        <time>2021-11-12T12:55:23+01:00</time>
      </trkpt>
      <trkpt lat="44.24008" lon="6.22304">
        <ele>1712</ele>
        <time>2021-11-12T12:55:40+01:00</time>
      </trkpt>
      <trkpt lat="44.23998" lon="6.22317">
        <ele>1710</ele>
        <time>2021-11-12T12:55:54+01:00</time>
      </trkpt>
      <trkpt lat="44.23982" lon="6.22318">
        <ele>1712</ele>
        <time>2021-11-12T12:56:11+01:00</time>
      </trkpt>
      <trkpt lat="44.23978" lon="6.22318">
        <ele>1712</ele>
        <time>2021-11-12T12:56:14+01:00</time>
      </trkpt>
      <trkpt lat="44.23969" lon="6.22328">
        <ele>1712</ele>
        <time>2021-11-12T12:56:25+01:00</time>
      </trkpt>
      <trkpt lat="44.23952" lon="6.22348">
        <ele>1712</ele>
        <time>2021-11-12T12:56:46+01:00</time>
      </trkpt>
      <trkpt lat="44.23936" lon="6.2237">
        <ele>1712</ele>
        <time>2021-11-12T12:57:06+01:00</time>
      </trkpt>
      <trkpt lat="44.23922" lon="6.22385">
        <ele>1714</ele>
        <time>2021-11-12T12:57:24+01:00</time>
      </trkpt>
      <trkpt lat="44.23912" lon="6.22398">
        <ele>1716</ele>
        <time>2021-11-12T12:57:40+01:00</time>
      </trkpt>
      <trkpt lat="44.23901" lon="6.22415">
        <ele>1720</ele>
        <time>2021-11-12T12:57:59+01:00</time>
      </trkpt>
      <trkpt lat="44.23893" lon="6.22426">
        <ele>1721</ele>
        <time>2021-11-12T12:58:13+01:00</time>
      </trkpt>
      <trkpt lat="44.23884" lon="6.22441">
        <ele>1723</ele>
        <time>2021-11-12T12:58:32+01:00</time>
      </trkpt>
      <trkpt lat="44.23874" lon="6.22455">
        <ele>1725</ele>
        <time>2021-11-12T12:58:49+01:00</time>
      </trkpt>
      <trkpt lat="44.23867" lon="6.22468">
        <ele>1725</ele>
        <time>2021-11-12T12:59:07+01:00</time>
      </trkpt>
      <trkpt lat="44.23862" lon="6.22474">
        <ele>1725</ele>
        <time>2021-11-12T12:59:18+01:00</time>
      </trkpt>
      <trkpt lat="44.23857" lon="6.22477">
        <ele>1726</ele>
        <time>2021-11-12T12:59:35+01:00</time>
      </trkpt>
      <trkpt lat="44.23855" lon="6.22479">
        <ele>1726</ele>
        <time>2021-11-12T12:59:51+01:00</time>
      </trkpt>
      <trkpt lat="44.23855" lon="6.22479">
        <ele>1726</ele>
        <time>2021-11-12T13:00:08+01:00</time>
      </trkpt>
      <trkpt lat="44.23856" lon="6.2248">
        <ele>1726</ele>
        <time>2021-11-12T13:00:29+01:00</time>
      </trkpt>
      <trkpt lat="44.23846" lon="6.22485">
        <ele>1728</ele>
        <time>2021-11-12T13:00:45+01:00</time>
      </trkpt>
      <trkpt lat="44.23844" lon="6.22486">
        <ele>1728</ele>
        <time>2021-11-12T13:00:47+01:00</time>
      </trkpt>
      <trkpt lat="44.23835" lon="6.22489">
        <ele>1731</ele>
        <time>2021-11-12T13:00:57+01:00</time>
      </trkpt>
      <trkpt lat="44.23826" lon="6.2249">
        <ele>1730</ele>
        <time>2021-11-12T13:01:15+01:00</time>
      </trkpt>
      <trkpt lat="44.23828" lon="6.22488">
        <ele>1730</ele>
        <time>2021-11-12T13:01:50+01:00</time>
      </trkpt>
      <trkpt lat="44.23828" lon="6.22488">
        <ele>1731</ele>
        <time>2021-11-12T13:02:17+01:00</time>
      </trkpt>
      <trkpt lat="44.23828" lon="6.22488">
        <ele>1731</ele>
        <time>2021-11-12T13:02:34+01:00</time>
      </trkpt>
      <trkpt lat="44.23826" lon="6.22489">
        <ele>1730</ele>
        <time>2021-11-12T13:02:47+01:00</time>
      </trkpt>
      <trkpt lat="44.23825" lon="6.22493">
        <ele>1730</ele>
        <time>2021-11-12T13:03:14+01:00</time>
      </trkpt>
      <trkpt lat="44.23825" lon="6.22493">
        <ele>1730</ele>
        <time>2021-11-12T13:03:17+01:00</time>
      </trkpt>
      <trkpt lat="44.23825" lon="6.22494">
        <ele>1729</ele>
        <time>2021-11-12T13:03:36+01:00</time>
      </trkpt>
      <trkpt lat="44.23825" lon="6.22496">
        <ele>1729</ele>
        <time>2021-11-12T13:03:53+01:00</time>
      </trkpt>
      <trkpt lat="44.23825" lon="6.22496">
        <ele>1729</ele>
        <time>2021-11-12T13:04:07+01:00</time>
      </trkpt>
      <trkpt lat="44.23826" lon="6.22496">
        <ele>1729</ele>
        <time>2021-11-12T13:04:13+01:00</time>
      </trkpt>
      <trkpt lat="44.23826" lon="6.22496">
        <ele>1730</ele>
        <time>2021-11-12T13:04:15+01:00</time>
      </trkpt>
      <trkpt lat="44.23824" lon="6.22494">
        <ele>1729</ele>
        <time>2021-11-12T13:04:45+01:00</time>
      </trkpt>
      <trkpt lat="44.23823" lon="6.22494">
        <ele>1729</ele>
        <time>2021-11-12T13:05:03+01:00</time>
      </trkpt>
      <trkpt lat="44.23824" lon="6.22496">
        <ele>1729</ele>
        <time>2021-11-12T13:05:25+01:00</time>
      </trkpt>
      <trkpt lat="44.23823" lon="6.22494">
        <ele>1729</ele>
        <time>2021-11-12T13:05:51+01:00</time>
      </trkpt>
      <trkpt lat="44.23823" lon="6.22493">
        <ele>1729</ele>
        <time>2021-11-12T13:05:52+01:00</time>
      </trkpt>
      <trkpt lat="44.23823" lon="6.2249">
        <ele>1729</ele>
        <time>2021-11-12T13:05:55+01:00</time>
      </trkpt>
      <trkpt lat="44.23821" lon="6.2249">
        <ele>1729</ele>
        <time>2021-11-12T13:05:58+01:00</time>
      </trkpt>
      <trkpt lat="44.2382" lon="6.22491">
        <ele>1729</ele>
        <time>2021-11-12T13:05:59+01:00</time>
      </trkpt>
      <trkpt lat="44.23815" lon="6.22492">
        <ele>1728</ele>
        <time>2021-11-12T13:06:13+01:00</time>
      </trkpt>
      <trkpt lat="44.23805" lon="6.22499">
        <ele>1727</ele>
        <time>2021-11-12T13:06:28+01:00</time>
      </trkpt>
      <trkpt lat="44.23802" lon="6.22504">
        <ele>1725</ele>
        <time>2021-11-12T13:06:35+01:00</time>
      </trkpt>
      <trkpt lat="44.238" lon="6.22507">
        <ele>1724</ele>
        <time>2021-11-12T13:06:39+01:00</time>
      </trkpt>
      <trkpt lat="44.23795" lon="6.22514">
        <ele>1722</ele>
        <time>2021-11-12T13:06:54+01:00</time>
      </trkpt>
      <trkpt lat="44.23791" lon="6.22516">
        <ele>1721</ele>
        <time>2021-11-12T13:07:01+01:00</time>
      </trkpt>
      <trkpt lat="44.23787" lon="6.22504">
        <ele>1718</ele>
        <time>2021-11-12T13:07:16+01:00</time>
      </trkpt>
      <trkpt lat="44.23784" lon="6.22492">
        <ele>1716</ele>
        <time>2021-11-12T13:07:31+01:00</time>
      </trkpt>
      <trkpt lat="44.23783" lon="6.22487">
        <ele>1715</ele>
        <time>2021-11-12T13:07:35+01:00</time>
      </trkpt>
      <trkpt lat="44.23782" lon="6.22484">
        <ele>1714</ele>
        <time>2021-11-12T13:07:39+01:00</time>
      </trkpt>
      <trkpt lat="44.2378" lon="6.22476">
        <ele>1712</ele>
        <time>2021-11-12T13:07:52+01:00</time>
      </trkpt>
      <trkpt lat="44.23775" lon="6.22464">
        <ele>1709</ele>
        <time>2021-11-12T13:08:04+01:00</time>
      </trkpt>
      <trkpt lat="44.2377" lon="6.22452">
        <ele>1705</ele>
        <time>2021-11-12T13:08:16+01:00</time>
      </trkpt>
      <trkpt lat="44.23765" lon="6.22437">
        <ele>1702</ele>
        <time>2021-11-12T13:08:32+01:00</time>
      </trkpt>
      <trkpt lat="44.2376" lon="6.22422">
        <ele>1699</ele>
        <time>2021-11-12T13:08:47+01:00</time>
      </trkpt>
      <trkpt lat="44.23754" lon="6.2241">
        <ele>1696</ele>
        <time>2021-11-12T13:09:03+01:00</time>
      </trkpt>
      <trkpt lat="44.23749" lon="6.22395">
        <ele>1693</ele>
        <time>2021-11-12T13:09:18+01:00</time>
      </trkpt>
      <trkpt lat="44.23743" lon="6.22386">
        <ele>1690</ele>
        <time>2021-11-12T13:09:30+01:00</time>
      </trkpt>
      <trkpt lat="44.23737" lon="6.22375">
        <ele>1686</ele>
        <time>2021-11-12T13:09:44+01:00</time>
      </trkpt>
      <trkpt lat="44.23729" lon="6.22359">
        <ele>1682</ele>
        <time>2021-11-12T13:10:00+01:00</time>
      </trkpt>
      <trkpt lat="44.23726" lon="6.2235">
        <ele>1681</ele>
        <time>2021-11-12T13:10:18+01:00</time>
      </trkpt>
      <trkpt lat="44.23722" lon="6.22344">
        <ele>1679</ele>
        <time>2021-11-12T13:10:38+01:00</time>
      </trkpt>
      <trkpt lat="44.23717" lon="6.22337">
        <ele>1676</ele>
        <time>2021-11-12T13:10:53+01:00</time>
      </trkpt>
      <trkpt lat="44.23709" lon="6.22323">
        <ele>1673</ele>
        <time>2021-11-12T13:11:09+01:00</time>
      </trkpt>
      <trkpt lat="44.237" lon="6.22308">
        <ele>1669</ele>
        <time>2021-11-12T13:11:25+01:00</time>
      </trkpt>
      <trkpt lat="44.23695" lon="6.22296">
        <ele>1668</ele>
        <time>2021-11-12T13:11:41+01:00</time>
      </trkpt>
      <trkpt lat="44.23689" lon="6.22281">
        <ele>1666</ele>
        <time>2021-11-12T13:11:56+01:00</time>
      </trkpt>
      <trkpt lat="44.23681" lon="6.22255">
        <ele>1666</ele>
        <time>2021-11-12T13:12:15+01:00</time>
      </trkpt>
      <trkpt lat="44.2367" lon="6.22225">
        <ele>1662</ele>
        <time>2021-11-12T13:12:38+01:00</time>
      </trkpt>
      <trkpt lat="44.23663" lon="6.22209">
        <ele>1661</ele>
        <time>2021-11-12T13:12:52+01:00</time>
      </trkpt>
      <trkpt lat="44.23659" lon="6.22197">
        <ele>1659</ele>
        <time>2021-11-12T13:13:06+01:00</time>
      </trkpt>
      <trkpt lat="44.23654" lon="6.22178">
        <ele>1659</ele>
        <time>2021-11-12T13:13:21+01:00</time>
      </trkpt>
      <trkpt lat="44.23649" lon="6.22161">
        <ele>1658</ele>
        <time>2021-11-12T13:13:37+01:00</time>
      </trkpt>
      <trkpt lat="44.23644" lon="6.22138">
        <ele>1658</ele>
        <time>2021-11-12T13:13:53+01:00</time>
      </trkpt>
      <trkpt lat="44.23636" lon="6.22114">
        <ele>1656</ele>
        <time>2021-11-12T13:14:11+01:00</time>
      </trkpt>
      <trkpt lat="44.23621" lon="6.22092">
        <ele>1650</ele>
        <time>2021-11-12T13:14:30+01:00</time>
      </trkpt>
      <trkpt lat="44.23606" lon="6.22065">
        <ele>1646</ele>
        <time>2021-11-12T13:14:50+01:00</time>
      </trkpt>
      <trkpt lat="44.23599" lon="6.22041">
        <ele>1647</ele>
        <time>2021-11-12T13:15:07+01:00</time>
      </trkpt>
      <trkpt lat="44.23591" lon="6.2201">
        <ele>1646</ele>
        <time>2021-11-12T13:15:28+01:00</time>
      </trkpt>
      <trkpt lat="44.2359" lon="6.21983">
        <ele>1645</ele>
        <time>2021-11-12T13:15:46+01:00</time>
      </trkpt>
      <trkpt lat="44.23592" lon="6.21973">
        <ele>1645</ele>
        <time>2021-11-12T13:15:58+01:00</time>
      </trkpt>
      <trkpt lat="44.23594" lon="6.21961">
        <ele>1643</ele>
        <time>2021-11-12T13:16:13+01:00</time>
      </trkpt>
      <trkpt lat="44.23605" lon="6.21933">
        <ele>1644</ele>
        <time>2021-11-12T13:16:34+01:00</time>
      </trkpt>
      <trkpt lat="44.23608" lon="6.21926">
        <ele>1644</ele>
        <time>2021-11-12T13:16:40+01:00</time>
      </trkpt>
      <trkpt lat="44.23595" lon="6.21899">
        <ele>1638</ele>
        <time>2021-11-12T13:17:00+01:00</time>
      </trkpt>
      <trkpt lat="44.23585" lon="6.21879">
        <ele>1634</ele>
        <time>2021-11-12T13:17:17+01:00</time>
      </trkpt>
      <trkpt lat="44.23582" lon="6.21864">
        <ele>1634</ele>
        <time>2021-11-12T13:17:29+01:00</time>
      </trkpt>
      <trkpt lat="44.23579" lon="6.21851">
        <ele>1633</ele>
        <time>2021-11-12T13:17:40+01:00</time>
      </trkpt>
      <trkpt lat="44.2358" lon="6.21828">
        <ele>1633</ele>
        <time>2021-11-12T13:17:56+01:00</time>
      </trkpt>
      <trkpt lat="44.23576" lon="6.21815">
        <ele>1630</ele>
        <time>2021-11-12T13:18:09+01:00</time>
      </trkpt>
      <trkpt lat="44.23577" lon="6.21804">
        <ele>1629</ele>
        <time>2021-11-12T13:18:17+01:00</time>
      </trkpt>
      <trkpt lat="44.23579" lon="6.21779">
        <ele>1627</ele>
        <time>2021-11-12T13:18:36+01:00</time>
      </trkpt>
      <trkpt lat="44.23572" lon="6.21765">
        <ele>1622</ele>
        <time>2021-11-12T13:18:50+01:00</time>
      </trkpt>
      <trkpt lat="44.23568" lon="6.2175">
        <ele>1619</ele>
        <time>2021-11-12T13:19:04+01:00</time>
      </trkpt>
      <trkpt lat="44.23564" lon="6.2173">
        <ele>1616</ele>
        <time>2021-11-12T13:19:20+01:00</time>
      </trkpt>
      <trkpt lat="44.23561" lon="6.21714">
        <ele>1613</ele>
        <time>2021-11-12T13:19:33+01:00</time>
      </trkpt>
      <trkpt lat="44.23556" lon="6.21697">
        <ele>1610</ele>
        <time>2021-11-12T13:19:49+01:00</time>
      </trkpt>
      <trkpt lat="44.23553" lon="6.21676">
        <ele>1608</ele>
        <time>2021-11-12T13:20:05+01:00</time>
      </trkpt>
      <trkpt lat="44.23548" lon="6.21653">
        <ele>1605</ele>
        <time>2021-11-12T13:20:23+01:00</time>
      </trkpt>
      <trkpt lat="44.23542" lon="6.21635">
        <ele>1601</ele>
        <time>2021-11-12T13:20:39+01:00</time>
      </trkpt>
      <trkpt lat="44.23541" lon="6.21617">
        <ele>1599</ele>
        <time>2021-11-12T13:20:56+01:00</time>
      </trkpt>
      <trkpt lat="44.23541" lon="6.21598">
        <ele>1599</ele>
        <time>2021-11-12T13:21:14+01:00</time>
      </trkpt>
      <trkpt lat="44.23539" lon="6.21583">
        <ele>1598</ele>
        <time>2021-11-12T13:21:35+01:00</time>
      </trkpt>
      <trkpt lat="44.23532" lon="6.21571">
        <ele>1595</ele>
        <time>2021-11-12T13:21:50+01:00</time>
      </trkpt>
      <trkpt lat="44.23527" lon="6.2156">
        <ele>1592</ele>
        <time>2021-11-12T13:22:08+01:00</time>
      </trkpt>
      <trkpt lat="44.23519" lon="6.21534">
        <ele>1586</ele>
        <time>2021-11-12T13:22:27+01:00</time>
      </trkpt>
      <trkpt lat="44.23527" lon="6.2152">
        <ele>1588</ele>
        <time>2021-11-12T13:22:44+01:00</time>
      </trkpt>
      <trkpt lat="44.23524" lon="6.21504">
        <ele>1587</ele>
        <time>2021-11-12T13:23:01+01:00</time>
      </trkpt>
      <trkpt lat="44.23517" lon="6.21488">
        <ele>1585</ele>
        <time>2021-11-12T13:23:19+01:00</time>
      </trkpt>
      <trkpt lat="44.23514" lon="6.2147">
        <ele>1585</ele>
        <time>2021-11-12T13:23:36+01:00</time>
      </trkpt>
      <trkpt lat="44.23514" lon="6.21467">
        <ele>1586</ele>
        <time>2021-11-12T13:23:39+01:00</time>
      </trkpt>
      <trkpt lat="44.23512" lon="6.21464">
        <ele>1585</ele>
        <time>2021-11-12T13:23:42+01:00</time>
      </trkpt>
      <trkpt lat="44.23505" lon="6.21443">
        <ele>1582</ele>
        <time>2021-11-12T13:24:02+01:00</time>
      </trkpt>
      <trkpt lat="44.23505" lon="6.21428">
        <ele>1581</ele>
        <time>2021-11-12T13:24:18+01:00</time>
      </trkpt>
      <trkpt lat="44.23498" lon="6.21414">
        <ele>1578</ele>
        <time>2021-11-12T13:24:35+01:00</time>
      </trkpt>
      <trkpt lat="44.23492" lon="6.21398">
        <ele>1574</ele>
        <time>2021-11-12T13:24:50+01:00</time>
      </trkpt>
      <trkpt lat="44.2349" lon="6.21385">
        <ele>1572</ele>
        <time>2021-11-12T13:25:03+01:00</time>
      </trkpt>
      <trkpt lat="44.23492" lon="6.21367">
        <ele>1571</ele>
        <time>2021-11-12T13:25:22+01:00</time>
      </trkpt>
      <trkpt lat="44.23495" lon="6.2136">
        <ele>1572</ele>
        <time>2021-11-12T13:25:29+01:00</time>
      </trkpt>
      <trkpt lat="44.23504" lon="6.21335">
        <ele>1571</ele>
        <time>2021-11-12T13:25:49+01:00</time>
      </trkpt>
      <trkpt lat="44.23508" lon="6.21315">
        <ele>1568</ele>
        <time>2021-11-12T13:26:05+01:00</time>
      </trkpt>
      <trkpt lat="44.2351" lon="6.21302">
        <ele>1567</ele>
        <time>2021-11-12T13:26:14+01:00</time>
      </trkpt>
      <trkpt lat="44.23514" lon="6.21288">
        <ele>1566</ele>
        <time>2021-11-12T13:26:25+01:00</time>
      </trkpt>
      <trkpt lat="44.23521" lon="6.2127">
        <ele>1567</ele>
        <time>2021-11-12T13:26:43+01:00</time>
      </trkpt>
      <trkpt lat="44.23529" lon="6.21257">
        <ele>1570</ele>
        <time>2021-11-12T13:26:58+01:00</time>
      </trkpt>
      <trkpt lat="44.23533" lon="6.21238">
        <ele>1571</ele>
        <time>2021-11-12T13:27:16+01:00</time>
      </trkpt>
      <trkpt lat="44.23531" lon="6.21232">
        <ele>1569</ele>
        <time>2021-11-12T13:27:21+01:00</time>
      </trkpt>
      <trkpt lat="44.23531" lon="6.21208">
        <ele>1569</ele>
        <time>2021-11-12T13:27:40+01:00</time>
      </trkpt>
      <trkpt lat="44.2353" lon="6.21195">
        <ele>1569</ele>
        <time>2021-11-12T13:27:50+01:00</time>
      </trkpt>
      <trkpt lat="44.23528" lon="6.21181">
        <ele>1567</ele>
        <time>2021-11-12T13:28:08+01:00</time>
      </trkpt>
      <trkpt lat="44.23526" lon="6.21168">
        <ele>1565</ele>
        <time>2021-11-12T13:28:26+01:00</time>
      </trkpt>
      <trkpt lat="44.23524" lon="6.21148">
        <ele>1563</ele>
        <time>2021-11-12T13:28:44+01:00</time>
      </trkpt>
      <trkpt lat="44.23525" lon="6.21136">
        <ele>1564</ele>
        <time>2021-11-12T13:28:53+01:00</time>
      </trkpt>
      <trkpt lat="44.23526" lon="6.21121">
        <ele>1565</ele>
        <time>2021-11-12T13:29:08+01:00</time>
      </trkpt>
      <trkpt lat="44.23522" lon="6.21111">
        <ele>1563</ele>
        <time>2021-11-12T13:29:17+01:00</time>
      </trkpt>
      <trkpt lat="44.23514" lon="6.2109">
        <ele>1557</ele>
        <time>2021-11-12T13:29:36+01:00</time>
      </trkpt>
      <trkpt lat="44.23506" lon="6.21072">
        <ele>1552</ele>
        <time>2021-11-12T13:29:56+01:00</time>
      </trkpt>
      <trkpt lat="44.23507" lon="6.21052">
        <ele>1552</ele>
        <time>2021-11-12T13:30:13+01:00</time>
      </trkpt>
      <trkpt lat="44.23512" lon="6.21042">
        <ele>1551</ele>
        <time>2021-11-12T13:30:22+01:00</time>
      </trkpt>
      <trkpt lat="44.2352" lon="6.21033">
        <ele>1552</ele>
        <time>2021-11-12T13:30:35+01:00</time>
      </trkpt>
      <trkpt lat="44.23529" lon="6.21018">
        <ele>1551</ele>
        <time>2021-11-12T13:30:51+01:00</time>
      </trkpt>
      <trkpt lat="44.23538" lon="6.21006">
        <ele>1550</ele>
        <time>2021-11-12T13:31:10+01:00</time>
      </trkpt>
      <trkpt lat="44.23546" lon="6.20989">
        <ele>1548</ele>
        <time>2021-11-12T13:31:25+01:00</time>
      </trkpt>
      <trkpt lat="44.23555" lon="6.20965">
        <ele>1547</ele>
        <time>2021-11-12T13:31:47+01:00</time>
      </trkpt>
      <trkpt lat="44.2356" lon="6.20948">
        <ele>1546</ele>
        <time>2021-11-12T13:32:06+01:00</time>
      </trkpt>
      <trkpt lat="44.23566" lon="6.20934">
        <ele>1545</ele>
        <time>2021-11-12T13:32:23+01:00</time>
      </trkpt>
      <trkpt lat="44.23566" lon="6.20911">
        <ele>1542</ele>
        <time>2021-11-12T13:32:42+01:00</time>
      </trkpt>
      <trkpt lat="44.2357" lon="6.20905">
        <ele>1541</ele>
        <time>2021-11-12T13:32:55+01:00</time>
      </trkpt>
      <trkpt lat="44.23577" lon="6.20905">
        <ele>1541</ele>
        <time>2021-11-12T13:33:08+01:00</time>
      </trkpt>
      <trkpt lat="44.23587" lon="6.20908">
        <ele>1540</ele>
        <time>2021-11-12T13:33:24+01:00</time>
      </trkpt>
      <trkpt lat="44.236" lon="6.209">
        <ele>1534</ele>
        <time>2021-11-12T13:33:42+01:00</time>
      </trkpt>
      <trkpt lat="44.23605" lon="6.20881">
        <ele>1529</ele>
        <time>2021-11-12T13:33:58+01:00</time>
      </trkpt>
      <trkpt lat="44.23604" lon="6.20858">
        <ele>1527</ele>
        <time>2021-11-12T13:34:15+01:00</time>
      </trkpt>
      <trkpt lat="44.236" lon="6.20851">
        <ele>1527</ele>
        <time>2021-11-12T13:34:21+01:00</time>
      </trkpt>
      <trkpt lat="44.23592" lon="6.20826">
        <ele>1526</ele>
        <time>2021-11-12T13:34:39+01:00</time>
      </trkpt>
      <trkpt lat="44.23582" lon="6.20807">
        <ele>1523</ele>
        <time>2021-11-12T13:34:58+01:00</time>
      </trkpt>
      <trkpt lat="44.2357" lon="6.20797">
        <ele>1522</ele>
        <time>2021-11-12T13:35:15+01:00</time>
      </trkpt>
      <trkpt lat="44.23562" lon="6.20783">
        <ele>1519</ele>
        <time>2021-11-12T13:35:34+01:00</time>
      </trkpt>
      <trkpt lat="44.23555" lon="6.20775">
        <ele>1516</ele>
        <time>2021-11-12T13:35:49+01:00</time>
      </trkpt>
      <trkpt lat="44.23539" lon="6.20772">
        <ele>1515</ele>
        <time>2021-11-12T13:36:07+01:00</time>
      </trkpt>
      <trkpt lat="44.2352" lon="6.20767">
        <ele>1511</ele>
        <time>2021-11-12T13:36:27+01:00</time>
      </trkpt>
      <trkpt lat="44.23509" lon="6.20759">
        <ele>1506</ele>
        <time>2021-11-12T13:36:42+01:00</time>
      </trkpt>
      <trkpt lat="44.23496" lon="6.20758">
        <ele>1502</ele>
        <time>2021-11-12T13:36:56+01:00</time>
      </trkpt>
      <trkpt lat="44.23494" lon="6.20757">
        <ele>1501</ele>
        <time>2021-11-12T13:36:59+01:00</time>
      </trkpt>
      <trkpt lat="44.23477" lon="6.20758">
        <ele>1495</ele>
        <time>2021-11-12T13:37:18+01:00</time>
      </trkpt>
      <trkpt lat="44.23469" lon="6.20749">
        <ele>1493</ele>
        <time>2021-11-12T13:37:32+01:00</time>
      </trkpt>
      <trkpt lat="44.2346" lon="6.20746">
        <ele>1489</ele>
        <time>2021-11-12T13:37:46+01:00</time>
      </trkpt>
      <trkpt lat="44.2346" lon="6.20746">
        <ele>1489</ele>
        <time>2021-11-12T13:37:47+01:00</time>
      </trkpt>
      <trkpt lat="44.23449" lon="6.2074">
        <ele>1485</ele>
        <time>2021-11-12T13:38:02+01:00</time>
      </trkpt>
      <trkpt lat="44.23436" lon="6.20733">
        <ele>1482</ele>
        <time>2021-11-12T13:38:20+01:00</time>
      </trkpt>
      <trkpt lat="44.23428" lon="6.20724">
        <ele>1480</ele>
        <time>2021-11-12T13:38:37+01:00</time>
      </trkpt>
      <trkpt lat="44.23418" lon="6.20714">
        <ele>1477</ele>
        <time>2021-11-12T13:38:54+01:00</time>
      </trkpt>
      <trkpt lat="44.23407" lon="6.20704">
        <ele>1474</ele>
        <time>2021-11-12T13:39:07+01:00</time>
      </trkpt>
      <trkpt lat="44.23394" lon="6.20692">
        <ele>1472</ele>
        <time>2021-11-12T13:39:27+01:00</time>
      </trkpt>
      <trkpt lat="44.23383" lon="6.20679">
        <ele>1469</ele>
        <time>2021-11-12T13:39:43+01:00</time>
      </trkpt>
      <trkpt lat="44.23369" lon="6.20661">
        <ele>1468</ele>
        <time>2021-11-12T13:40:02+01:00</time>
      </trkpt>
      <trkpt lat="44.2335" lon="6.2064">
        <ele>1466</ele>
        <time>2021-11-12T13:40:20+01:00</time>
      </trkpt>
      <trkpt lat="44.23336" lon="6.20622">
        <ele>1463</ele>
        <time>2021-11-12T13:40:38+01:00</time>
      </trkpt>
      <trkpt lat="44.23326" lon="6.20611">
        <ele>1461</ele>
        <time>2021-11-12T13:40:51+01:00</time>
      </trkpt>
      <trkpt lat="44.23311" lon="6.20601">
        <ele>1460</ele>
        <time>2021-11-12T13:41:08+01:00</time>
      </trkpt>
      <trkpt lat="44.2329" lon="6.20593">
        <ele>1459</ele>
        <time>2021-11-12T13:41:29+01:00</time>
      </trkpt>
      <trkpt lat="44.23272" lon="6.20588">
        <ele>1458</ele>
        <time>2021-11-12T13:41:49+01:00</time>
      </trkpt>
      <trkpt lat="44.23265" lon="6.20583">
        <ele>1458</ele>
        <time>2021-11-12T13:41:56+01:00</time>
      </trkpt>
      <trkpt lat="44.23248" lon="6.20571">
        <ele>1454</ele>
        <time>2021-11-12T13:42:15+01:00</time>
      </trkpt>
      <trkpt lat="44.2323" lon="6.20561">
        <ele>1451</ele>
        <time>2021-11-12T13:42:35+01:00</time>
      </trkpt>
      <trkpt lat="44.23227" lon="6.20558">
        <ele>1451</ele>
        <time>2021-11-12T13:42:40+01:00</time>
      </trkpt>
      <trkpt lat="44.23216" lon="6.20543">
        <ele>1450</ele>
        <time>2021-11-12T13:42:56+01:00</time>
      </trkpt>
      <trkpt lat="44.23217" lon="6.2054">
        <ele>1449</ele>
        <time>2021-11-12T13:43:10+01:00</time>
      </trkpt>
      <trkpt lat="44.23214" lon="6.20541">
        <ele>1449</ele>
        <time>2021-11-12T13:43:25+01:00</time>
      </trkpt>
      <trkpt lat="44.23214" lon="6.2054">
        <ele>1449</ele>
        <time>2021-11-12T13:43:27+01:00</time>
      </trkpt>
      <trkpt lat="44.23214" lon="6.20539">
        <ele>1449</ele>
        <time>2021-11-12T13:43:36+01:00</time>
      </trkpt>
      <trkpt lat="44.23217" lon="6.20538">
        <ele>1449</ele>
        <time>2021-11-12T13:48:33+01:00</time>
      </trkpt>
      <trkpt lat="44.23216" lon="6.20539">
        <ele>1449</ele>
        <time>2021-11-12T13:48:34+01:00</time>
      </trkpt>
      <trkpt lat="44.23215" lon="6.20537">
        <ele>1449</ele>
        <time>2021-11-12T13:48:56+01:00</time>
      </trkpt>
      <trkpt lat="44.23215" lon="6.20538">
        <ele>1449</ele>
        <time>2021-11-12T13:49:12+01:00</time>
      </trkpt>
      <trkpt lat="44.23215" lon="6.2054">
        <ele>1449</ele>
        <time>2021-11-12T13:49:38+01:00</time>
      </trkpt>
      <trkpt lat="44.23213" lon="6.2054">
        <ele>1449</ele>
        <time>2021-11-12T13:49:53+01:00</time>
      </trkpt>
      <trkpt lat="44.23212" lon="6.20539">
        <ele>1449</ele>
        <time>2021-11-12T13:50:04+01:00</time>
      </trkpt>
      <trkpt lat="44.23213" lon="6.20538">
        <ele>1449</ele>
        <time>2021-11-12T13:50:28+01:00</time>
      </trkpt>
      <trkpt lat="44.23216" lon="6.20538">
        <ele>1449</ele>
        <time>2021-11-12T13:50:47+01:00</time>
      </trkpt>
      <trkpt lat="44.23215" lon="6.20538">
        <ele>1449</ele>
        <time>2021-11-12T13:51:07+01:00</time>
      </trkpt>
      <trkpt lat="44.23212" lon="6.2054">
        <ele>1449</ele>
        <time>2021-11-12T13:51:19+01:00</time>
      </trkpt>
      <trkpt lat="44.23211" lon="6.20544">
        <ele>1450</ele>
        <time>2021-11-12T13:51:38+01:00</time>
      </trkpt>
      <trkpt lat="44.23209" lon="6.20548">
        <ele>1450</ele>
        <time>2021-11-12T13:51:53+01:00</time>
      </trkpt>
      <trkpt lat="44.232" lon="6.20564">
        <ele>1449</ele>
        <time>2021-11-12T13:52:09+01:00</time>
      </trkpt>
      <trkpt lat="44.23195" lon="6.20571">
        <ele>1449</ele>
        <time>2021-11-12T13:52:17+01:00</time>
      </trkpt>
      <trkpt lat="44.23183" lon="6.20594">
        <ele>1447</ele>
        <time>2021-11-12T13:52:36+01:00</time>
      </trkpt>
      <trkpt lat="44.23174" lon="6.20614">
        <ele>1444</ele>
        <time>2021-11-12T13:52:54+01:00</time>
      </trkpt>
      <trkpt lat="44.23166" lon="6.20632">
        <ele>1442</ele>
        <time>2021-11-12T13:53:09+01:00</time>
      </trkpt>
      <trkpt lat="44.2316" lon="6.20661">
        <ele>1439</ele>
        <time>2021-11-12T13:53:29+01:00</time>
      </trkpt>
      <trkpt lat="44.23157" lon="6.20683">
        <ele>1437</ele>
        <time>2021-11-12T13:53:45+01:00</time>
      </trkpt>
      <trkpt lat="44.23151" lon="6.20703">
        <ele>1435</ele>
        <time>2021-11-12T13:54:00+01:00</time>
      </trkpt>
      <trkpt lat="44.23145" lon="6.20714">
        <ele>1434</ele>
        <time>2021-11-12T13:54:13+01:00</time>
      </trkpt>
      <trkpt lat="44.23136" lon="6.20729">
        <ele>1432</ele>
        <time>2021-11-12T13:54:26+01:00</time>
      </trkpt>
      <trkpt lat="44.23126" lon="6.20741">
        <ele>1430</ele>
        <time>2021-11-12T13:54:41+01:00</time>
      </trkpt>
      <trkpt lat="44.23124" lon="6.20749">
        <ele>1430</ele>
        <time>2021-11-12T13:54:56+01:00</time>
      </trkpt>
      <trkpt lat="44.23123" lon="6.2076">
        <ele>1428</ele>
        <time>2021-11-12T13:55:10+01:00</time>
      </trkpt>
      <trkpt lat="44.23124" lon="6.20772">
        <ele>1425</ele>
        <time>2021-11-12T13:55:23+01:00</time>
      </trkpt>
      <trkpt lat="44.23124" lon="6.20789">
        <ele>1423</ele>
        <time>2021-11-12T13:55:37+01:00</time>
      </trkpt>
      <trkpt lat="44.23123" lon="6.2081">
        <ele>1419</ele>
        <time>2021-11-12T13:55:51+01:00</time>
      </trkpt>
      <trkpt lat="44.23117" lon="6.2082">
        <ele>1417</ele>
        <time>2021-11-12T13:56:04+01:00</time>
      </trkpt>
      <trkpt lat="44.23112" lon="6.20829">
        <ele>1414</ele>
        <time>2021-11-12T13:56:16+01:00</time>
      </trkpt>
      <trkpt lat="44.23099" lon="6.20841">
        <ele>1408</ele>
        <time>2021-11-12T13:56:30+01:00</time>
      </trkpt>
      <trkpt lat="44.23098" lon="6.20851">
        <ele>1406</ele>
        <time>2021-11-12T13:56:43+01:00</time>
      </trkpt>
      <trkpt lat="44.23087" lon="6.20853">
        <ele>1402</ele>
        <time>2021-11-12T13:57:00+01:00</time>
      </trkpt>
      <trkpt lat="44.23076" lon="6.20846">
        <ele>1400</ele>
        <time>2021-11-12T13:57:14+01:00</time>
      </trkpt>
      <trkpt lat="44.23071" lon="6.20833">
        <ele>1401</ele>
        <time>2021-11-12T13:57:30+01:00</time>
      </trkpt>
      <trkpt lat="44.23064" lon="6.2083">
        <ele>1402</ele>
        <time>2021-11-12T13:57:43+01:00</time>
      </trkpt>
      <trkpt lat="44.23054" lon="6.20839">
        <ele>1396</ele>
        <time>2021-11-12T13:58:00+01:00</time>
      </trkpt>
      <trkpt lat="44.23045" lon="6.20852">
        <ele>1393</ele>
        <time>2021-11-12T13:58:16+01:00</time>
      </trkpt>
      <trkpt lat="44.23033" lon="6.2086">
        <ele>1390</ele>
        <time>2021-11-12T13:58:33+01:00</time>
      </trkpt>
      <trkpt lat="44.2302" lon="6.20866">
        <ele>1388</ele>
        <time>2021-11-12T13:58:49+01:00</time>
      </trkpt>
      <trkpt lat="44.23015" lon="6.20867">
        <ele>1388</ele>
        <time>2021-11-12T13:58:55+01:00</time>
      </trkpt>
      <trkpt lat="44.22998" lon="6.20879">
        <ele>1386</ele>
        <time>2021-11-12T13:59:12+01:00</time>
      </trkpt>
      <trkpt lat="44.22991" lon="6.20885">
        <ele>1384</ele>
        <time>2021-11-12T13:59:21+01:00</time>
      </trkpt>
      <trkpt lat="44.22979" lon="6.20902">
        <ele>1379</ele>
        <time>2021-11-12T13:59:37+01:00</time>
      </trkpt>
      <trkpt lat="44.22959" lon="6.20913">
        <ele>1377</ele>
        <time>2021-11-12T13:59:55+01:00</time>
      </trkpt>
      <trkpt lat="44.22952" lon="6.20921">
        <ele>1375</ele>
        <time>2021-11-12T14:00:08+01:00</time>
      </trkpt>
      <trkpt lat="44.22942" lon="6.20925">
        <ele>1374</ele>
        <time>2021-11-12T14:00:25+01:00</time>
      </trkpt>
      <trkpt lat="44.2293" lon="6.20941">
        <ele>1370</ele>
        <time>2021-11-12T14:00:43+01:00</time>
      </trkpt>
      <trkpt lat="44.22917" lon="6.20948">
        <ele>1369</ele>
        <time>2021-11-12T14:01:02+01:00</time>
      </trkpt>
      <trkpt lat="44.22901" lon="6.20949">
        <ele>1368</ele>
        <time>2021-11-12T14:01:19+01:00</time>
      </trkpt>
      <trkpt lat="44.22887" lon="6.20952">
        <ele>1366</ele>
        <time>2021-11-12T14:01:36+01:00</time>
      </trkpt>
      <trkpt lat="44.22877" lon="6.20953">
        <ele>1364</ele>
        <time>2021-11-12T14:01:55+01:00</time>
      </trkpt>
      <trkpt lat="44.22877" lon="6.20956">
        <ele>1364</ele>
        <time>2021-11-12T14:02:26+01:00</time>
      </trkpt>
      <trkpt lat="44.2288" lon="6.20961">
        <ele>1364</ele>
        <time>2021-11-12T14:03:00+01:00</time>
      </trkpt>
      <trkpt lat="44.22877" lon="6.20957">
        <ele>1363</ele>
        <time>2021-11-12T14:03:30+01:00</time>
      </trkpt>
      <trkpt lat="44.22865" lon="6.20956">
        <ele>1361</ele>
        <time>2021-11-12T14:03:45+01:00</time>
      </trkpt>
      <trkpt lat="44.22854" lon="6.20955">
        <ele>1359</ele>
        <time>2021-11-12T14:03:59+01:00</time>
      </trkpt>
      <trkpt lat="44.22841" lon="6.20956">
        <ele>1357</ele>
        <time>2021-11-12T14:04:14+01:00</time>
      </trkpt>
      <trkpt lat="44.22827" lon="6.20949">
        <ele>1357</ele>
        <time>2021-11-12T14:04:31+01:00</time>
      </trkpt>
      <trkpt lat="44.22806" lon="6.20942">
        <ele>1356</ele>
        <time>2021-11-12T14:04:51+01:00</time>
      </trkpt>
      <trkpt lat="44.22793" lon="6.20951">
        <ele>1356</ele>
        <time>2021-11-12T14:05:07+01:00</time>
      </trkpt>
      <trkpt lat="44.22772" lon="6.20964">
        <ele>1355</ele>
        <time>2021-11-12T14:05:27+01:00</time>
      </trkpt>
      <trkpt lat="44.22749" lon="6.20981">
        <ele>1354</ele>
        <time>2021-11-12T14:05:50+01:00</time>
      </trkpt>
      <trkpt lat="44.22736" lon="6.20992">
        <ele>1352</ele>
        <time>2021-11-12T14:06:08+01:00</time>
      </trkpt>
      <trkpt lat="44.22727" lon="6.20995">
        <ele>1352</ele>
        <time>2021-11-12T14:06:23+01:00</time>
      </trkpt>
      <trkpt lat="44.22709" lon="6.21001">
        <ele>1352</ele>
        <time>2021-11-12T14:06:42+01:00</time>
      </trkpt>
      <trkpt lat="44.22702" lon="6.21015">
        <ele>1347</ele>
        <time>2021-11-12T14:06:56+01:00</time>
      </trkpt>
      <trkpt lat="44.22693" lon="6.21025">
        <ele>1343</ele>
        <time>2021-11-12T14:07:13+01:00</time>
      </trkpt>
      <trkpt lat="44.22687" lon="6.21031">
        <ele>1342</ele>
        <time>2021-11-12T14:07:29+01:00</time>
      </trkpt>
      <trkpt lat="44.22687" lon="6.21036">
        <ele>1341</ele>
        <time>2021-11-12T14:07:44+01:00</time>
      </trkpt>
      <trkpt lat="44.22694" lon="6.21043">
        <ele>1341</ele>
        <time>2021-11-12T14:08:02+01:00</time>
      </trkpt>
      <trkpt lat="44.2269" lon="6.21042">
        <ele>1341</ele>
        <time>2021-11-12T14:08:17+01:00</time>
      </trkpt>
      <trkpt lat="44.22682" lon="6.21043">
        <ele>1341</ele>
        <time>2021-11-12T14:08:31+01:00</time>
      </trkpt>
      <trkpt lat="44.22678" lon="6.21047">
        <ele>1340</ele>
        <time>2021-11-12T14:08:45+01:00</time>
      </trkpt>
      <trkpt lat="44.22677" lon="6.21053">
        <ele>1340</ele>
        <time>2021-11-12T14:08:50+01:00</time>
      </trkpt>
      <trkpt lat="44.22663" lon="6.21053">
        <ele>1340</ele>
        <time>2021-11-12T14:09:06+01:00</time>
      </trkpt>
      <trkpt lat="44.2265" lon="6.21049">
        <ele>1340</ele>
        <time>2021-11-12T14:09:23+01:00</time>
      </trkpt>
      <trkpt lat="44.2265" lon="6.21049">
        <ele>1340</ele>
        <time>2021-11-12T14:09:24+01:00</time>
      </trkpt>
      <trkpt lat="44.22645" lon="6.21044">
        <ele>1340</ele>
        <time>2021-11-12T14:09:44+01:00</time>
      </trkpt>
      <trkpt lat="44.22635" lon="6.21045">
        <ele>1340</ele>
        <time>2021-11-12T14:09:59+01:00</time>
      </trkpt>
      <trkpt lat="44.22629" lon="6.21044">
        <ele>1340</ele>
        <time>2021-11-12T14:10:18+01:00</time>
      </trkpt>
      <trkpt lat="44.2262" lon="6.21047">
        <ele>1340</ele>
        <time>2021-11-12T14:10:33+01:00</time>
      </trkpt>
      <trkpt lat="44.22609" lon="6.21049">
        <ele>1340</ele>
        <time>2021-11-12T14:10:50+01:00</time>
      </trkpt>
      <trkpt lat="44.226" lon="6.21054">
        <ele>1339</ele>
        <time>2021-11-12T14:11:06+01:00</time>
      </trkpt>
      <trkpt lat="44.22586" lon="6.2106">
        <ele>1338</ele>
        <time>2021-11-12T14:11:22+01:00</time>
      </trkpt>
      <trkpt lat="44.22575" lon="6.2107">
        <ele>1336</ele>
        <time>2021-11-12T14:11:40+01:00</time>
      </trkpt>
      <trkpt lat="44.22573" lon="6.2108">
        <ele>1334</ele>
        <time>2021-11-12T14:11:57+01:00</time>
      </trkpt>
      <trkpt lat="44.22573" lon="6.21084">
        <ele>1333</ele>
        <time>2021-11-12T14:12:08+01:00</time>
      </trkpt>
      <trkpt lat="44.22572" lon="6.21087">
        <ele>1333</ele>
        <time>2021-11-12T14:12:22+01:00</time>
      </trkpt>
      <trkpt lat="44.22564" lon="6.21091">
        <ele>1332</ele>
        <time>2021-11-12T14:12:39+01:00</time>
      </trkpt>
      <trkpt lat="44.22561" lon="6.21092">
        <ele>1331</ele>
        <time>2021-11-12T14:13:00+01:00</time>
      </trkpt>
      <trkpt lat="44.22559" lon="6.21091">
        <ele>1331</ele>
        <time>2021-11-12T14:13:18+01:00</time>
      </trkpt>
      <trkpt lat="44.22554" lon="6.21096">
        <ele>1330</ele>
        <time>2021-11-12T14:13:34+01:00</time>
      </trkpt>
      <trkpt lat="44.22547" lon="6.21109">
        <ele>1329</ele>
        <time>2021-11-12T14:13:48+01:00</time>
      </trkpt>
      <trkpt lat="44.22545" lon="6.21117">
        <ele>1329</ele>
        <time>2021-11-12T14:13:56+01:00</time>
      </trkpt>
      <trkpt lat="44.22538" lon="6.21125">
        <ele>1327</ele>
        <time>2021-11-12T14:14:04+01:00</time>
      </trkpt>
      <trkpt lat="44.22524" lon="6.21134">
        <ele>1324</ele>
        <time>2021-11-12T14:14:20+01:00</time>
      </trkpt>
      <trkpt lat="44.22514" lon="6.21148">
        <ele>1324</ele>
        <time>2021-11-12T14:14:35+01:00</time>
      </trkpt>
      <trkpt lat="44.22505" lon="6.21163">
        <ele>1324</ele>
        <time>2021-11-12T14:14:52+01:00</time>
      </trkpt>
      <trkpt lat="44.22493" lon="6.21163">
        <ele>1322</ele>
        <time>2021-11-12T14:15:08+01:00</time>
      </trkpt>
      <trkpt lat="44.22482" lon="6.2116">
        <ele>1321</ele>
        <time>2021-11-12T14:15:22+01:00</time>
      </trkpt>
      <trkpt lat="44.22475" lon="6.21156">
        <ele>1320</ele>
        <time>2021-11-12T14:15:33+01:00</time>
      </trkpt>
      <trkpt lat="44.22464" lon="6.21153">
        <ele>1318</ele>
        <time>2021-11-12T14:15:49+01:00</time>
      </trkpt>
      <trkpt lat="44.22452" lon="6.21144">
        <ele>1315</ele>
        <time>2021-11-12T14:16:06+01:00</time>
      </trkpt>
      <trkpt lat="44.2244" lon="6.21138">
        <ele>1313</ele>
        <time>2021-11-12T14:16:23+01:00</time>
      </trkpt>
      <trkpt lat="44.22431" lon="6.21132">
        <ele>1311</ele>
        <time>2021-11-12T14:16:39+01:00</time>
      </trkpt>
      <trkpt lat="44.22417" lon="6.21125">
        <ele>1309</ele>
        <time>2021-11-12T14:16:58+01:00</time>
      </trkpt>
      <trkpt lat="44.22407" lon="6.21126">
        <ele>1306</ele>
        <time>2021-11-12T14:17:16+01:00</time>
      </trkpt>
      <trkpt lat="44.22403" lon="6.21134">
        <ele>1306</ele>
        <time>2021-11-12T14:17:30+01:00</time>
      </trkpt>
      <trkpt lat="44.22398" lon="6.21144">
        <ele>1306</ele>
        <time>2021-11-12T14:17:47+01:00</time>
      </trkpt>
      <trkpt lat="44.22398" lon="6.21152">
        <ele>1306</ele>
        <time>2021-11-12T14:17:53+01:00</time>
      </trkpt>
      <trkpt lat="44.22398" lon="6.21163">
        <ele>1308</ele>
        <time>2021-11-12T14:18:07+01:00</time>
      </trkpt>
      <trkpt lat="44.22396" lon="6.21164">
        <ele>1307</ele>
        <time>2021-11-12T14:18:14+01:00</time>
      </trkpt>
      <trkpt lat="44.22382" lon="6.21161">
        <ele>1305</ele>
        <time>2021-11-12T14:18:32+01:00</time>
      </trkpt>
      <trkpt lat="44.22374" lon="6.21146">
        <ele>1301</ele>
        <time>2021-11-12T14:18:50+01:00</time>
      </trkpt>
      <trkpt lat="44.22361" lon="6.21141">
        <ele>1299</ele>
        <time>2021-11-12T14:19:06+01:00</time>
      </trkpt>
      <trkpt lat="44.22346" lon="6.21142">
        <ele>1300</ele>
        <time>2021-11-12T14:19:23+01:00</time>
      </trkpt>
      <trkpt lat="44.22337" lon="6.21141">
        <ele>1300</ele>
        <time>2021-11-12T14:19:32+01:00</time>
      </trkpt>
      <trkpt lat="44.22321" lon="6.21144">
        <ele>1300</ele>
        <time>2021-11-12T14:19:51+01:00</time>
      </trkpt>
      <trkpt lat="44.22304" lon="6.21152">
        <ele>1302</ele>
        <time>2021-11-12T14:20:13+01:00</time>
      </trkpt>
      <trkpt lat="44.2229" lon="6.21149">
        <ele>1300</ele>
        <time>2021-11-12T14:20:31+01:00</time>
      </trkpt>
      <trkpt lat="44.22287" lon="6.2115">
        <ele>1299</ele>
        <time>2021-11-12T14:20:48+01:00</time>
      </trkpt>
      <trkpt lat="44.22286" lon="6.21151">
        <ele>1300</ele>
        <time>2021-11-12T14:21:11+01:00</time>
      </trkpt>
      <trkpt lat="44.22275" lon="6.21152">
        <ele>1298</ele>
        <time>2021-11-12T14:21:38+01:00</time>
      </trkpt>
      <trkpt lat="44.22276" lon="6.21155">
        <ele>1299</ele>
        <time>2021-11-12T14:21:59+01:00</time>
      </trkpt>
      <trkpt lat="44.22274" lon="6.21155">
        <ele>1298</ele>
        <time>2021-11-12T14:22:14+01:00</time>
      </trkpt>
      <trkpt lat="44.22265" lon="6.21161">
        <ele>1297</ele>
        <time>2021-11-12T14:22:28+01:00</time>
      </trkpt>
      <trkpt lat="44.22259" lon="6.21173">
        <ele>1298</ele>
        <time>2021-11-12T14:22:45+01:00</time>
      </trkpt>
      <trkpt lat="44.2225" lon="6.21181">
        <ele>1297</ele>
        <time>2021-11-12T14:23:00+01:00</time>
      </trkpt>
      <trkpt lat="44.22238" lon="6.21176">
        <ele>1295</ele>
        <time>2021-11-12T14:23:15+01:00</time>
      </trkpt>
      <trkpt lat="44.2223" lon="6.21173">
        <ele>1293</ele>
        <time>2021-11-12T14:23:25+01:00</time>
      </trkpt>
      <trkpt lat="44.22223" lon="6.21168">
        <ele>1291</ele>
        <time>2021-11-12T14:23:38+01:00</time>
      </trkpt>
      <trkpt lat="44.22219" lon="6.21164">
        <ele>1288</ele>
        <time>2021-11-12T14:23:51+01:00</time>
      </trkpt>
      <trkpt lat="44.22212" lon="6.21159">
        <ele>1284</ele>
        <time>2021-11-12T14:24:04+01:00</time>
      </trkpt>
      <trkpt lat="44.22212" lon="6.21148">
        <ele>1280</ele>
        <time>2021-11-12T14:24:19+01:00</time>
      </trkpt>
      <trkpt lat="44.22204" lon="6.21148">
        <ele>1279</ele>
        <time>2021-11-12T14:24:35+01:00</time>
      </trkpt>
      <trkpt lat="44.22202" lon="6.21139">
        <ele>1275</ele>
        <time>2021-11-12T14:24:52+01:00</time>
      </trkpt>
      <trkpt lat="44.222" lon="6.2113">
        <ele>1272</ele>
        <time>2021-11-12T14:25:06+01:00</time>
      </trkpt>
      <trkpt lat="44.22198" lon="6.21125">
        <ele>1270</ele>
        <time>2021-11-12T14:25:21+01:00</time>
      </trkpt>
      <trkpt lat="44.22199" lon="6.21117">
        <ele>1268</ele>
        <time>2021-11-12T14:25:36+01:00</time>
      </trkpt>
      <trkpt lat="44.222" lon="6.21114">
        <ele>1267</ele>
        <time>2021-11-12T14:25:53+01:00</time>
      </trkpt>
      <trkpt lat="44.22201" lon="6.21112">
        <ele>1266</ele>
        <time>2021-11-12T14:26:08+01:00</time>
      </trkpt>
      <trkpt lat="44.22203" lon="6.21113">
        <ele>1267</ele>
        <time>2021-11-12T14:26:37+01:00</time>
      </trkpt>
      <trkpt lat="44.22199" lon="6.21116">
        <ele>1268</ele>
        <time>2021-11-12T14:26:55+01:00</time>
      </trkpt>
      <trkpt lat="44.22198" lon="6.21116">
        <ele>1268</ele>
        <time>2021-11-12T14:27:13+01:00</time>
      </trkpt>
      <trkpt lat="44.22198" lon="6.21122">
        <ele>1269</ele>
        <time>2021-11-12T14:27:30+01:00</time>
      </trkpt>
      <trkpt lat="44.22198" lon="6.21123">
        <ele>1270</ele>
        <time>2021-11-12T14:27:31+01:00</time>
      </trkpt>
      <trkpt lat="44.22194" lon="6.21125">
        <ele>1270</ele>
        <time>2021-11-12T14:27:39+01:00</time>
      </trkpt>
      <trkpt lat="44.22189" lon="6.21125">
        <ele>1269</ele>
        <time>2021-11-12T14:27:44+01:00</time>
      </trkpt>
      <trkpt lat="44.2218" lon="6.21121">
        <ele>1266</ele>
        <time>2021-11-12T14:27:59+01:00</time>
      </trkpt>
      <trkpt lat="44.22186" lon="6.21112">
        <ele>1264</ele>
        <time>2021-11-12T14:28:15+01:00</time>
      </trkpt>
      <trkpt lat="44.22179" lon="6.21107">
        <ele>1261</ele>
        <time>2021-11-12T14:28:25+01:00</time>
      </trkpt>
      <trkpt lat="44.22177" lon="6.21106">
        <ele>1260</ele>
        <time>2021-11-12T14:28:27+01:00</time>
      </trkpt>
      <trkpt lat="44.22164" lon="6.21104">
        <ele>1257</ele>
        <time>2021-11-12T14:28:41+01:00</time>
      </trkpt>
      <trkpt lat="44.22154" lon="6.21102">
        <ele>1253</ele>
        <time>2021-11-12T14:29:00+01:00</time>
      </trkpt>
      <trkpt lat="44.22154" lon="6.21103">
        <ele>1253</ele>
        <time>2021-11-12T14:29:26+01:00</time>
      </trkpt>
      <trkpt lat="44.22154" lon="6.21105">
        <ele>1254</ele>
        <time>2021-11-12T14:29:57+01:00</time>
      </trkpt>
      <trkpt lat="44.22154" lon="6.211">
        <ele>1252</ele>
        <time>2021-11-12T14:30:18+01:00</time>
      </trkpt>
      <trkpt lat="44.2215" lon="6.21103">
        <ele>1252</ele>
        <time>2021-11-12T14:30:23+01:00</time>
      </trkpt>
      <trkpt lat="44.22136" lon="6.21117">
        <ele>1250</ele>
        <time>2021-11-12T14:30:42+01:00</time>
      </trkpt>
      <trkpt lat="44.22122" lon="6.21129">
        <ele>1249</ele>
        <time>2021-11-12T14:31:00+01:00</time>
      </trkpt>
      <trkpt lat="44.2212" lon="6.21124">
        <ele>1247</ele>
        <time>2021-11-12T14:31:15+01:00</time>
      </trkpt>
      <trkpt lat="44.2213" lon="6.21102">
        <ele>1244</ele>
        <time>2021-11-12T14:31:36+01:00</time>
      </trkpt>
      <trkpt lat="44.2214" lon="6.21085">
        <ele>1244</ele>
        <time>2021-11-12T14:31:56+01:00</time>
      </trkpt>
      <trkpt lat="44.22146" lon="6.21072">
        <ele>1242</ele>
        <time>2021-11-12T14:32:12+01:00</time>
      </trkpt>
      <trkpt lat="44.22138" lon="6.21075">
        <ele>1240</ele>
        <time>2021-11-12T14:32:26+01:00</time>
      </trkpt>
      <trkpt lat="44.22128" lon="6.2108">
        <ele>1238</ele>
        <time>2021-11-12T14:32:40+01:00</time>
      </trkpt>
      <trkpt lat="44.22117" lon="6.21086">
        <ele>1234</ele>
        <time>2021-11-12T14:32:55+01:00</time>
      </trkpt>
      <trkpt lat="44.22106" lon="6.21097">
        <ele>1233</ele>
        <time>2021-11-12T14:33:12+01:00</time>
      </trkpt>
      <trkpt lat="44.22092" lon="6.21105">
        <ele>1228</ele>
        <time>2021-11-12T14:33:31+01:00</time>
      </trkpt>
      <trkpt lat="44.22085" lon="6.21108">
        <ele>1226</ele>
        <time>2021-11-12T14:33:47+01:00</time>
      </trkpt>
      <trkpt lat="44.22084" lon="6.21113">
        <ele>1227</ele>
        <time>2021-11-12T14:34:04+01:00</time>
      </trkpt>
      <trkpt lat="44.22076" lon="6.2112">
        <ele>1227</ele>
        <time>2021-11-12T14:34:20+01:00</time>
      </trkpt>
      <trkpt lat="44.22072" lon="6.21117">
        <ele>1225</ele>
        <time>2021-11-12T14:34:39+01:00</time>
      </trkpt>
      <trkpt lat="44.22064" lon="6.21122">
        <ele>1224</ele>
        <time>2021-11-12T14:34:48+01:00</time>
      </trkpt>
      <trkpt lat="44.22043" lon="6.21129">
        <ele>1220</ele>
        <time>2021-11-12T14:35:05+01:00</time>
      </trkpt>
      <trkpt lat="44.22037" lon="6.21132">
        <ele>1219</ele>
        <time>2021-11-12T14:35:21+01:00</time>
      </trkpt>
      <trkpt lat="44.22028" lon="6.21137">
        <ele>1219</ele>
        <time>2021-11-12T14:35:36+01:00</time>
      </trkpt>
      <trkpt lat="44.22019" lon="6.21135">
        <ele>1212</ele>
        <time>2021-11-12T14:35:51+01:00</time>
      </trkpt>
      <trkpt lat="44.22021" lon="6.21139">
        <ele>1215</ele>
        <time>2021-11-12T14:36:19+01:00</time>
      </trkpt>
      <trkpt lat="44.22016" lon="6.21145">
        <ele>1212</ele>
        <time>2021-11-12T14:36:36+01:00</time>
      </trkpt>
      <trkpt lat="44.22016" lon="6.21154">
        <ele>1213</ele>
        <time>2021-11-12T14:36:53+01:00</time>
      </trkpt>
      <trkpt lat="44.2202" lon="6.21154">
        <ele>1215</ele>
        <time>2021-11-12T14:37:22+01:00</time>
      </trkpt>
      <trkpt lat="44.22019" lon="6.21154">
        <ele>1215</ele>
        <time>2021-11-12T14:37:47+01:00</time>
      </trkpt>
      <trkpt lat="44.22019" lon="6.21152">
        <ele>1214</ele>
        <time>2021-11-12T14:38:11+01:00</time>
      </trkpt>
      <trkpt lat="44.22019" lon="6.21154">
        <ele>1214</ele>
        <time>2021-11-12T14:38:40+01:00</time>
      </trkpt>
      <trkpt lat="44.22017" lon="6.21157">
        <ele>1214</ele>
        <time>2021-11-12T14:39:08+01:00</time>
      </trkpt>
      <trkpt lat="44.22019" lon="6.2116">
        <ele>1215</ele>
        <time>2021-11-12T14:39:41+01:00</time>
      </trkpt>
      <trkpt lat="44.22016" lon="6.21169">
        <ele>1214</ele>
        <time>2021-11-12T14:39:57+01:00</time>
      </trkpt>
      <trkpt lat="44.22017" lon="6.21187">
        <ele>1214</ele>
        <time>2021-11-12T14:40:14+01:00</time>
      </trkpt>
      <trkpt lat="44.22017" lon="6.21199">
        <ele>1215</ele>
        <time>2021-11-12T14:40:27+01:00</time>
      </trkpt>
      <trkpt lat="44.22013" lon="6.21214">
        <ele>1213</ele>
        <time>2021-11-12T14:40:44+01:00</time>
      </trkpt>
      <trkpt lat="44.22005" lon="6.2123">
        <ele>1209</ele>
        <time>2021-11-12T14:41:00+01:00</time>
      </trkpt>
      <trkpt lat="44.21996" lon="6.21247">
        <ele>1205</ele>
        <time>2021-11-12T14:41:18+01:00</time>
      </trkpt>
      <trkpt lat="44.21986" lon="6.21261">
        <ele>1205</ele>
        <time>2021-11-12T14:41:36+01:00</time>
      </trkpt>
      <trkpt lat="44.21977" lon="6.21255">
        <ele>1203</ele>
        <time>2021-11-12T14:41:51+01:00</time>
      </trkpt>
      <trkpt lat="44.21971" lon="6.21242">
        <ele>1201</ele>
        <time>2021-11-12T14:42:08+01:00</time>
      </trkpt>
      <trkpt lat="44.21961" lon="6.21238">
        <ele>1199</ele>
        <time>2021-11-12T14:42:24+01:00</time>
      </trkpt>
      <trkpt lat="44.21949" lon="6.2125">
        <ele>1199</ele>
        <time>2021-11-12T14:42:41+01:00</time>
      </trkpt>
      <trkpt lat="44.21945" lon="6.21253">
        <ele>1199</ele>
        <time>2021-11-12T14:42:59+01:00</time>
      </trkpt>
      <trkpt lat="44.21939" lon="6.21245">
        <ele>1198</ele>
        <time>2021-11-12T14:43:14+01:00</time>
      </trkpt>
      <trkpt lat="44.21929" lon="6.21234">
        <ele>1198</ele>
        <time>2021-11-12T14:43:29+01:00</time>
      </trkpt>
      <trkpt lat="44.21917" lon="6.21218">
        <ele>1195</ele>
        <time>2021-11-12T14:43:47+01:00</time>
      </trkpt>
      <trkpt lat="44.21899" lon="6.2121">
        <ele>1192</ele>
        <time>2021-11-12T14:44:07+01:00</time>
      </trkpt>
      <trkpt lat="44.21883" lon="6.21205">
        <ele>1190</ele>
        <time>2021-11-12T14:44:26+01:00</time>
      </trkpt>
      <trkpt lat="44.21865" lon="6.21204">
        <ele>1189</ele>
        <time>2021-11-12T14:44:43+01:00</time>
      </trkpt>
      <trkpt lat="44.21851" lon="6.2121">
        <ele>1186</ele>
        <time>2021-11-12T14:45:00+01:00</time>
      </trkpt>
      <trkpt lat="44.21836" lon="6.21218">
        <ele>1184</ele>
        <time>2021-11-12T14:45:18+01:00</time>
      </trkpt>
      <trkpt lat="44.21828" lon="6.21225">
        <ele>1182</ele>
        <time>2021-11-12T14:45:33+01:00</time>
      </trkpt>
      <trkpt lat="44.21819" lon="6.21235">
        <ele>1180</ele>
        <time>2021-11-12T14:45:50+01:00</time>
      </trkpt>
      <trkpt lat="44.21811" lon="6.21243">
        <ele>1179</ele>
        <time>2021-11-12T14:46:05+01:00</time>
      </trkpt>
      <trkpt lat="44.21803" lon="6.21252">
        <ele>1177</ele>
        <time>2021-11-12T14:46:23+01:00</time>
      </trkpt>
      <trkpt lat="44.21796" lon="6.21263">
        <ele>1177</ele>
        <time>2021-11-12T14:46:40+01:00</time>
      </trkpt>
      <trkpt lat="44.21789" lon="6.21276">
        <ele>1177</ele>
        <time>2021-11-12T14:46:57+01:00</time>
      </trkpt>
      <trkpt lat="44.2178" lon="6.21282">
        <ele>1174</ele>
        <time>2021-11-12T14:47:15+01:00</time>
      </trkpt>
      <trkpt lat="44.21771" lon="6.21283">
        <ele>1170</ele>
        <time>2021-11-12T14:47:33+01:00</time>
      </trkpt>
      <trkpt lat="44.21761" lon="6.21283">
        <ele>1167</ele>
        <time>2021-11-12T14:47:51+01:00</time>
      </trkpt>
      <trkpt lat="44.21754" lon="6.21288">
        <ele>1165</ele>
        <time>2021-11-12T14:48:07+01:00</time>
      </trkpt>
      <trkpt lat="44.21745" lon="6.21292">
        <ele>1162</ele>
        <time>2021-11-12T14:48:24+01:00</time>
      </trkpt>
      <trkpt lat="44.21739" lon="6.21301">
        <ele>1161</ele>
        <time>2021-11-12T14:48:38+01:00</time>
      </trkpt>
      <trkpt lat="44.21733" lon="6.21313">
        <ele>1161</ele>
        <time>2021-11-12T14:48:52+01:00</time>
      </trkpt>
      <trkpt lat="44.21733" lon="6.2133">
        <ele>1164</ele>
        <time>2021-11-12T14:49:08+01:00</time>
      </trkpt>
      <trkpt lat="44.21729" lon="6.21341">
        <ele>1163</ele>
        <time>2021-11-12T14:49:24+01:00</time>
      </trkpt>
      <trkpt lat="44.21729" lon="6.21343">
        <ele>1163</ele>
        <time>2021-11-12T14:49:25+01:00</time>
      </trkpt>
      <trkpt lat="44.21729" lon="6.21346">
        <ele>1164</ele>
        <time>2021-11-12T14:49:26+01:00</time>
      </trkpt>
      <trkpt lat="44.21729" lon="6.21348">
        <ele>1164</ele>
        <time>2021-11-12T14:49:28+01:00</time>
      </trkpt>
      <trkpt lat="44.21727" lon="6.21366">
        <ele>1164</ele>
        <time>2021-11-12T14:49:45+01:00</time>
      </trkpt>
      <trkpt lat="44.21723" lon="6.21383">
        <ele>1162</ele>
        <time>2021-11-12T14:50:00+01:00</time>
      </trkpt>
      <trkpt lat="44.21722" lon="6.21401">
        <ele>1162</ele>
        <time>2021-11-12T14:50:15+01:00</time>
      </trkpt>
      <trkpt lat="44.21719" lon="6.2142">
        <ele>1161</ele>
        <time>2021-11-12T14:50:30+01:00</time>
      </trkpt>
      <trkpt lat="44.21718" lon="6.21443">
        <ele>1161</ele>
        <time>2021-11-12T14:50:48+01:00</time>
      </trkpt>
      <trkpt lat="44.21712" lon="6.21469">
        <ele>1160</ele>
        <time>2021-11-12T14:51:07+01:00</time>
      </trkpt>
      <trkpt lat="44.21704" lon="6.21488">
        <ele>1160</ele>
        <time>2021-11-12T14:51:23+01:00</time>
      </trkpt>
      <trkpt lat="44.21698" lon="6.21515">
        <ele>1160</ele>
        <time>2021-11-12T14:51:44+01:00</time>
      </trkpt>
      <trkpt lat="44.21694" lon="6.21537">
        <ele>1161</ele>
        <time>2021-11-12T14:52:03+01:00</time>
      </trkpt>
      <trkpt lat="44.21687" lon="6.21554">
        <ele>1160</ele>
        <time>2021-11-12T14:52:19+01:00</time>
      </trkpt>
      <trkpt lat="44.21683" lon="6.2156">
        <ele>1159</ele>
        <time>2021-11-12T14:52:26+01:00</time>
      </trkpt>
      <trkpt lat="44.21675" lon="6.21575">
        <ele>1159</ele>
        <time>2021-11-12T14:52:41+01:00</time>
      </trkpt>
      <trkpt lat="44.21662" lon="6.21585">
        <ele>1156</ele>
        <time>2021-11-12T14:52:59+01:00</time>
      </trkpt>
      <trkpt lat="44.21653" lon="6.21595">
        <ele>1154</ele>
        <time>2021-11-12T14:53:16+01:00</time>
      </trkpt>
      <trkpt lat="44.21649" lon="6.21606">
        <ele>1154</ele>
        <time>2021-11-12T14:53:32+01:00</time>
      </trkpt>
      <trkpt lat="44.21645" lon="6.21616">
        <ele>1154</ele>
        <time>2021-11-12T14:53:48+01:00</time>
      </trkpt>
      <trkpt lat="44.21636" lon="6.21629">
        <ele>1153</ele>
        <time>2021-11-12T14:54:05+01:00</time>
      </trkpt>
      <trkpt lat="44.21624" lon="6.21639">
        <ele>1150</ele>
        <time>2021-11-12T14:54:20+01:00</time>
      </trkpt>
      <trkpt lat="44.21615" lon="6.21658">
        <ele>1149</ele>
        <time>2021-11-12T14:54:39+01:00</time>
      </trkpt>
      <trkpt lat="44.21612" lon="6.21679">
        <ele>1150</ele>
        <time>2021-11-12T14:54:56+01:00</time>
      </trkpt>
      <trkpt lat="44.2161" lon="6.217">
        <ele>1149</ele>
        <time>2021-11-12T14:55:12+01:00</time>
      </trkpt>
      <trkpt lat="44.21618" lon="6.21722">
        <ele>1150</ele>
        <time>2021-11-12T14:55:29+01:00</time>
      </trkpt>
      <trkpt lat="44.2162" lon="6.21741">
        <ele>1150</ele>
        <time>2021-11-12T14:55:45+01:00</time>
      </trkpt>
      <trkpt lat="44.21611" lon="6.21765">
        <ele>1147</ele>
        <time>2021-11-12T14:56:03+01:00</time>
      </trkpt>
      <trkpt lat="44.21597" lon="6.2178">
        <ele>1144</ele>
        <time>2021-11-12T14:56:21+01:00</time>
      </trkpt>
      <trkpt lat="44.21593" lon="6.21788">
        <ele>1143</ele>
        <time>2021-11-12T14:56:39+01:00</time>
      </trkpt>
      <trkpt lat="44.21594" lon="6.2179">
        <ele>1144</ele>
        <time>2021-11-12T14:56:42+01:00</time>
      </trkpt>
      <trkpt lat="44.21594" lon="6.21792">
        <ele>1145</ele>
        <time>2021-11-12T14:56:44+01:00</time>
      </trkpt>
      <trkpt lat="44.21591" lon="6.21806">
        <ele>1145</ele>
        <time>2021-11-12T14:56:57+01:00</time>
      </trkpt>
      <trkpt lat="44.21589" lon="6.21829">
        <ele>1146</ele>
        <time>2021-11-12T14:57:14+01:00</time>
      </trkpt>
      <trkpt lat="44.21588" lon="6.21855">
        <ele>1147</ele>
        <time>2021-11-12T14:57:34+01:00</time>
      </trkpt>
      <trkpt lat="44.21584" lon="6.21875">
        <ele>1145</ele>
        <time>2021-11-12T14:57:50+01:00</time>
      </trkpt>
      <trkpt lat="44.21583" lon="6.21902">
        <ele>1144</ele>
        <time>2021-11-12T14:58:08+01:00</time>
      </trkpt>
      <trkpt lat="44.21586" lon="6.21922">
        <ele>1144</ele>
        <time>2021-11-12T14:58:23+01:00</time>
      </trkpt>
      <trkpt lat="44.21587" lon="6.21943">
        <ele>1143</ele>
        <time>2021-11-12T14:58:38+01:00</time>
      </trkpt>
      <trkpt lat="44.21585" lon="6.21967">
        <ele>1142</ele>
        <time>2021-11-12T14:58:54+01:00</time>
      </trkpt>
      <trkpt lat="44.21577" lon="6.21983">
        <ele>1143</ele>
        <time>2021-11-12T14:59:08+01:00</time>
      </trkpt>
      <trkpt lat="44.21564" lon="6.21996">
        <ele>1141</ele>
        <time>2021-11-12T14:59:25+01:00</time>
      </trkpt>
      <trkpt lat="44.21564" lon="6.21997">
        <ele>1141</ele>
        <time>2021-11-12T14:59:26+01:00</time>
      </trkpt>
      <trkpt lat="44.21546" lon="6.22007">
        <ele>1138</ele>
        <time>2021-11-12T14:59:45+01:00</time>
      </trkpt>
      <trkpt lat="44.21537" lon="6.22014">
        <ele>1137</ele>
        <time>2021-11-12T14:59:59+01:00</time>
      </trkpt>
      <trkpt lat="44.21527" lon="6.22022">
        <ele>1136</ele>
        <time>2021-11-12T15:00:16+01:00</time>
      </trkpt>
      <trkpt lat="44.21521" lon="6.22024">
        <ele>1134</ele>
        <time>2021-11-12T15:00:27+01:00</time>
      </trkpt>
      <trkpt lat="44.21515" lon="6.22031">
        <ele>1133</ele>
        <time>2021-11-12T15:00:43+01:00</time>
      </trkpt>
      <trkpt lat="44.21512" lon="6.22043">
        <ele>1132</ele>
        <time>2021-11-12T15:01:00+01:00</time>
      </trkpt>
      <trkpt lat="44.21511" lon="6.22049">
        <ele>1131</ele>
        <time>2021-11-12T15:01:15+01:00</time>
      </trkpt>
      <trkpt lat="44.21505" lon="6.22051">
        <ele>1129</ele>
        <time>2021-11-12T15:01:30+01:00</time>
      </trkpt>
      <trkpt lat="44.21495" lon="6.22046">
        <ele>1124</ele>
        <time>2021-11-12T15:01:46+01:00</time>
      </trkpt>
      <trkpt lat="44.21489" lon="6.22039">
        <ele>1122</ele>
        <time>2021-11-12T15:02:01+01:00</time>
      </trkpt>
      <trkpt lat="44.21488" lon="6.22035">
        <ele>1121</ele>
        <time>2021-11-12T15:02:19+01:00</time>
      </trkpt>
      <trkpt lat="44.21489" lon="6.22033">
        <ele>1122</ele>
        <time>2021-11-12T15:02:32+01:00</time>
      </trkpt>
      <trkpt lat="44.21491" lon="6.22035">
        <ele>1122</ele>
        <time>2021-11-12T15:02:56+01:00</time>
      </trkpt>
      <trkpt lat="44.21484" lon="6.22032">
        <ele>1120</ele>
        <time>2021-11-12T15:03:11+01:00</time>
      </trkpt>
      <trkpt lat="44.21485" lon="6.22042">
        <ele>1121</ele>
        <time>2021-11-12T15:03:28+01:00</time>
      </trkpt>
      <trkpt lat="44.21487" lon="6.22049">
        <ele>1121</ele>
        <time>2021-11-12T15:03:44+01:00</time>
      </trkpt>
      <trkpt lat="44.21494" lon="6.22069">
        <ele>1122</ele>
        <time>2021-11-12T15:04:04+01:00</time>
      </trkpt>
      <trkpt lat="44.21497" lon="6.22072">
        <ele>1123</ele>
        <time>2021-11-12T15:04:07+01:00</time>
      </trkpt>
      <trkpt lat="44.21506" lon="6.22071">
        <ele>1127</ele>
        <time>2021-11-12T15:04:22+01:00</time>
      </trkpt>
      <trkpt lat="44.21504" lon="6.2208">
        <ele>1124</ele>
        <time>2021-11-12T15:04:38+01:00</time>
      </trkpt>
      <trkpt lat="44.21499" lon="6.22073">
        <ele>1123</ele>
        <time>2021-11-12T15:05:00+01:00</time>
      </trkpt>
      <trkpt lat="44.21499" lon="6.22072">
        <ele>1123</ele>
        <time>2021-11-12T15:05:01+01:00</time>
      </trkpt>
      <trkpt lat="44.21485" lon="6.22057">
        <ele>1121</ele>
        <time>2021-11-12T15:05:22+01:00</time>
      </trkpt>
      <trkpt lat="44.21486" lon="6.22049">
        <ele>1121</ele>
        <time>2021-11-12T15:05:38+01:00</time>
      </trkpt>
      <trkpt lat="44.21487" lon="6.22051">
        <ele>1122</ele>
        <time>2021-11-12T15:06:00+01:00</time>
      </trkpt>
      <trkpt lat="44.21487" lon="6.22049">
        <ele>1122</ele>
        <time>2021-11-12T15:06:27+01:00</time>
      </trkpt>
      <trkpt lat="44.21486" lon="6.22059">
        <ele>1121</ele>
        <time>2021-11-12T15:06:53+01:00</time>
      </trkpt>
      <trkpt lat="44.21486" lon="6.2206">
        <ele>1121</ele>
        <time>2021-11-12T15:06:54+01:00</time>
      </trkpt>
      <trkpt lat="44.21481" lon="6.22062">
        <ele>1119</ele>
        <time>2021-11-12T15:07:07+01:00</time>
      </trkpt>
      <trkpt lat="44.2146" lon="6.2206">
        <ele>1115</ele>
        <time>2021-11-12T15:07:27+01:00</time>
      </trkpt>
      <trkpt lat="44.21458" lon="6.22057">
        <ele>1115</ele>
        <time>2021-11-12T15:07:44+01:00</time>
      </trkpt>
      <trkpt lat="44.21457" lon="6.22053">
        <ele>1115</ele>
        <time>2021-11-12T15:08:07+01:00</time>
      </trkpt>
      <trkpt lat="44.2146" lon="6.22041">
        <ele>1115</ele>
        <time>2021-11-12T15:08:23+01:00</time>
      </trkpt>
      <trkpt lat="44.21469" lon="6.22023">
        <ele>1114</ele>
        <time>2021-11-12T15:08:42+01:00</time>
      </trkpt>
      <trkpt lat="44.21477" lon="6.22006">
        <ele>1109</ele>
        <time>2021-11-12T15:08:59+01:00</time>
      </trkpt>
      <trkpt lat="44.21483" lon="6.21991">
        <ele>1106</ele>
        <time>2021-11-12T15:09:18+01:00</time>
      </trkpt>
      <trkpt lat="44.21491" lon="6.21973">
        <ele>1104</ele>
        <time>2021-11-12T15:09:35+01:00</time>
      </trkpt>
      <trkpt lat="44.21499" lon="6.21952">
        <ele>1104</ele>
        <time>2021-11-12T15:09:52+01:00</time>
      </trkpt>
      <trkpt lat="44.21513" lon="6.21928">
        <ele>1105</ele>
        <time>2021-11-12T15:10:13+01:00</time>
      </trkpt>
      <trkpt lat="44.21523" lon="6.21915">
        <ele>1108</ele>
        <time>2021-11-12T15:10:28+01:00</time>
      </trkpt>
      <trkpt lat="44.21518" lon="6.21889">
        <ele>1105</ele>
        <time>2021-11-12T15:10:46+01:00</time>
      </trkpt>
      <trkpt lat="44.21513" lon="6.21866">
        <ele>1105</ele>
        <time>2021-11-12T15:11:02+01:00</time>
      </trkpt>
      <trkpt lat="44.21512" lon="6.21842">
        <ele>1107</ele>
        <time>2021-11-12T15:11:22+01:00</time>
      </trkpt>
      <trkpt lat="44.21512" lon="6.21838">
        <ele>1107</ele>
        <time>2021-11-12T15:11:25+01:00</time>
      </trkpt>
      <trkpt lat="44.21515" lon="6.21801">
        <ele>1107</ele>
        <time>2021-11-12T15:11:49+01:00</time>
      </trkpt>
      <trkpt lat="44.21516" lon="6.21777">
        <ele>1106</ele>
        <time>2021-11-12T15:12:06+01:00</time>
      </trkpt>
      <trkpt lat="44.21517" lon="6.21752">
        <ele>1105</ele>
        <time>2021-11-12T15:12:25+01:00</time>
      </trkpt>
      <trkpt lat="44.21526" lon="6.21722">
        <ele>1105</ele>
        <time>2021-11-12T15:12:46+01:00</time>
      </trkpt>
      <trkpt lat="44.21526" lon="6.21721">
        <ele>1105</ele>
        <time>2021-11-12T15:12:47+01:00</time>
      </trkpt>
      <trkpt lat="44.21538" lon="6.21687">
        <ele>1107</ele>
        <time>2021-11-12T15:13:11+01:00</time>
      </trkpt>
      <trkpt lat="44.21537" lon="6.21661">
        <ele>1105</ele>
        <time>2021-11-12T15:13:31+01:00</time>
      </trkpt>
      <trkpt lat="44.21533" lon="6.21649">
        <ele>1103</ele>
        <time>2021-11-12T15:13:39+01:00</time>
      </trkpt>
      <trkpt lat="44.2153" lon="6.21627">
        <ele>1100</ele>
        <time>2021-11-12T15:13:59+01:00</time>
      </trkpt>
      <trkpt lat="44.21532" lon="6.21616">
        <ele>1102</ele>
        <time>2021-11-12T15:14:16+01:00</time>
      </trkpt>
      <trkpt lat="44.21538" lon="6.21602">
        <ele>1104</ele>
        <time>2021-11-12T15:14:32+01:00</time>
      </trkpt>
      <trkpt lat="44.21552" lon="6.21581">
        <ele>1109</ele>
        <time>2021-11-12T15:14:50+01:00</time>
      </trkpt>
      <trkpt lat="44.21567" lon="6.21553">
        <ele>1111</ele>
        <time>2021-11-12T15:15:13+01:00</time>
      </trkpt>
      <trkpt lat="44.2158" lon="6.21522">
        <ele>1112</ele>
        <time>2021-11-12T15:15:36+01:00</time>
      </trkpt>
      <trkpt lat="44.21589" lon="6.21491">
        <ele>1114</ele>
        <time>2021-11-12T15:15:57+01:00</time>
      </trkpt>
      <trkpt lat="44.21595" lon="6.21463">
        <ele>1116</ele>
        <time>2021-11-12T15:16:17+01:00</time>
      </trkpt>
      <trkpt lat="44.21608" lon="6.21438">
        <ele>1118</ele>
        <time>2021-11-12T15:16:37+01:00</time>
      </trkpt>
      <trkpt lat="44.21609" lon="6.21436">
        <ele>1118</ele>
        <time>2021-11-12T15:16:39+01:00</time>
      </trkpt>
      <trkpt lat="44.21614" lon="6.21417">
        <ele>1119</ele>
        <time>2021-11-12T15:16:56+01:00</time>
      </trkpt>
      <trkpt lat="44.21613" lon="6.21413">
        <ele>1119</ele>
        <time>2021-11-12T15:17:16+01:00</time>
      </trkpt>
      <trkpt lat="44.21603" lon="6.21396">
        <ele>1121</ele>
        <time>2021-11-12T15:17:31+01:00</time>
      </trkpt>
      <trkpt lat="44.21593" lon="6.21398">
        <ele>1121</ele>
        <time>2021-11-12T15:17:41+01:00</time>
      </trkpt>
      <trkpt lat="44.21573" lon="6.21401">
        <ele>1119</ele>
        <time>2021-11-12T15:17:59+01:00</time>
      </trkpt>
      <trkpt lat="44.21571" lon="6.214">
        <ele>1119</ele>
        <time>2021-11-12T15:18:01+01:00</time>
      </trkpt>
      <trkpt lat="44.21561" lon="6.21393">
        <ele>1119</ele>
        <time>2021-11-12T15:18:13+01:00</time>
      </trkpt>
      <trkpt lat="44.21545" lon="6.21382">
        <ele>1120</ele>
        <time>2021-11-12T15:18:32+01:00</time>
      </trkpt>
      <trkpt lat="44.21523" lon="6.21385">
        <ele>1119</ele>
        <time>2021-11-12T15:18:52+01:00</time>
      </trkpt>
      <trkpt lat="44.2151" lon="6.21393">
        <ele>1118</ele>
        <time>2021-11-12T15:19:08+01:00</time>
      </trkpt>
      <trkpt lat="44.21488" lon="6.21393">
        <ele>1118</ele>
        <time>2021-11-12T15:19:28+01:00</time>
      </trkpt>
      <trkpt lat="44.21471" lon="6.21386">
        <ele>1117</ele>
        <time>2021-11-12T15:19:46+01:00</time>
      </trkpt>
      <trkpt lat="44.21463" lon="6.21384">
        <ele>1117</ele>
        <time>2021-11-12T15:19:54+01:00</time>
      </trkpt>
      <trkpt lat="44.21462" lon="6.21384">
        <ele>1116</ele>
        <time>2021-11-12T15:19:55+01:00</time>
      </trkpt>
      <trkpt lat="44.21461" lon="6.21384">
        <ele>1116</ele>
        <time>2021-11-12T15:19:56+01:00</time>
      </trkpt>
      <trkpt lat="44.21442" lon="6.21385">
        <ele>1114</ele>
        <time>2021-11-12T15:20:13+01:00</time>
      </trkpt>
      <trkpt lat="44.2142" lon="6.21388">
        <ele>1112</ele>
        <time>2021-11-12T15:20:32+01:00</time>
      </trkpt>
      <trkpt lat="44.21401" lon="6.21389">
        <ele>1110</ele>
        <time>2021-11-12T15:20:50+01:00</time>
      </trkpt>
      <trkpt lat="44.21377" lon="6.2138">
        <ele>1107</ele>
        <time>2021-11-12T15:21:12+01:00</time>
      </trkpt>
      <trkpt lat="44.21363" lon="6.21351">
        <ele>1107</ele>
        <time>2021-11-12T15:21:34+01:00</time>
      </trkpt>
      <trkpt lat="44.21352" lon="6.21326">
        <ele>1106</ele>
        <time>2021-11-12T15:21:53+01:00</time>
      </trkpt>
      <trkpt lat="44.21335" lon="6.21304">
        <ele>1105</ele>
        <time>2021-11-12T15:22:14+01:00</time>
      </trkpt>
      <trkpt lat="44.21317" lon="6.21294">
        <ele>1102</ele>
        <time>2021-11-12T15:22:33+01:00</time>
      </trkpt>
      <trkpt lat="44.213" lon="6.21292">
        <ele>1100</ele>
        <time>2021-11-12T15:22:48+01:00</time>
      </trkpt>
      <trkpt lat="44.21285" lon="6.21293">
        <ele>1097</ele>
        <time>2021-11-12T15:23:05+01:00</time>
      </trkpt>
      <trkpt lat="44.21272" lon="6.21293">
        <ele>1095</ele>
        <time>2021-11-12T15:23:21+01:00</time>
      </trkpt>
      <trkpt lat="44.21265" lon="6.21288">
        <ele>1096</ele>
        <time>2021-11-12T15:23:33+01:00</time>
      </trkpt>
      <trkpt lat="44.21264" lon="6.21287">
        <ele>1096</ele>
        <time>2021-11-12T15:23:47+01:00</time>
      </trkpt>
      <trkpt lat="44.21264" lon="6.21289">
        <ele>1096</ele>
        <time>2021-11-12T15:24:11+01:00</time>
      </trkpt>
    </trkseg>
  </trk>
</gpx>